DL856 / N900PC 7700 Squawk Report (4th of July, 2022)

Aircraft B752 Reg No. N900PC Age 25 years old
Model 757 Jet engines 2 First flight 08-01-97
Registered 21-01-97 Rollout N/A Delivered 21-01-97
Construction No. 28446 Line No. 0740 Series 26D
ADSHEX AC7074 Airline name Delta Air Lines Owner N/A
Airfield based Atlanta-Hartsfield~GA~N First tracked N/A

Flight history for N900PC

Route Flight No Date Playback
Hartsfield Jackson Atlanta Intl (ATL) - John Wayne Arpt Orange Co (SNA) DL663 2022-08-12 02:37:00
La Aurora (GUA) - Hartsfield Jackson Atlanta Intl (ATL) DL1831 2022-08-11 22:18:00
Hartsfield Jackson Atlanta Intl (ATL) - La Aurora (GUA) DL1830 2022-08-11 19:39:00
Southwest Florida Intl (RSW) - Hartsfield Jackson Atlanta Intl (ATL) DL1490 2022-08-11 12:30:00
Hartsfield Jackson Atlanta Intl (ATL) - Southwest Florida Intl (RSW) DL2733 2022-08-10 22:27:00
Hartsfield Jackson Atlanta Intl (ATL) - Louis Armstrong New Orleans Intl (MSY) - Hartsfield Jackson Atlanta Intl (ATL) DL2391 2022-08-10 20:01:00
Detroit Metro Wayne Co (DTW) - Hartsfield Jackson Atlanta Intl (ATL) DL502 2022-08-10 14:13:00
Hartsfield Jackson Atlanta Intl (ATL) - Detroit Metro Wayne Co (DTW) DL372 2022-08-10 01:52:00
Cyril E King (STT) - Hartsfield Jackson Atlanta Intl (ATL) DL1850 2022-08-09 20:58:00
John F Kennedy Intl (JFK) - Cyril E King (STT) DL1058 2022-08-09 17:38:00
Licenciado Benito Juarez (MEX) - John F Kennedy Intl (JFK) DL624 2022-08-09 12:08:00
John F Kennedy Intl (JFK) - Licenciado Benito Juarez (MEX) DL625 2022-08-08 20:32:00
Cyril E King (STT) - John F Kennedy Intl (JFK) DL635 2022-08-08 01:12:00
Hartsfield Jackson Atlanta Intl (ATL) - Cyril E King (STT) DL648 2022-08-07 19:30:00
Orlando Intl (MCO) - Hartsfield Jackson Atlanta Intl (ATL) DL1254 2022-08-07 14:25:00
Hartsfield Jackson Atlanta Intl (ATL) - Orlando Intl (MCO) DL2963 2022-08-07 06:29:00
Hartsfield Jackson Atlanta Intl (ATL) - Norfolk Intl (ORF) - Hartsfield Jackson Atlanta Intl (ATL) DL2253 2022-08-07 00:16:00
Hartsfield Jackson Atlanta Intl (ATL) - Norfolk Intl (ORF) - Hartsfield Jackson Atlanta Intl (ATL) DL2294 2022-08-06 18:26:00
Raleigh Durham Intl (RDU) - Hartsfield Jackson Atlanta Intl (ATL) DL1585 2022-08-06 12:11:00
Hartsfield Jackson Atlanta Intl (ATL) - Raleigh Durham Intl (RDU) DL538 2022-08-06 03:15:00
Time Lat Lon Altitude Heading Speed Vertical Rate
2022-07-04 18:28:09 GMT 33.638660 -84.437302 0 351 4 352
2022-07-04 18:28:08 GMT 33.638649 -84.437286 0 351 4 352
2022-07-04 18:28:07 GMT 33.638630 -84.437279 0 351 4 352
2022-07-04 18:28:06 GMT 33.638592 -84.437271 0 353 4 352
2022-07-04 18:28:04 GMT 33.638592 -84.437233 0 355 4 352
2022-07-04 18:28:03 GMT 33.638580 -84.437241 0 356 4 352
2022-07-04 18:28:01 GMT 33.638641 -84.437218 0 358 9 352
2022-07-04 18:28:00 GMT 33.638630 -84.437202 0 358 9 352
2022-07-04 18:27:59 GMT 33.638561 -84.437210 0 358 9 352
2022-07-04 18:27:57 GMT 33.638519 -84.437210 0 358 10 352
2022-07-04 18:27:56 GMT 33.638481 -84.437210 0 358 10 352
2022-07-04 18:27:54 GMT 33.638401 -84.437210 0 356 11 352
2022-07-04 18:27:53 GMT 33.638359 -84.437210 0 356 12 352
2022-07-04 18:27:51 GMT 33.638260 -84.437187 0 359 14 352
2022-07-04 18:27:50 GMT 33.638199 -84.437187 0 358 14 352
2022-07-04 18:27:48 GMT 33.638050 -84.437172 0 7 11 352
2022-07-04 18:27:47 GMT 33.638008 -84.437180 0 7 13 352
2022-07-04 18:27:45 GMT 33.637901 -84.437233 0 357 12 352
2022-07-04 18:27:44 GMT 33.637852 -84.437187 0 2 13 352
2022-07-04 18:27:42 GMT 33.637718 -84.437233 0 0 12 352
2022-07-04 18:27:41 GMT 33.637691 -84.437202 0 3 15 352
2022-07-04 18:27:40 GMT 33.637539 -84.437218 0 359 15 352
2022-07-04 18:27:38 GMT 33.637489 -84.437187 0 7 17 352
2022-07-04 18:27:36 GMT 33.637280 -84.437202 0 17 13 352
2022-07-04 18:27:35 GMT 33.637218 -84.437202 0 19 13 352
2022-07-04 18:27:34 GMT 33.637100 -84.437210 0 26 15 352
2022-07-04 18:27:33 GMT 33.637039 -84.437248 0 27 15 352
2022-07-04 18:27:30 GMT 33.636929 -84.437317 0 22 16 352
2022-07-04 18:27:29 GMT 33.636761 -84.437401 0 20 12 352
2022-07-04 18:27:28 GMT 33.636719 -84.437424 0 23 14 352
2022-07-04 18:27:26 GMT 33.636669 -84.437424 0 24 16 352
2022-07-04 18:27:25 GMT 33.636539 -84.437492 0 16 15 352
2022-07-04 18:27:23 GMT 33.636471 -84.437500 0 14 15 352
2022-07-04 18:27:21 GMT 33.636372 -84.437561 0 354 17 352
2022-07-04 18:27:20 GMT 33.636311 -84.437561 0 349 18 352
2022-07-04 18:27:19 GMT 33.636219 -84.437553 0 340 17 352
2022-07-04 18:27:17 GMT 33.636059 -84.437531 0 313 15 352
2022-07-04 18:27:16 GMT 33.635979 -84.437431 0 303 16 352
2022-07-04 18:27:14 GMT 33.635910 -84.437363 0 292 15 352
2022-07-04 18:27:12 GMT 33.635849 -84.437202 0 283 14 352
2022-07-04 18:27:11 GMT 33.635830 -84.437141 0 279 17 352
2022-07-04 18:27:10 GMT 33.635792 -84.436989 0 270 19 352
2022-07-04 18:27:08 GMT 33.635769 -84.436867 0 263 17 352
2022-07-04 18:27:06 GMT 33.635811 -84.436707 0 272 19 352
2022-07-04 18:27:05 GMT 33.635799 -84.436600 0 273 19 352
2022-07-04 18:27:04 GMT 33.635780 -84.436501 0 267 20 352
2022-07-04 18:27:03 GMT 33.635780 -84.436272 0 267 19 352
2022-07-04 18:27:01 GMT 33.635799 -84.436150 0 273 17 352
2022-07-04 18:27:00 GMT 33.635799 -84.435959 0 273 17 352
2022-07-04 18:26:58 GMT 33.635792 -84.435883 0 270 18 352
2022-07-04 18:26:57 GMT 33.635792 -84.435661 0 268 16 352
2022-07-04 18:26:55 GMT 33.635780 -84.435608 0 266 20 352
2022-07-04 18:26:54 GMT 33.635811 -84.435387 0 273 18 352
2022-07-04 18:26:52 GMT 33.635792 -84.435287 0 266 18 352
2022-07-04 18:26:50 GMT 33.635811 -84.435089 0 274 18 352
2022-07-04 18:26:49 GMT 33.635799 -84.434982 0 273 17 352
2022-07-04 18:26:47 GMT 33.635792 -84.434807 0 267 19 352
2022-07-04 18:26:46 GMT 33.635769 -84.434723 0 264 20 352
2022-07-04 18:26:44 GMT 33.635780 -84.434509 0 264 18 352
2022-07-04 18:26:43 GMT 33.635780 -84.434349 0 264 13 352
2022-07-04 18:26:41 GMT 33.635799 -84.434219 0 265 16 352
2022-07-04 18:26:40 GMT 33.635792 -84.434128 0 267 16 352
2022-07-04 18:26:39 GMT 33.635799 -84.433968 0 264 17 352
2022-07-04 18:26:37 GMT 33.635811 -84.433769 0 271 15 352
2022-07-04 18:26:35 GMT 33.635818 -84.433701 0 281 15 352
2022-07-04 18:26:34 GMT 33.635799 -84.433609 0 285 15 352
2022-07-04 18:26:32 GMT 33.635792 -84.433479 0 302 16 352
2022-07-04 18:26:31 GMT 33.635769 -84.433403 0 314 17 352
2022-07-04 18:26:30 GMT 33.635712 -84.433327 0 319 16 352
2022-07-04 18:26:29 GMT 33.635639 -84.433182 0 343 18 352
2022-07-04 18:26:27 GMT 33.635551 -84.433128 0 349 16 352
2022-07-04 18:26:26 GMT 33.635471 -84.433090 0 358 14 352
2022-07-04 18:26:24 GMT 33.635342 -84.433090 0 2 15 352
2022-07-04 18:26:23 GMT 33.635201 -84.433098 0 359 14 352
2022-07-04 18:26:21 GMT 33.635132 -84.433098 0 357 14 352
2022-07-04 18:26:20 GMT 33.635040 -84.433090 0 359 12 352
2022-07-04 18:26:19 GMT 33.634918 -84.433083 0 4 10 352
2022-07-04 18:26:17 GMT 33.634880 -84.433083 0 5 10 352
2022-07-04 18:26:15 GMT 33.634769 -84.433121 0 350 12 352
2022-07-04 18:26:14 GMT 33.634659 -84.433090 0 1 12 352
2022-07-04 18:26:12 GMT 33.634602 -84.433052 0 11 11 352
2022-07-04 18:26:10 GMT 33.634499 -84.433121 0 353 12 352
2022-07-04 18:26:09 GMT 33.634441 -84.433121 0 354 12 352
2022-07-04 18:26:07 GMT 33.634338 -84.433090 0 3 13 352
2022-07-04 18:26:06 GMT 33.634190 -84.433113 0 359 9 352
2022-07-04 18:26:04 GMT 33.634151 -84.433098 0 3 9 352
2022-07-04 18:26:03 GMT 33.634071 -84.433090 0 14 9 352
2022-07-04 18:26:01 GMT 33.634029 -84.433098 0 20 9 352
2022-07-04 18:26:00 GMT 33.633968 -84.433098 0 27 7 352
2022-07-04 18:25:58 GMT 33.633919 -84.433182 0 4 8 352
2022-07-04 18:25:57 GMT 33.633869 -84.433167 0 19 5 352
2022-07-04 18:25:56 GMT 33.633850 -84.433159 0 32 5 352
2022-07-04 18:25:55 GMT 33.633801 -84.433167 0 43 4 352
2022-07-04 18:25:53 GMT 33.633770 -84.433212 0 47 3 352
2022-07-04 18:25:52 GMT 33.633739 -84.433220 0 47 2 352
2022-07-04 18:25:51 GMT 33.633720 -84.433243 0 47 1 352
2022-07-04 18:25:49 GMT 33.633732 -84.433228 0 47 2 352
2022-07-04 18:25:47 GMT 33.633720 -84.433258 0 47 2 352
2022-07-04 18:25:46 GMT 33.633701 -84.433258 0 47 1 352
2022-07-04 18:25:43 GMT 33.633709 -84.433281 0 47 2 352
2022-07-04 18:25:42 GMT 33.633709 -84.433258 0 47 2 352
2022-07-04 18:25:40 GMT 33.633701 -84.433220 0 47 1 352
2022-07-04 18:25:39 GMT 33.633709 -84.433228 0 47 1 352
2022-07-04 18:25:37 GMT 33.633709 -84.433228 0 47 2 352
2022-07-04 18:25:36 GMT 33.633690 -84.433243 0 47 2 352
2022-07-04 18:25:35 GMT 33.633701 -84.433250 0 47 1 352
2022-07-04 18:25:32 GMT 33.633709 -84.433250 0 47 0 352
2022-07-04 18:25:31 GMT 33.633709 -84.433258 0 47 0 352
2022-07-04 18:25:30 GMT 33.633701 -84.433258 0 47 1 352
2022-07-04 18:25:28 GMT 33.633671 -84.433281 0 47 3 352
2022-07-04 18:25:27 GMT 33.633678 -84.433273 0 43 3 352
2022-07-04 18:25:25 GMT 33.633709 -84.433273 0 43 1 352
2022-07-04 18:25:24 GMT 33.633732 -84.433228 0 43 2 352
2022-07-04 18:25:21 GMT 33.633701 -84.433258 0 43 1 352
2022-07-04 18:25:18 GMT 33.633709 -84.433281 0 49 5 352
2022-07-04 18:25:16 GMT 33.633690 -84.433289 0 70 5 352
2022-07-04 18:25:15 GMT 33.633659 -84.433289 0 71 6 352
2022-07-04 18:25:13 GMT 33.633671 -84.433350 0 64 7 352
2022-07-04 18:25:11 GMT 33.633640 -84.433411 0 72 7 352
2022-07-04 18:25:10 GMT 33.633610 -84.433449 0 74 6 352
2022-07-04 18:25:09 GMT 33.633621 -84.433456 0 79 8 352
2022-07-04 18:25:07 GMT 33.633572 -84.433533 0 98 9 352
2022-07-04 18:25:06 GMT 33.633572 -84.433563 0 92 12 352
2022-07-04 18:25:04 GMT 33.633579 -84.433647 0 77 14 352
2022-07-04 18:25:03 GMT 33.633579 -84.433731 0 65 13 352
2022-07-04 18:25:01 GMT 33.633572 -84.433861 0 45 14 352
2022-07-04 18:25:00 GMT 33.633541 -84.433922 0 46 14 352
2022-07-04 18:24:59 GMT 33.633438 -84.434036 0 32 12 352
2022-07-04 18:24:57 GMT 33.633369 -84.434128 0 21 13 352
2022-07-04 18:24:55 GMT 33.633301 -84.434151 0 20 11 352
2022-07-04 18:24:53 GMT 33.633221 -84.434227 0 5 15 352
2022-07-04 18:24:52 GMT 33.633080 -84.434258 0 356 15 352
2022-07-04 18:24:50 GMT 33.633011 -84.434258 0 356 16 352
2022-07-04 18:24:48 GMT 33.632870 -84.434242 0 358 15 352
2022-07-04 18:24:46 GMT 33.632751 -84.434250 0 354 17 352
2022-07-04 18:24:45 GMT 33.632648 -84.434242 0 355 15 352
2022-07-04 18:24:43 GMT 33.632511 -84.434196 0 8 12 352
2022-07-04 18:24:42 GMT 33.632481 -84.434212 0 5 16 352
2022-07-04 18:24:41 GMT 33.632339 -84.434227 0 1 18 352
2022-07-04 18:24:39 GMT 33.632229 -84.434242 0 357 15 352
2022-07-04 18:24:37 GMT 33.632080 -84.434219 0 4 11 352
2022-07-04 18:24:36 GMT 33.632038 -84.434258 0 356 12 352
2022-07-04 18:24:35 GMT 33.631981 -84.434242 0 359 13 352
2022-07-04 18:24:34 GMT 33.631859 -84.434250 0 357 14 352
2022-07-04 18:24:32 GMT 33.631790 -84.434227 0 0 14 352
2022-07-04 18:24:31 GMT 33.631721 -84.434250 0 354 14 352
2022-07-04 18:24:29 GMT 33.631580 -84.434227 0 357 11 352
2022-07-04 18:24:28 GMT 33.631531 -84.434219 0 359 12 352
2022-07-04 18:24:26 GMT 33.631432 -84.434227 0 357 13 352
2022-07-04 18:24:25 GMT 33.631378 -84.434227 0 356 14 352
2022-07-04 18:24:24 GMT 33.631248 -84.434196 0 7 12 352
2022-07-04 18:24:22 GMT 33.631180 -84.434212 0 357 11 352
2022-07-04 18:24:21 GMT 33.631119 -84.434250 0 345 9 352
2022-07-04 18:24:19 GMT 33.631031 -84.434219 0 344 10 352
2022-07-04 18:24:18 GMT 33.630878 -84.434174 0 358 2 352
2022-07-04 18:24:16 GMT 33.630878 -84.434181 0 358 3 352
2022-07-04 18:24:14 GMT 33.630859 -84.434158 0 6 3 352
2022-07-04 18:24:13 GMT 33.630840 -84.434143 0 10 3 352
2022-07-04 18:24:10 GMT 33.630760 -84.434143 0 12 0 352
2022-07-04 18:24:07 GMT 33.630779 -84.434128 0 12 0 352
2022-07-04 18:24:05 GMT 33.630772 -84.434143 0 12 1 352
2022-07-04 18:24:04 GMT 33.630772 -84.434128 0 12 0 352
2022-07-04 18:24:02 GMT 33.630779 -84.434128 0 12 0 352
2022-07-04 18:24:01 GMT 33.630772 -84.434143 0 12 0 352
2022-07-04 18:24:00 GMT 33.630779 -84.434143 0 12 0 352
2022-07-04 18:23:59 GMT 33.630779 -84.434143 0 12 0 352
2022-07-04 18:23:57 GMT 33.630772 -84.434151 0 12 1 352
2022-07-04 18:23:56 GMT 33.630779 -84.434151 0 12 0 352
2022-07-04 18:23:54 GMT 33.630779 -84.434151 0 12 0 352
2022-07-04 18:23:51 GMT 33.630791 -84.434151 0 12 1 352
2022-07-04 18:23:50 GMT 33.630791 -84.434128 0 12 1 352
2022-07-04 18:23:48 GMT 33.630791 -84.434151 0 12 1 352
2022-07-04 18:23:46 GMT 33.630772 -84.434151 0 12 0 352
2022-07-04 18:23:43 GMT 33.630779 -84.434158 0 12 0 352
2022-07-04 18:23:42 GMT 33.630779 -84.434151 0 12 0 352
2022-07-04 18:23:41 GMT 33.630772 -84.434143 0 12 0 352
2022-07-04 18:23:38 GMT 33.630772 -84.434158 0 12 2 352
2022-07-04 18:23:37 GMT 33.630779 -84.434151 0 12 1 352
2022-07-04 18:23:35 GMT 33.630798 -84.434151 0 12 1 352
2022-07-04 18:23:33 GMT 33.630821 -84.434120 0 16 4 352
2022-07-04 18:23:32 GMT 33.630798 -84.434143 0 10 2 352
2022-07-04 18:23:30 GMT 33.630760 -84.434143 0 10 1 352
2022-07-04 18:23:29 GMT 33.630772 -84.434151 0 10 2 352
2022-07-04 18:23:27 GMT 33.630772 -84.434143 0 10 1 352
2022-07-04 18:23:26 GMT 33.630779 -84.434128 0 10 3 352
2022-07-04 18:23:25 GMT 33.630760 -84.434151 0 356 3 352
2022-07-04 18:23:23 GMT 33.630749 -84.434158 0 342 7 352
2022-07-04 18:23:22 GMT 33.630699 -84.434151 0 343 3 352
2022-07-04 18:23:20 GMT 33.630661 -84.434143 0 349 3 352
2022-07-04 18:23:19 GMT 33.630669 -84.434120 0 349 5 352
2022-07-04 18:23:17 GMT 33.630661 -84.434120 0 342 8 352
2022-07-04 18:23:16 GMT 33.630619 -84.434113 0 339 7 352
2022-07-04 18:23:15 GMT 33.630581 -84.434113 0 336 6 352
2022-07-04 18:23:14 GMT 33.630569 -84.434097 0 340 8 352
2022-07-04 18:23:12 GMT 33.630482 -84.434036 0 350 6 352
2022-07-04 18:23:11 GMT 33.630459 -84.434036 0 342 6 352
2022-07-04 18:23:09 GMT 33.630409 -84.434029 0 346 8 352
2022-07-04 18:23:08 GMT 33.630402 -84.434029 0 348 11 352
2022-07-04 18:23:07 GMT 33.630299 -84.433983 0 4 8 352
2022-07-04 18:23:05 GMT 33.630249 -84.433952 0 7 7 352
2022-07-04 18:23:04 GMT 33.630230 -84.433968 0 0 6 352
2022-07-04 18:23:02 GMT 33.630138 -84.433998 0 3 6 352
2022-07-04 18:23:01 GMT 33.630100 -84.433952 0 8 4 352
2022-07-04 18:23:00 GMT 33.630058 -84.433990 0 348 4 352
2022-07-04 18:22:58 GMT 33.630039 -84.433990 0 350 4 352
2022-07-04 18:22:57 GMT 33.630039 -84.433983 0 2 6 352
2022-07-04 18:22:55 GMT 33.629978 -84.433952 0 8 4 352
2022-07-04 18:22:53 GMT 33.629940 -84.433983 0 356 5 352
2022-07-04 18:22:52 GMT 33.629921 -84.433983 0 0 6 352
2022-07-04 18:22:50 GMT 33.629860 -84.433983 0 352 5 352
2022-07-04 18:22:49 GMT 33.629848 -84.433983 0 351 7 352
2022-07-04 18:22:48 GMT 33.629791 -84.433968 0 356 8 352
2022-07-04 18:22:46 GMT 33.629749 -84.433952 0 0 7 352
2022-07-04 18:22:44 GMT 33.629700 -84.433960 0 1 9 352
2022-07-04 18:22:43 GMT 33.629669 -84.433937 0 7 11 352
2022-07-04 18:22:42 GMT 33.629559 -84.433960 0 1 10 352
2022-07-04 18:22:40 GMT 33.629520 -84.433960 0 1 10 352
2022-07-04 18:22:39 GMT 33.629421 -84.433968 0 353 12 352
2022-07-04 18:22:37 GMT 33.629372 -84.433998 0 351 12 352
2022-07-04 18:22:36 GMT 33.629311 -84.433983 0 357 11 352
2022-07-04 18:22:35 GMT 33.629219 -84.433952 0 4 15 352
2022-07-04 18:22:33 GMT 33.629139 -84.433960 0 1 13 352
2022-07-04 18:22:32 GMT 33.629028 -84.433983 0 355 15 352
2022-07-04 18:22:30 GMT 33.628868 -84.433983 0 356 12 352
2022-07-04 18:22:28 GMT 33.628830 -84.433952 0 3 13 352
2022-07-04 18:22:27 GMT 33.628738 -84.433968 0 357 9 352
2022-07-04 18:22:25 GMT 33.628658 -84.433990 0 358 13 352
2022-07-04 18:22:24 GMT 33.628620 -84.433922 0 8 16 352
2022-07-04 18:22:23 GMT 33.628502 -84.433998 0 352 20 352
2022-07-04 18:22:21 GMT 33.628422 -84.433998 0 351 21 352
2022-07-04 18:22:20 GMT 33.628250 -84.433952 0 355 23 352
2022-07-04 18:22:18 GMT 33.628052 -84.433922 0 5 23 352
2022-07-04 18:22:16 GMT 33.627949 -84.433929 0 4 24 352
2022-07-04 18:22:15 GMT 33.627850 -84.433952 0 2 25 352
2022-07-04 18:22:14 GMT 33.627621 -84.433968 0 358 23 352
2022-07-04 18:22:12 GMT 33.627510 -84.433968 0 358 23 352
2022-07-04 18:22:10 GMT 33.627300 -84.433952 0 2 26 352
2022-07-04 18:22:09 GMT 33.627071 -84.433983 0 359 26 352
2022-07-04 18:22:07 GMT 33.626930 -84.433968 0 359 24 352
2022-07-04 18:22:06 GMT 33.626808 -84.433968 0 0 23 352
2022-07-04 18:22:05 GMT 33.626598 -84.433960 0 0 23 352
2022-07-04 18:22:03 GMT 33.626492 -84.433952 0 1 22 352
2022-07-04 18:22:01 GMT 33.626282 -84.433960 0 1 21 352
2022-07-04 18:22:00 GMT 33.626209 -84.433968 0 358 24 352
2022-07-04 18:21:58 GMT 33.625992 -84.433968 0 359 23 352
2022-07-04 18:21:57 GMT 33.625751 -84.433960 0 1 19 352
2022-07-04 18:21:55 GMT 33.625671 -84.433968 0 358 21 352
2022-07-04 18:21:54 GMT 33.625599 -84.433968 0 357 23 352
2022-07-04 18:21:52 GMT 33.625381 -84.433960 0 0 25 352
2022-07-04 18:21:51 GMT 33.625111 -84.433968 0 359 20 352
2022-07-04 18:21:49 GMT 33.625031 -84.433968 0 358 21 352
2022-07-04 18:21:48 GMT 33.624840 -84.433960 0 2 24 352
2022-07-04 18:21:46 GMT 33.624729 -84.433983 0 358 23 352
2022-07-04 18:21:45 GMT 33.624500 -84.433968 0 355 21 352
2022-07-04 18:21:43 GMT 33.624420 -84.433937 0 2 23 352
2022-07-04 18:21:42 GMT 33.624298 -84.433968 0 356 22 352
2022-07-04 18:21:40 GMT 33.624100 -84.433937 0 1 22 352
2022-07-04 18:21:39 GMT 33.624001 -84.433937 0 2 23 352
2022-07-04 18:21:37 GMT 33.623779 -84.433952 0 2 22 352
2022-07-04 18:21:36 GMT 33.623680 -84.433952 0 2 22 352
2022-07-04 18:21:34 GMT 33.623482 -84.433983 0 358 23 352
2022-07-04 18:21:33 GMT 33.623390 -84.433937 0 5 24 352
2022-07-04 18:21:31 GMT 33.623150 -84.433968 0 5 21 352
2022-07-04 18:21:30 GMT 33.623020 -84.433960 0 6 18 352
2022-07-04 18:21:28 GMT 33.622879 -84.433960 0 0 20 352
2022-07-04 18:21:27 GMT 33.622700 -84.433968 0 347 18 352
2022-07-04 18:21:25 GMT 33.622620 -84.433968 0 337 19 352
2022-07-04 18:21:24 GMT 33.622459 -84.433929 0 319 19 352
2022-07-04 18:21:22 GMT 33.622379 -84.433838 0 316 17 352
2022-07-04 18:21:21 GMT 33.622311 -84.433800 0 309 17 352
2022-07-04 18:21:19 GMT 33.622169 -84.433647 0 284 16 352
2022-07-04 18:21:18 GMT 33.622139 -84.433578 0 278 17 352
2022-07-04 18:21:17 GMT 33.622120 -84.433502 0 277 18 352
2022-07-04 18:21:15 GMT 33.622089 -84.433311 0 273 20 352
2022-07-04 18:21:14 GMT 33.622070 -84.433197 0 268 20 352
2022-07-04 18:21:12 GMT 33.622089 -84.432991 0 270 22 352
2022-07-04 18:21:11 GMT 33.622082 -84.432877 0 268 23 352
2022-07-04 18:21:09 GMT 33.622082 -84.432617 0 267 23 352
2022-07-04 18:21:08 GMT 33.622101 -84.432503 0 272 24 352
2022-07-04 18:21:07 GMT 33.622082 -84.432243 0 270 23 352
2022-07-04 18:21:05 GMT 33.622089 -84.432114 0 271 22 352
2022-07-04 18:21:04 GMT 33.622070 -84.431992 0 267 24 352
2022-07-04 18:21:02 GMT 33.622070 -84.431732 0 265 25 352
2022-07-04 18:21:01 GMT 33.622089 -84.431587 0 268 26 352
2022-07-04 18:21:00 GMT 33.622101 -84.431313 0 271 26 352
2022-07-04 18:20:58 GMT 33.622082 -84.431160 0 268 25 352
2022-07-04 18:20:57 GMT 33.622089 -84.430878 0 270 25 352
2022-07-04 18:20:55 GMT 33.622070 -84.430717 0 265 23 352
2022-07-04 18:20:54 GMT 33.622101 -84.430458 0 269 22 352
2022-07-04 18:20:52 GMT 33.622089 -84.430344 0 267 23 352
2022-07-04 18:20:51 GMT 33.622101 -84.430229 0 269 25 352
2022-07-04 18:20:49 GMT 33.622139 -84.429962 0 275 24 352
2022-07-04 18:20:48 GMT 33.622120 -84.429810 0 275 22 352
2022-07-04 18:20:46 GMT 33.622108 -84.429581 0 275 24 352
2022-07-04 18:20:45 GMT 33.622108 -84.429443 0 279 24 352
2022-07-04 18:20:44 GMT 33.622101 -84.429314 0 281 25 352
2022-07-04 18:20:42 GMT 33.622051 -84.429039 0 282 25 352
2022-07-04 18:20:41 GMT 33.622040 -84.428902 0 284 25 352
2022-07-04 18:20:40 GMT 33.621971 -84.428627 0 280 24 352
2022-07-04 18:20:38 GMT 33.621948 -84.428490 0 282 24 352
2022-07-04 18:20:36 GMT 33.621891 -84.428223 0 278 22 352
2022-07-04 18:20:34 GMT 33.621849 -84.427849 0 276 23 352
2022-07-04 18:20:32 GMT 33.621861 -84.427719 0 281 23 352
2022-07-04 18:20:31 GMT 33.621841 -84.427589 0 282 23 352
2022-07-04 18:20:29 GMT 33.621780 -84.427322 0 278 23 352
2022-07-04 18:20:28 GMT 33.621780 -84.427177 0 281 21 352
2022-07-04 18:20:27 GMT 33.621731 -84.426949 0 279 22 352
2022-07-04 18:20:25 GMT 33.621712 -84.426826 0 277 21 352
2022-07-04 18:20:24 GMT 33.621689 -84.426720 0 275 22 352
2022-07-04 18:20:22 GMT 33.621658 -84.426468 0 270 23 352
2022-07-04 18:20:21 GMT 33.621670 -84.426361 0 273 24 352
2022-07-04 18:20:19 GMT 33.621632 -84.426086 0 262 21 352
2022-07-04 18:20:18 GMT 33.621639 -84.425972 0 260 21 352
2022-07-04 18:20:17 GMT 33.621658 -84.425850 0 261 20 352
2022-07-04 18:20:16 GMT 33.621681 -84.425629 0 257 21 352
2022-07-04 18:20:14 GMT 33.621681 -84.425499 0 250 21 352
2022-07-04 18:20:12 GMT 33.621738 -84.425278 0 248 19 352
2022-07-04 18:20:11 GMT 33.621731 -84.425179 0 236 20 352
2022-07-04 18:20:09 GMT 33.621830 -84.424973 0 238 18 352
2022-07-04 18:20:08 GMT 33.621849 -84.424881 0 236 19 352
2022-07-04 18:20:06 GMT 33.621929 -84.424721 0 244 19 352
2022-07-04 18:20:05 GMT 33.622009 -84.424660 0 261 19 352
2022-07-04 18:20:03 GMT 33.622028 -84.424477 0 267 20 352
2022-07-04 18:20:02 GMT 33.622051 -84.424370 0 275 19 352
2022-07-04 18:20:01 GMT 33.622051 -84.424278 0 283 18 352
2022-07-04 18:19:59 GMT 33.622028 -84.424103 0 297 19 352
2022-07-04 18:19:58 GMT 33.621990 -84.423912 0 321 20 352
2022-07-04 18:19:56 GMT 33.621922 -84.423851 0 326 19 352
2022-07-04 18:19:54 GMT 33.621792 -84.423737 0 340 20 352
2022-07-04 18:19:53 GMT 33.621712 -84.423691 0 350 18 352
2022-07-04 18:19:52 GMT 33.621540 -84.423607 0 21 17 352
2022-07-04 18:19:50 GMT 33.621441 -84.423653 0 28 16 352
2022-07-04 18:19:48 GMT 33.621311 -84.423721 0 42 20 352
2022-07-04 18:19:47 GMT 33.621239 -84.423782 0 46 21 352
2022-07-04 18:19:45 GMT 33.621109 -84.423950 0 53 25 352
2022-07-04 18:19:44 GMT 33.621059 -84.424057 0 52 27 352
2022-07-04 18:19:42 GMT 33.620930 -84.424301 0 55 32 352
2022-07-04 18:19:41 GMT 33.620831 -84.424408 0 62 33 352
2022-07-04 18:19:39 GMT 33.620701 -84.424744 0 66 35 352
2022-07-04 18:19:38 GMT 33.620621 -84.424911 0 69 35 352
2022-07-04 18:19:36 GMT 33.620491 -84.425293 0 76 37 352
2022-07-04 18:19:35 GMT 33.620461 -84.425461 0 77 41 352
2022-07-04 18:19:34 GMT 33.620361 -84.425926 0 82 41 352
2022-07-04 18:19:32 GMT 33.620319 -84.426147 0 86 43 352
2022-07-04 18:19:31 GMT 33.620281 -84.426376 0 88 45 352
2022-07-04 18:19:29 GMT 33.620258 -84.426872 0 90 49 352
2022-07-04 18:19:28 GMT 33.620251 -84.427132 0 91 54 352
2022-07-04 18:19:27 GMT 33.620258 -84.427399 0 90 57 352
2022-07-04 18:19:26 GMT 33.620281 -84.428040 0 89 59 352
2022-07-04 18:19:24 GMT 33.620251 -84.428391 0 91 60 352
2022-07-04 18:19:22 GMT 33.620270 -84.429070 0 90 63 352
2022-07-04 18:19:21 GMT 33.620281 -84.429764 0 89 73 352
2022-07-04 18:19:20 GMT 33.620281 -84.430168 0 89 75 352
2022-07-04 18:19:17 GMT 33.620270 -84.431000 0 89 80 352
2022-07-04 18:19:16 GMT 33.620270 -84.431427 0 89 85 352
2022-07-04 18:19:15 GMT 33.620270 -84.432373 775 89 92 352
2022-07-04 18:19:13 GMT 33.620258 -84.432861 775 89 97 352
2022-07-04 18:19:12 GMT 33.620239 -84.433357 775 89 103 352
2022-07-04 18:19:10 GMT 33.620232 -84.434471 775 89 111 -320
2022-07-04 18:19:08 GMT 33.620289 -84.435661 775 87 120 -320
2022-07-04 18:19:07 GMT 33.620201 -84.436958 800 91 128 -320
2022-07-04 18:19:05 GMT 33.620201 -84.437653 800 91 131 -320
2022-07-04 18:19:04 GMT 33.620232 -84.439056 825 90 138 1024
2022-07-04 18:19:02 GMT 33.620220 -84.439781 825 90 144 1024
2022-07-04 18:19:00 GMT 33.620232 -84.441391 800 91 143 -800
2022-07-04 18:18:59 GMT 33.620258 -84.442162 800 90 146 -800
2022-07-04 18:18:58 GMT 33.620270 -84.442993 825 89 143 -800
2022-07-04 18:18:56 GMT 33.620251 -84.444557 875 90 147 -800
2022-07-04 18:18:55 GMT 33.620270 -84.445381 875 90 146 -800
2022-07-04 18:18:53 GMT 33.620300 -84.446991 875 88 148 -864
2022-07-04 18:18:51 GMT 33.620251 -84.448639 900 90 144 -864
2022-07-04 18:18:50 GMT 33.620258 -84.449432 1,000 89 143 -864
2022-07-04 18:18:49 GMT 33.620232 -84.451042 1,025 89 144 -864
2022-07-04 18:18:47 GMT 33.620232 -84.451851 1,025 88 142 -864
2022-07-04 18:18:45 GMT 33.620201 -84.453362 1,025 90 147 -864
2022-07-04 18:18:44 GMT 33.620201 -84.454170 1,025 90 148 -864
2022-07-04 18:18:43 GMT 33.620190 -84.455803 1,025 90 145 -864
2022-07-04 18:18:41 GMT 33.620190 -84.456581 1,025 90 148 -864
2022-07-04 18:18:40 GMT 33.620209 -84.458221 1,050 88 145 -864
2022-07-04 18:18:38 GMT 33.620178 -84.458992 1,075 89 148 -864
2022-07-04 18:18:37 GMT 33.620140 -84.460617 1,100 90 146 -864
2022-07-04 18:18:35 GMT 33.620159 -84.462242 1,125 90 145 -864
2022-07-04 18:18:33 GMT 33.620159 -84.463013 1,125 90 148 -864
2022-07-04 18:18:32 GMT 33.620159 -84.463860 1,150 90 144 -864
2022-07-04 18:18:31 GMT 33.620178 -84.465500 1,150 90 141 -864
2022-07-04 18:18:29 GMT 33.620190 -84.466248 1,175 89 145 -864
2022-07-04 18:18:28 GMT 33.620178 -84.466972 1,200 91 153 -864
2022-07-04 18:18:26 GMT 33.620220 -84.468689 1,225 88 146 -864
2022-07-04 18:18:25 GMT 33.620209 -84.469452 1,225 88 151 -864
2022-07-04 18:18:24 GMT 33.620171 -84.470268 1,250 90 153 -864
2022-07-04 18:18:22 GMT 33.620140 -84.471947 1,350 90 152 -864
2022-07-04 18:18:20 GMT 33.620140 -84.473610 1,350 90 152 -864
2022-07-04 18:18:19 GMT 33.620129 -84.474457 1,350 90 151 -864
2022-07-04 18:18:18 GMT 33.620129 -84.475342 1,350 90 146 -864
2022-07-04 18:18:16 GMT 33.620190 -84.476952 1,350 88 147 -864
2022-07-04 18:18:15 GMT 33.620190 -84.477722 1,350 87 151 -864
2022-07-04 18:18:13 GMT 33.620140 -84.479431 1,400 89 150 -864
2022-07-04 18:18:12 GMT 33.620140 -84.481102 1,500 90 149 -864
2022-07-04 18:18:10 GMT 33.620152 -84.481911 1,500 89 150 -864
2022-07-04 18:18:09 GMT 33.620152 -84.482712 1,500 89 152 -864
2022-07-04 18:18:07 GMT 33.620129 -84.484398 1,500 90 151 -864
2022-07-04 18:18:06 GMT 33.620140 -84.485252 1,500 89 149 -864
2022-07-04 18:18:04 GMT 33.620159 -84.486908 1,500 88 150 -864
2022-07-04 18:18:03 GMT 33.620121 -84.487762 1,500 90 149 -864
2022-07-04 18:18:01 GMT 33.620098 -84.489349 1,600 90 154 -864
2022-07-04 18:17:59 GMT 33.620178 -84.491127 1,600 88 149 -864
2022-07-04 18:17:58 GMT 33.620121 -84.491951 1,600 90 149 -864
2022-07-04 18:17:57 GMT 33.620121 -84.493553 1,625 90 156 -864
2022-07-04 18:17:55 GMT 33.620129 -84.494453 1,625 90 154 -864
2022-07-04 18:17:53 GMT 33.620171 -84.496170 1,625 89 150 0
2022-07-04 18:17:52 GMT 33.620140 -84.497032 1,625 90 149 0
2022-07-04 18:17:51 GMT 33.620110 -84.497887 1,625 91 148 0
2022-07-04 18:17:50 GMT 33.620140 -84.498772 1,700 91 147 0
2022-07-04 18:17:48 GMT 33.620201 -84.500443 1,725 90 150 0
2022-07-04 18:17:47 GMT 33.620220 -84.502083 1,725 89 158 -896
2022-07-04 18:17:45 GMT 33.620201 -84.502953 1,725 90 162 -896
2022-07-04 18:17:44 GMT 33.620209 -84.504494 1,800 89 186 -896
2022-07-04 18:17:42 GMT 33.620232 -84.505341 1,800 88 203 -896
2022-07-04 18:17:31 GMT 33.620270 -84.515747 1,900 90 174 -896
2022-07-04 18:17:20 GMT 33.620258 -84.533272 2,425 92 197 -1216
2022-07-04 18:17:13 GMT 33.620258 -84.533272 2,175 89 188 -896
2022-07-04 18:17:10 GMT 33.620224 -84.536995 2,225 89 192 -1024
2022-07-04 18:17:02 GMT 33.620178 -84.544731 2,350 90 196 -1024
2022-07-04 18:16:59 GMT 33.620224 -84.549271 2,425 92 197 -1216
2022-07-04 18:16:51 GMT 33.620491 -84.557533 2,550 92 197 -1088
2022-07-04 18:16:46 GMT 33.620636 -84.562492 2,625 90 197 -1088
2022-07-04 18:16:41 GMT 33.620453 -84.568161 2,725 85 195 -1024
2022-07-04 18:16:36 GMT 33.619980 -84.572701 2,775 78 192 -448
2022-07-04 18:16:28 GMT 33.618164 -84.582672 2,800 76 191 192
2022-07-04 18:16:17 GMT 33.615967 -84.593102 2,800 75 192 -64
2022-07-04 18:16:09 GMT 33.614300 -84.601074 2,800 76 191 64
2022-07-04 18:16:06 GMT 33.613693 -84.603996 2,800 76 190 0
2022-07-04 18:15:57 GMT 33.611572 -84.614288 2,800 76 190 0
2022-07-04 18:15:49 GMT 33.609970 -84.622192 2,800 76 190 0
2022-07-04 18:15:45 GMT 33.609238 -84.625778 2,800 76 190 0
2022-07-04 18:15:40 GMT 33.608139 -84.631104 2,800 76 190 64
2022-07-04 18:15:35 GMT 33.607224 -84.635582 2,800 76 190 128
2022-07-04 18:15:29 GMT 33.605942 -84.641869 2,775 76 191 64
2022-07-04 18:15:26 GMT 33.605072 -84.646240 2,775 76 191 0
2022-07-04 18:15:15 GMT 33.602921 -84.656891 2,800 76 191 -384
2022-07-04 18:15:09 GMT 33.601639 -84.663162 2,875 76 192 -960
2022-07-04 18:15:05 GMT 33.600708 -84.667915 2,950 76 191 -1024
2022-07-04 18:14:59 GMT 33.598801 -84.677460 3,075 73 191 -896
2022-07-04 18:14:55 GMT 33.598801 -84.677460 3,150 75 191 -960
2022-07-04 18:14:52 GMT 33.598022 -84.681160 3,150 75 191 -960
2022-07-04 18:14:46 GMT 33.596329 -84.687775 3,250 69 191 -832
2022-07-04 18:14:43 GMT 33.595917 -84.689064 3,275 67 192 -896
2022-07-04 18:14:36 GMT 33.590187 -84.699158 3,625 27 193 -960
2022-07-04 18:14:33 GMT 33.590187 -84.699158 3,450 43 193 -960
2022-07-04 18:14:23 GMT 33.583374 -84.703918 3,600 17 193 -1024
2022-07-04 18:14:15 GMT 33.575150 -84.705276 3,775 359 194 -1024
2022-07-04 18:14:11 GMT 33.572914 -84.705215 3,800 358 194 -1024
2022-07-04 18:14:03 GMT 33.564816 -84.704536 3,975 356 193 -1152
2022-07-04 18:13:55 GMT 33.558380 -84.703751 4,150 351 192 -1024
2022-07-04 18:13:52 GMT 33.555691 -84.703278 4,150 350 192 -1024
2022-07-04 18:13:45 GMT 33.549358 -84.701218 4,300 330 192 -1088
2022-07-04 18:13:41 GMT 33.546707 -84.699600 4,350 327 192 -1024
2022-07-04 18:13:36 GMT 33.543091 -84.696236 4,475 309 194 -960
2022-07-04 18:13:32 GMT 33.540188 -84.691940 4,525 302 195 -960
2022-07-04 18:13:27 GMT 33.538055 -84.686737 4,600 289 196 -1024
2022-07-04 18:13:23 GMT 33.537231 -84.682945 4,675 278 197 -1088
2022-07-04 18:13:20 GMT 33.536957 -84.681190 4,700 278 197 -1088
2022-07-04 18:13:15 GMT 33.536682 -84.674927 4,825 270 199 -1024
2022-07-04 18:13:11 GMT 33.536636 -84.670204 4,875 270 199 -1024
2022-07-04 18:13:04 GMT 33.536652 -84.661880 5,000 270 199 -960
2022-07-04 18:13:01 GMT 33.536652 -84.658455 5,075 270 199 -1088
2022-07-04 18:12:55 GMT 33.536682 -84.652458 5,150 270 199 -960
2022-07-04 18:12:49 GMT 33.536728 -84.647079 5,225 270 198 -896
2022-07-04 18:12:43 GMT 33.536728 -84.639328 5,350 270 197 -1024
2022-07-04 18:12:40 GMT 33.536728 -84.635925 5,400 270 197 -1024
2022-07-04 18:12:32 GMT 33.536793 -84.627129 5,550 270 198 -896
2022-07-04 18:12:29 GMT 33.536774 -84.624390 5,575 270 198 -896
2022-07-04 18:12:23 GMT 33.536793 -84.613113 6,025 270 200 -960
2022-07-04 18:12:18 GMT 33.536793 -84.613113 5,725 270 199 -960
2022-07-04 18:12:13 GMT 33.536793 -84.601120 5,925 270 203 -768
2022-07-04 18:12:08 GMT 33.536793 -84.601120 5,900 270 201 -896
2022-07-04 18:12:00 GMT 33.536839 -84.592766 6,025 270 203 -768
2022-07-04 18:11:57 GMT 33.536819 -84.588905 6,050 270 203 -768
2022-07-04 18:11:48 GMT 33.536865 -84.578743 6,175 270 205 -768
2022-07-04 18:11:42 GMT 33.536865 -84.571762 6,275 270 209 -1152
2022-07-04 18:11:38 GMT 33.536884 -84.566757 6,350 270 212 -1152
2022-07-04 18:11:33 GMT 33.536865 -84.561661 6,425 270 216 -1216
2022-07-04 18:11:31 GMT 33.536865 -84.559898 6,450 271 221 -1152
2022-07-04 18:11:27 GMT 33.536865 -84.554405 6,550 270 218 -1216
2022-07-04 18:11:21 GMT 33.536839 -84.547302 6,650 271 221 -1152
2022-07-04 18:11:17 GMT 33.536839 -84.541534 6,725 270 225 -960
2022-07-04 18:11:12 GMT 33.536839 -84.536377 6,775 270 230 -128
2022-07-04 18:11:10 GMT 33.536865 -84.533531 6,775 270 231 -128
2022-07-04 18:11:07 GMT 33.536839 -84.528419 6,775 271 236 192
2022-07-04 18:11:01 GMT 33.536819 -84.521942 6,775 271 240 -192
2022-07-04 18:10:58 GMT 33.536793 -84.516533 6,800 271 243 0
2022-07-04 18:10:55 GMT 33.536793 -84.514626 6,800 270 244 0
2022-07-04 18:10:49 GMT 33.536774 -84.505737 6,825 270 246 -192
2022-07-04 18:10:46 GMT 33.536793 -84.500221 6,850 270 246 -576
2022-07-04 18:10:42 GMT 33.536743 -84.495628 6,900 270 245 -768
2022-07-04 18:10:39 GMT 33.536743 -84.492371 6,925 270 244 -896
2022-07-04 18:10:36 GMT 33.536774 -84.486893 7,000 270 243 -1216
2022-07-04 18:10:32 GMT 33.536774 -84.482063 7,075 270 242 -1536
2022-07-04 18:10:30 GMT 33.536743 -84.480545 7,275 270 242 -1728
2022-07-04 18:10:27 GMT 33.536728 -84.474594 7,250 270 242 -1728
2022-07-04 18:10:24 GMT 33.536728 -84.472725 7,275 270 242 -1728
2022-07-04 18:10:21 GMT 33.536743 -84.467148 7,400 270 242 -1664
2022-07-04 18:10:19 GMT 33.536743 -84.465187 7,450 270 243 -1664
2022-07-04 18:10:15 GMT 33.536728 -84.459045 7,575 270 243 -1664
2022-07-04 18:10:11 GMT 33.536743 -84.454704 7,675 270 243 -1664
2022-07-04 18:10:08 GMT 33.536728 -84.451134 7,750 270 243 -1664
2022-07-04 18:10:04 GMT 33.536728 -84.445038 7,825 270 244 -1728
2022-07-04 18:10:01 GMT 33.536728 -84.440971 7,950 270 244 -1792
2022-07-04 18:09:58 GMT 33.536728 -84.437347 8,175 270 245 -1984
2022-07-04 18:09:55 GMT 33.536728 -84.431252 8,175 270 244 -1856
2022-07-04 18:09:51 GMT 33.536697 -84.427299 8,275 270 245 -1920
2022-07-04 18:09:47 GMT 33.536697 -84.421860 8,375 270 245 -1920
2022-07-04 18:09:44 GMT 33.536728 -84.416916 8,525 270 246 -1920
2022-07-04 18:09:40 GMT 33.536743 -84.413002 8,600 270 246 -1664
2022-07-04 18:09:37 GMT 33.536793 -84.409081 8,675 270 247 -1664
2022-07-04 18:09:33 GMT 33.536819 -84.402740 8,800 270 247 -1664
2022-07-04 18:09:29 GMT 33.536819 -84.398071 8,900 270 248 -1600
2022-07-04 18:09:27 GMT 33.536819 -84.394333 8,975 270 248 -1664
2022-07-04 18:09:23 GMT 33.536865 -84.388016 9,100 270 249 -1728
2022-07-04 18:09:20 GMT 33.536884 -84.383858 9,200 270 249 -1728
2022-07-04 18:09:16 GMT 33.536911 -84.380219 9,275 270 249 -1728
2022-07-04 18:09:13 GMT 33.536976 -84.374435 9,400 270 250 -1728
2022-07-04 18:09:09 GMT 33.537048 -84.370110 9,500 270 250 -1792
2022-07-04 18:09:06 GMT 33.537094 -84.359726 9,600 270 250 -1792
2022-07-04 18:09:03 GMT 33.537094 -84.359726 9,725 270 251 -1792
2022-07-04 18:08:59 GMT 33.537117 -84.355774 9,800 270 251 -1792
2022-07-04 18:08:56 GMT 33.537163 -84.351624 9,900 270 250 -1856
2022-07-04 18:08:52 GMT 33.537209 -84.345238 10,050 270 250 -1920
2022-07-04 18:08:49 GMT 33.537231 -84.337151 10,200 270 250 -1856
2022-07-04 18:08:45 GMT 33.537231 -84.337151 10,225 270 250 -1792
2022-07-04 18:08:41 GMT 33.537231 -84.330780 10,375 270 250 -1856
2022-07-04 18:08:38 GMT 33.537254 -84.327354 10,450 270 250 -1920
2022-07-04 18:08:35 GMT 33.537254 -84.323265 10,525 271 250 -1920
2022-07-04 18:08:32 GMT 33.537231 -84.318474 10,700 271 249 -1984
2022-07-04 18:08:28 GMT 33.537186 -84.313095 10,775 271 249 -1984
2022-07-04 18:08:26 GMT 33.537163 -84.309418 10,875 271 249 -1920
2022-07-04 18:08:21 GMT 33.537094 -84.301941 11,025 272 249 -1792
2022-07-04 18:08:16 GMT 33.536911 -84.296280 11,150 274 249 -1728
2022-07-04 18:08:13 GMT 33.536743 -84.293442 11,225 293 253 -1664
2022-07-04 18:08:10 GMT 33.536186 -84.288681 11,350 283 250 -1664
2022-07-04 18:08:07 GMT 33.535347 -84.284309 11,400 285 251 -1664
2022-07-04 18:08:04 GMT 33.534439 -84.280518 11,475 290 253 -1664
2022-07-04 18:08:00 GMT 33.532013 -84.273483 11,600 297 254 -1664
2022-07-04 18:07:57 GMT 33.531143 -84.271507 11,650 299 254 -1536
2022-07-04 18:07:54 GMT 33.529247 -84.267662 11,725 303 256 -1280
2022-07-04 18:07:49 GMT 33.525375 -84.261292 11,800 310 259 -128
2022-07-04 18:07:46 GMT 33.523804 -84.259026 11,800 312 259 0
2022-07-04 18:07:43 GMT 33.521568 -84.255997 11,800 313 261 0
2022-07-04 18:07:36 GMT 33.515762 -84.248383 11,800 313 261 64
2022-07-04 18:07:33 GMT 33.513016 -84.244705 11,800 313 261 -64
2022-07-04 18:07:29 GMT 33.509510 -84.240082 11,800 313 259 0
2022-07-04 18:07:26 GMT 33.507294 -84.237122 11,800 313 259 64
2022-07-04 18:07:19 GMT 33.500793 -84.228554 11,800 313 257 128
2022-07-04 18:07:15 GMT 33.498386 -84.225342 11,800 313 254 192
2022-07-04 18:07:12 GMT 33.496010 -84.222198 11,775 313 254 256
2022-07-04 18:07:08 GMT 33.490585 -84.215042 11,775 312 255 0
2022-07-04 18:07:05 GMT 33.490585 -84.215042 11,775 312 255 -64
2022-07-04 18:07:02 GMT 33.488434 -84.212181 11,800 313 254 -64
2022-07-04 18:06:58 GMT 33.484406 -84.206856 11,800 313 254 -256
2022-07-04 18:06:55 GMT 33.482697 -84.204597 11,825 313 256 -576
2022-07-04 18:06:48 GMT 33.477081 -84.197243 11,925 313 256 -1152
2022-07-04 18:06:45 GMT 33.474224 -84.193504 12,000 313 256 -1280
2022-07-04 18:06:39 GMT 33.469151 -84.186722 12,150 313 257 -1152
2022-07-04 18:06:34 GMT 33.465473 -84.181900 12,225 313 256 -1152
2022-07-04 18:06:27 GMT 33.459595 -84.174171 12,375 313 256 -1216
2022-07-04 18:06:24 GMT 33.457558 -84.171471 12,425 313 256 -1152
2022-07-04 18:06:16 GMT 33.451412 -84.163460 12,575 313 257 -1152
2022-07-04 18:06:12 GMT 33.448948 -84.160210 12,625 313 258 -1088
2022-07-04 18:06:06 GMT 33.442932 -84.152359 12,725 313 259 -832
2022-07-04 18:06:02 GMT 33.440800 -84.149498 12,775 313 261 -640
2022-07-04 18:05:59 GMT 33.437897 -84.145714 12,800 313 263 -256
2022-07-04 18:05:56 GMT 33.434376 -84.141151 12,800 313 265 -64
2022-07-04 18:05:52 GMT 33.432358 -84.138466 12,800 313 268 -64
2022-07-04 18:05:47 GMT 33.426590 -84.130997 12,800 313 273 0
2022-07-04 18:05:43 GMT 33.420921 -84.123604 12,800 313 278 0
2022-07-04 18:05:35 GMT 33.416592 -84.117943 12,800 313 285 0
2022-07-04 18:05:32 GMT 33.414825 -84.115669 12,800 313 287 0
2022-07-04 18:05:25 GMT 33.408417 -84.107262 12,800 313 294 64
2022-07-04 18:05:22 GMT 33.405281 -84.103256 12,800 313 296 64
2022-07-04 18:05:18 GMT 33.400497 -84.096939 12,800 313 305 -64
2022-07-04 18:05:15 GMT 33.398159 -84.093895 12,800 313 307 -64
2022-07-04 18:05:11 GMT 33.393585 -84.087982 12,800 313 313 -64
2022-07-04 18:05:04 GMT 33.387726 -84.080345 12,800 313 315 0
2022-07-04 18:05:00 GMT 33.385208 -84.076996 12,800 313 315 0
2022-07-04 18:04:51 GMT 33.375229 -84.063866 12,800 313 325 -64
2022-07-04 18:04:43 GMT 33.366688 -84.052528 12,800 312 335 -64
2022-07-04 18:04:40 GMT 33.364082 -84.049057 12,800 312 337 -64
2022-07-04 18:04:36 GMT 33.360626 -84.044312 12,800 312 342 -64
2022-07-04 18:04:31 GMT 33.353840 -84.035042 12,800 311 349 0
2022-07-04 18:04:25 GMT 33.348907 -84.028160 12,800 311 354 -64
2022-07-04 18:04:20 GMT 33.343086 -84.019684 12,800 309 361 -64
2022-07-04 18:04:15 GMT 33.338478 -84.012787 12,800 308 367 -64
2022-07-04 18:04:12 GMT 33.334427 -84.006454 12,800 307 372 0
2022-07-04 18:04:08 GMT 33.330139 -83.999542 12,800 307 376 64
2022-07-04 18:04:05 GMT 33.326935 -83.994324 12,800 306 382 64
2022-07-04 18:04:00 GMT 33.321999 -83.985886 12,800 305 388 -64
2022-07-04 18:03:49 GMT 33.311291 -83.966431 12,850 303 400 -448
2022-07-04 18:03:39 GMT 33.301285 -83.947990 12,975 303 402 -1088
2022-07-04 18:03:30 GMT 33.292393 -83.931564 13,275 303 404 -2048
2022-07-04 18:03:25 GMT 33.284477 -83.916878 13,275 303 404 -2048
2022-07-04 18:03:20 GMT 33.281731 -83.911835 13,600 303 407 -2560
2022-07-04 18:03:17 GMT 33.279682 -83.908028 13,675 303 407 -2496
2022-07-04 18:03:10 GMT 33.271088 -83.891983 14,050 303 410 -2688
2022-07-04 18:03:07 GMT 33.269119 -83.888359 14,125 303 410 -2752
2022-07-04 18:02:58 GMT 33.259644 -83.870506 14,600 303 413 -2816
2022-07-04 18:02:48 GMT 33.248978 -83.850456 15,075 303 417 -2944
2022-07-04 18:02:41 GMT 33.241276 -83.835159 15,475 295 421 -2880
2022-07-04 18:02:37 GMT 33.238220 -83.828262 15,650 298 419 -2944
2022-07-04 18:02:27 GMT 33.230755 -83.808472 16,100 291 424 -2880
2022-07-04 18:02:17 GMT 33.224258 -83.784927 16,625 285 428 -3072
2022-07-04 18:02:11 GMT 33.221725 -83.772156 16,925 280 429 -3520
2022-07-04 18:02:07 GMT 33.220230 -83.762016 17,175 279 429 -3712
2022-07-04 18:01:57 GMT 33.218307 -83.737793 17,800 272 431 -3264
2022-07-04 18:01:53 GMT 33.218216 -83.722580 18,100 268 433 -2624
2022-07-04 18:01:46 GMT 33.218582 -83.712799 18,275 266 434 -2368
2022-07-04 18:01:35 GMT 33.221119 -83.688301 18,650 260 439 -2176
2022-07-04 18:01:26 GMT 33.225822 -83.663857 19,050 256 443 -2432
2022-07-04 18:01:16 GMT 33.230942 -83.640511 19,475 256 446 -2560
2022-07-04 18:01:05 GMT 33.236481 -83.615601 19,950 256 448 -3008
2022-07-04 18:00:57 GMT 33.240765 -83.596207 20,675 256 451 -2624
2022-07-04 18:00:54 GMT 33.242477 -83.588379 20,450 256 449 -3136
2022-07-04 18:00:47 GMT 33.246735 -83.568932 21,025 256 451 -2624
2022-07-04 18:00:44 GMT 33.247330 -83.566299 21,000 256 451 -2624
2022-07-04 18:00:35 GMT 33.252636 -83.542282 21,400 256 454 -2688
2022-07-04 18:00:31 GMT 33.256035 -83.526756 21,675 256 456 -2624
2022-07-04 18:00:23 GMT 33.258690 -83.514816 21,875 256 456 -2624
2022-07-04 18:00:14 GMT 33.264275 -83.489365 22,350 256 460 -2560
2022-07-04 18:00:03 GMT 33.269760 -83.464340 22,800 256 463 -2688
2022-07-04 17:59:52 GMT 33.275711 -83.437370 23,275 256 465 -2688
2022-07-04 17:59:42 GMT 33.281544 -83.410835 23,750 256 468 -2624
2022-07-04 17:59:32 GMT 33.286697 -83.387161 24,175 256 471 -2624
2022-07-04 17:59:23 GMT 33.291687 -83.364479 24,575 256 474 -2688
2022-07-04 17:59:13 GMT 33.297409 -83.338333 25,175 256 478 -2560
2022-07-04 17:59:10 GMT 33.298443 -83.333595 25,100 256 477 -2560
2022-07-04 17:59:07 GMT 33.300350 -83.324966 25,250 256 478 -2560
2022-07-04 17:59:03 GMT 33.303005 -83.312630 25,475 256 480 -2560
2022-07-04 17:59:00 GMT 33.304871 -83.304329 25,600 256 482 -2560
2022-07-04 17:58:54 GMT 33.307941 -83.290268 25,850 256 483 -2560
2022-07-04 17:58:51 GMT 33.311058 -83.276031 26,075 256 486 -2560
2022-07-04 17:58:42 GMT 33.314941 -83.258293 26,375 256 487 -2560
2022-07-04 17:58:39 GMT 33.316635 -83.250443 26,500 256 488 -2560
2022-07-04 17:58:31 GMT 33.322651 -83.222839 26,925 256 491 -2560
2022-07-04 17:58:28 GMT 33.322651 -83.222839 26,975 256 492 -2560
2022-07-04 17:58:24 GMT 33.325607 -83.209297 27,200 256 493 -2624
2022-07-04 17:58:21 GMT 33.326523 -83.205063 27,275 256 494 -2688
2022-07-04 17:58:18 GMT 33.328583 -83.195564 27,450 256 494 -3008
2022-07-04 17:58:13 GMT 33.331078 -83.184052 27,675 256 495 -3328
2022-07-04 17:58:10 GMT 33.333218 -83.174240 27,900 256 495 -3392
2022-07-04 17:58:07 GMT 33.338341 -83.150696 28,300 256 495 -3456
2022-07-04 17:58:01 GMT 33.338341 -83.150696 28,400 256 495 -3456
2022-07-04 17:57:57 GMT 33.340618 -83.140106 28,625 256 495 -3456
2022-07-04 17:57:53 GMT 33.343227 -83.128166 29,075 256 495 -3456
2022-07-04 17:57:48 GMT 33.345703 -83.116623 29,150 256 495 -3456
2022-07-04 17:57:45 GMT 33.346859 -83.111237 29,250 256 495 -3456
2022-07-04 17:57:42 GMT 33.348953 -83.101517 29,475 256 495 -3456
2022-07-04 17:57:39 GMT 33.351421 -83.089989 29,725 256 495 -3520
2022-07-04 17:57:36 GMT 33.352631 -83.084442 29,825 256 495 -3520
2022-07-04 17:57:31 GMT 33.354958 -83.073570 30,075 256 494 -3520
2022-07-04 17:57:28 GMT 33.357285 -83.062904 30,300 256 494 -3456
2022-07-04 17:57:22 GMT 33.360855 -83.046257 30,625 256 493 -3072
2022-07-04 17:57:19 GMT 33.363190 -83.035439 30,825 256 493 -2752
2022-07-04 17:57:11 GMT 33.366596 -83.019478 31,100 256 493 -2432
2022-07-04 17:57:07 GMT 33.369003 -83.008247 31,250 256 494 -2112
2022-07-04 17:57:01 GMT 33.372601 -82.991447 31,450 256 494 -1792
2022-07-04 17:56:57 GMT 33.374954 -82.980507 31,525 256 495 -1536
2022-07-04 17:56:51 GMT 33.378513 -82.963928 31,675 256 496 -1088
2022-07-04 17:56:48 GMT 33.379944 -82.957161 31,725 256 496 -832
2022-07-04 17:56:46 GMT 33.380814 -82.953148 31,750 256 496 -768
2022-07-04 17:56:40 GMT 33.384247 -82.937218 31,825 256 496 -576
2022-07-04 17:56:37 GMT 33.385849 -82.929802 31,850 256 496 -576
2022-07-04 17:56:29 GMT 33.390427 -82.908272 31,900 256 496 -512
2022-07-04 17:56:25 GMT 33.393410 -82.894371 31,975 256 496 -576
2022-07-04 17:56:20 GMT 33.396111 -82.881927 32,000 256 495 -576
2022-07-04 17:56:17 GMT 33.397228 -82.876602 32,025 256 495 -512
2022-07-04 17:56:15 GMT 33.398438 -82.870918 32,050 256 495 -512
2022-07-04 17:56:09 GMT 33.401962 -82.854439 32,100 256 495 -512
2022-07-04 17:56:04 GMT 33.404480 -82.842789 32,125 256 495 -512
2022-07-04 17:55:58 GMT 33.408142 -82.825600 32,175 256 495 -448
2022-07-04 17:55:55 GMT 33.410202 -82.816040 32,200 256 495 -384
2022-07-04 17:55:45 GMT 33.416656 -82.785881 32,275 256 495 -448
2022-07-04 17:55:43 GMT 33.416656 -82.785881 32,275 256 495 -448
2022-07-04 17:55:33 GMT 33.422104 -82.760452 32,350 256 494 -448
2022-07-04 17:55:27 GMT 33.426086 -82.741936 32,425 256 494 -576
2022-07-04 17:55:23 GMT 33.427860 -82.733612 32,475 256 492 -512
2022-07-04 17:55:17 GMT 33.431351 -82.717384 32,500 256 493 -576
2022-07-04 17:55:13 GMT 33.433731 -82.706284 32,550 256 493 -576
2022-07-04 17:55:03 GMT 33.440056 -82.676888 32,650 256 492 -512
2022-07-04 17:54:57 GMT 33.443069 -82.663055 32,675 256 492 -512
2022-07-04 17:54:52 GMT 33.445496 -82.651688 32,725 256 492 -512
2022-07-04 17:54:45 GMT 33.449272 -82.634171 32,775 256 492 -448
2022-07-04 17:54:41 GMT 33.451740 -82.622849 32,800 256 492 -448
2022-07-04 17:54:35 GMT 33.454998 -82.607880 32,850 256 492 -512
2022-07-04 17:54:32 GMT 33.457489 -82.596420 32,875 256 492 -512
2022-07-04 17:54:24 GMT 33.461983 -82.575768 32,950 256 491 -448
2022-07-04 17:54:20 GMT 33.464031 -82.566292 32,975 256 491 -448
2022-07-04 17:54:13 GMT 33.467941 -82.548409 33,025 256 491 -512
2022-07-04 17:54:10 GMT 33.469482 -82.541435 33,050 256 491 -512
2022-07-04 17:54:01 GMT 33.475342 -82.514359 33,150 256 491 -640
2022-07-04 17:53:55 GMT 33.478695 -82.498695 33,225 256 490 -896
2022-07-04 17:53:50 GMT 33.480927 -82.488213 33,275 256 489 -896
2022-07-04 17:53:43 GMT 33.484837 -82.469604 33,375 256 488 -640
2022-07-04 17:53:39 GMT 33.486649 -82.460800 33,400 256 488 -640
2022-07-04 17:53:36 GMT 33.488888 -82.450211 33,450 256 489 -704
2022-07-04 17:53:26 GMT 33.494751 -82.425369 33,550 254 488 -704
2022-07-04 17:53:24 GMT 33.496765 -82.417343 33,600 253 487 -704
2022-07-04 17:53:13 GMT 33.503128 -82.394333 33,700 251 487 -704
2022-07-04 17:53:08 GMT 33.507046 -82.381317 33,775 250 486 -640
2022-07-04 17:53:04 GMT 33.510727 -82.369614 33,825 249 485 -640
2022-07-04 17:53:00 GMT 33.515076 -82.356590 33,875 248 486 -640
2022-07-04 17:52:54 GMT 33.519470 -82.344231 33,925 247 486 -704
2022-07-04 17:52:49 GMT 33.523773 -82.332748 33,975 246 485 -640
2022-07-04 17:52:38 GMT 33.534348 -82.306000 34,100 245 486 -640
2022-07-04 17:52:32 GMT 33.540939 -82.289505 34,150 245 486 -512
2022-07-04 17:52:29 GMT 33.543915 -82.281990 34,175 245 486 -512
2022-07-04 17:52:17 GMT 33.554214 -82.256042 34,275 245 486 -448
2022-07-04 17:52:05 GMT 33.567352 -82.223022 34,400 245 485 -640
2022-07-04 17:51:57 GMT 33.574310 -82.205429 34,525 245 484 -1216
2022-07-04 17:51:47 GMT 33.583855 -82.181229 34,725 245 483 -1088
2022-07-04 17:51:36 GMT 33.595459 -82.151840 34,925 245 483 -1152
2022-07-04 17:51:25 GMT 33.603920 -82.130409 35,050 245 484 -832
2022-07-04 17:51:14 GMT 33.614578 -82.103233 35,250 245 483 -1152
2022-07-04 17:51:06 GMT 33.623146 -82.081490 35,425 245 482 -960
2022-07-04 17:50:54 GMT 33.633911 -82.054085 35,625 245 481 -1216
2022-07-04 17:50:45 GMT 33.642555 -82.031998 35,825 245 480 -1280
2022-07-04 17:50:35 GMT 33.652939 -82.005554 36,000 245 480 -128
2022-07-04 17:50:22 GMT 33.664261 -81.976730 36,000 245 481 0
2022-07-04 17:50:13 GMT 33.672775 -81.954979 36,000 245 481 0
2022-07-04 17:50:03 GMT 33.682312 -81.930717 36,000 245 481 64
2022-07-04 17:49:53 GMT 33.691681 -81.906662 36,000 245 482 0
2022-07-04 17:49:46 GMT 33.699097 -81.887833 36,000 245 482 0
2022-07-04 17:49:42 GMT 33.701866 -81.880646 36,000 245 482 0
2022-07-04 17:49:38 GMT 33.705597 -81.871124 36,000 245 482 0
2022-07-04 17:49:33 GMT 33.711273 -81.856552 36,000 245 482 0
2022-07-04 17:49:27 GMT 33.715549 -81.845627 36,000 245 482 0
2022-07-04 17:49:22 GMT 33.721325 -81.830811 36,000 245 482 0
2022-07-04 17:49:18 GMT 33.725922 -81.819107 36,000 245 482 0
2022-07-04 17:49:10 GMT 33.733063 -81.800720 36,000 245 482 0
2022-07-04 17:49:06 GMT 33.735626 -81.794167 36,000 245 482 0
2022-07-04 17:49:01 GMT 33.741154 -81.779999 36,000 245 482 64
2022-07-04 17:48:57 GMT 33.744507 -81.771461 36,000 245 482 0
2022-07-04 17:48:51 GMT 33.750652 -81.755562 36,000 245 482 -64
2022-07-04 17:48:44 GMT 33.756271 -81.741142 36,000 245 482 0
2022-07-04 17:48:40 GMT 33.760010 -81.731583 36,000 245 482 0
2022-07-04 17:48:35 GMT 33.764896 -81.719002 36,000 245 482 0
2022-07-04 17:48:31 GMT 33.770050 -81.705772 36,000 245 482 0
2022-07-04 17:48:26 GMT 33.773743 -81.696220 36,000 245 482 0
2022-07-04 17:48:20 GMT 33.779606 -81.681175 36,000 246 483 0
2022-07-04 17:48:14 GMT 33.789429 -81.655937 36,000 246 483 0
2022-07-04 17:48:09 GMT 33.789429 -81.655937 36,000 246 483 0
2022-07-04 17:48:06 GMT 33.793396 -81.645622 36,000 246 483 -64
2022-07-04 17:47:57 GMT 33.801395 -81.625099 36,000 246 483 0
2022-07-04 17:47:54 GMT 33.810379 -81.601906 36,000 246 483 0
2022-07-04 17:47:48 GMT 33.810379 -81.601906 36,000 246 483 -64
2022-07-04 17:47:43 GMT 33.814178 -81.592209 36,025 246 483 0
2022-07-04 17:47:40 GMT 33.827229 -81.558556 36,000 246 484 0
2022-07-04 17:47:30 GMT 33.827229 -81.558556 36,000 246 483 0
2022-07-04 17:47:24 GMT 33.832302 -81.545448 36,000 246 483 0
2022-07-04 17:47:19 GMT 33.837147 -81.533028 36,000 246 484 0
2022-07-04 17:47:12 GMT 33.842834 -81.518333 36,000 246 484 0
2022-07-04 17:47:07 GMT 33.849201 -81.501907 36,000 246 484 0
2022-07-04 17:47:04 GMT 33.852135 -81.494347 36,000 245 484 0
2022-07-04 17:46:59 GMT 33.858719 -81.477409 35,975 246 484 0
2022-07-04 17:46:53 GMT 33.861649 -81.469849 35,975 246 484 64
2022-07-04 17:46:49 GMT 33.865589 -81.459732 35,975 246 484 64
2022-07-04 17:46:38 GMT 33.876297 -81.432175 35,975 246 483 0
2022-07-04 17:46:33 GMT 33.881104 -81.419792 35,975 246 483 0
2022-07-04 17:46:28 GMT 33.884949 -81.409813 35,975 246 480 128
2022-07-04 17:46:19 GMT 33.893875 -81.386833 35,975 246 479 -128
2022-07-04 17:46:15 GMT 33.897217 -81.378143 36,000 246 479 -256
2022-07-04 17:46:11 GMT 33.900558 -81.369453 36,025 246 479 -576
2022-07-04 17:46:07 GMT 33.904648 -81.358971 36,075 246 479 -896
2022-07-04 17:46:02 GMT 33.909805 -81.345573 36,175 246 479 -1344
2022-07-04 17:45:57 GMT 33.913788 -81.335205 36,275 246 479 -1344
2022-07-04 17:45:50 GMT 33.920197 -81.318558 36,425 246 477 -1344
2022-07-04 17:45:46 GMT 33.924061 -81.308556 36,525 246 477 -1280
2022-07-04 17:45:41 GMT 33.928947 -81.295792 36,625 246 477 -1280
2022-07-04 17:45:36 GMT 33.932785 -81.285767 36,725 246 476 -1344
2022-07-04 17:45:31 GMT 33.938599 -81.270638 36,850 246 476 -1408
2022-07-04 17:45:27 GMT 33.942352 -81.260895 36,950 246 475 -1472
2022-07-04 17:45:19 GMT 33.948776 -81.244125 37,125 246 474 -1600
2022-07-04 17:45:15 GMT 33.952286 -81.234924 37,225 246 474 -1472
2022-07-04 17:45:09 GMT 33.957901 -81.220207 37,375 246 472 -1280
2022-07-04 17:45:05 GMT 33.961533 -81.210770 37,450 246 472 -1280
2022-07-04 17:45:00 GMT 33.966888 -81.196648 37,575 246 472 -1408
2022-07-04 17:44:56 GMT 33.970470 -81.187248 37,675 246 472 -1472
2022-07-04 17:44:49 GMT 33.976181 -81.172318 37,800 246 471 -1216
2022-07-04 17:44:45 GMT 33.980106 -81.161957 37,875 246 471 -896
2022-07-04 17:44:42 GMT 33.982948 -81.154572 37,925 246 472 -192
2022-07-04 17:44:39 GMT 33.985786 -81.147194 37,950 246 472 -512
2022-07-04 17:44:34 GMT 33.989456 -81.137505 37,975 246 472 -192
2022-07-04 17:44:27 GMT 33.996094 -81.120018 38,000 246 473 0
2022-07-04 17:44:24 GMT 33.998497 -81.113663 38,000 246 473 0
2022-07-04 17:44:21 GMT 34.002033 -81.104340 38,000 246 473 0
2022-07-04 17:44:15 GMT 34.008224 -81.088081 38,000 246 473 0
2022-07-04 17:44:10 GMT 34.011246 -81.080055 38,000 246 473 0
2022-07-04 17:44:07 GMT 34.013992 -81.072884 38,000 246 473 0
2022-07-04 17:44:01 GMT 34.020767 -81.054939 38,000 246 473 0
2022-07-04 17:43:58 GMT 34.022964 -81.049171 38,000 246 473 0
2022-07-04 17:43:53 GMT 34.027172 -81.038017 38,000 246 473 0
2022-07-04 17:43:50 GMT 34.030243 -81.029892 38,000 246 473 0
2022-07-04 17:43:47 GMT 34.033131 -81.022224 38,000 246 473 0
2022-07-04 17:43:43 GMT 34.036926 -81.012283 38,000 246 473 0
2022-07-04 17:43:36 GMT 34.042442 -80.997559 38,000 246 473 0
2022-07-04 17:43:33 GMT 34.045853 -80.988579 38,000 246 473 0
2022-07-04 17:43:30 GMT 34.047729 -80.983589 38,000 246 473 0
2022-07-04 17:43:26 GMT 34.051346 -80.974007 38,000 246 473 0
2022-07-04 17:43:20 GMT 34.057617 -80.957336 38,000 246 473 0
2022-07-04 17:43:17 GMT 34.060318 -80.950294 38,000 246 473 0
2022-07-04 17:43:13 GMT 34.064301 -80.939758 38,000 246 473 0
2022-07-04 17:43:09 GMT 34.067020 -80.932449 38,000 246 472 0
2022-07-04 17:43:06 GMT 34.069675 -80.925522 38,000 246 472 64
2022-07-04 17:43:01 GMT 34.073818 -80.914474 38,000 246 472 0
2022-07-04 17:42:58 GMT 34.077915 -80.903725 38,000 246 472 0
2022-07-04 17:42:55 GMT 34.079731 -80.898972 38,000 246 472 0
2022-07-04 17:42:52 GMT 34.082428 -80.891884 38,000 246 472 0
2022-07-04 17:42:46 GMT 34.088837 -80.875183 38,000 246 472 0
2022-07-04 17:42:41 GMT 34.092670 -80.865326 38,000 246 472 0
2022-07-04 17:42:34 GMT 34.098675 -80.849815 38,000 245 472 64
2022-07-04 17:42:30 GMT 34.102913 -80.839119 38,000 245 472 64
2022-07-04 17:42:24 GMT 34.108173 -80.826134 38,000 244 472 0
2022-07-04 17:42:20 GMT 34.112549 -80.815712 38,000 243 472 0
2022-07-04 17:42:15 GMT 34.118225 -80.802650 38,000 242 472 -64
2022-07-04 17:42:08 GMT 34.125778 -80.786057 38,000 241 472 0
2022-07-04 17:42:03 GMT 34.129913 -80.777267 38,000 241 471 0
2022-07-04 17:42:00 GMT 34.133652 -80.769356 38,000 241 471 0
2022-07-04 17:41:54 GMT 34.140804 -80.754150 38,000 241 471 0
2022-07-04 17:41:48 GMT 34.147064 -80.740707 38,000 241 471 0
2022-07-04 17:41:40 GMT 34.156082 -80.721481 38,000 241 471 0
2022-07-04 17:41:36 GMT 34.159706 -80.713806 38,000 241 472 0
2022-07-04 17:41:29 GMT 34.166363 -80.699615 38,000 241 472 64
2022-07-04 17:41:26 GMT 34.170135 -80.691498 38,000 241 472 0
2022-07-04 17:41:23 GMT 34.173706 -80.683929 38,000 241 472 0
2022-07-04 17:41:19 GMT 34.178604 -80.673470 38,000 241 472 0
2022-07-04 17:41:16 GMT 34.181492 -80.667290 38,000 241 472 0
2022-07-04 17:41:12 GMT 34.184875 -80.660049 38,000 241 472 0
2022-07-04 17:41:08 GMT 34.189220 -80.650749 38,000 241 472 0
2022-07-04 17:41:02 GMT 34.195087 -80.638161 38,000 241 472 0
2022-07-04 17:40:59 GMT 34.199276 -80.629173 38,000 241 472 0
2022-07-04 17:40:55 GMT 34.203644 -80.619919 38,000 241 472 0
2022-07-04 17:40:52 GMT 34.207397 -80.611847 38,000 241 472 0
2022-07-04 17:40:48 GMT 34.211193 -80.603714 38,000 241 472 0
2022-07-04 17:40:42 GMT 34.218430 -80.588249 38,000 241 472 0
2022-07-04 17:40:38 GMT 34.222878 -80.578712 38,000 241 472 0
2022-07-04 17:40:30 GMT 34.229767 -80.564003 38,000 241 472 0
2022-07-04 17:40:27 GMT 34.233818 -80.555305 38,000 241 472 0
2022-07-04 17:40:21 GMT 34.240242 -80.541512 38,000 241 472 0
2022-07-04 17:40:17 GMT 34.244431 -80.532593 38,000 241 472 0
2022-07-04 17:40:13 GMT 34.248623 -80.523605 38,000 241 472 0
2022-07-04 17:40:10 GMT 34.251415 -80.517654 38,000 241 472 0
2022-07-04 17:40:07 GMT 34.255791 -80.508270 38,000 241 472 0
2022-07-04 17:39:57 GMT 34.265625 -80.487244 38,000 241 472 0
2022-07-04 17:39:54 GMT 34.268692 -80.480568 38,000 241 472 0
2022-07-04 17:39:50 GMT 34.273636 -80.470032 38,000 241 471 0
2022-07-04 17:39:45 GMT 34.284744 -80.446304 38,000 241 471 0
2022-07-04 17:39:39 GMT 34.284744 -80.446304 38,000 241 471 0
2022-07-04 17:39:36 GMT 34.289120 -80.436913 38,000 241 471 0
2022-07-04 17:39:28 GMT 34.296249 -80.421661 38,000 241 471 0
2022-07-04 17:39:24 GMT 34.301102 -80.411346 38,000 241 471 0
2022-07-04 17:39:18 GMT 34.307281 -80.398064 38,000 241 471 0
2022-07-04 17:39:14 GMT 34.311932 -80.388107 38,000 241 470 64
2022-07-04 17:39:07 GMT 34.318497 -80.374016 38,000 241 472 0
2022-07-04 17:39:02 GMT 34.324722 -80.361290 38,000 239 471 0
2022-07-04 17:38:57 GMT 34.329807 -80.351372 38,000 238 472 0
2022-07-04 17:38:53 GMT 34.335907 -80.340096 38,000 228 474 -64
2022-07-04 17:38:47 GMT 34.342098 -80.329224 38,000 233 473 0
2022-07-04 17:38:41 GMT 34.350403 -80.315437 38,000 234 472 0
2022-07-04 17:38:38 GMT 34.354992 -80.308228 38,000 233 473 0
2022-07-04 17:38:33 GMT 34.362259 -80.297165 38,000 231 473 0
2022-07-04 17:38:30 GMT 34.365280 -80.292778 38,000 231 473 0
2022-07-04 17:38:27 GMT 34.369656 -80.286545 38,000 230 473 0
2022-07-04 17:38:22 GMT 34.378502 -80.274406 38,000 227 473 0
2022-07-04 17:38:17 GMT 34.384415 -80.266731 38,000 227 473 0
2022-07-04 17:38:12 GMT 34.392143 -80.256844 38,000 227 474 0
2022-07-04 17:38:09 GMT 34.397186 -80.250359 38,000 227 474 0
2022-07-04 17:38:06 GMT 34.401501 -80.244881 38,000 227 474 0
2022-07-04 17:38:02 GMT 34.407829 -80.236755 38,000 227 474 0
2022-07-04 17:37:56 GMT 34.416046 -80.226257 38,000 227 475 -64
2022-07-04 17:37:51 GMT 34.424011 -80.216057 38,000 227 475 64
2022-07-04 17:37:45 GMT 34.435856 -80.200882 38,000 227 475 0
2022-07-04 17:37:39 GMT 34.440582 -80.194817 38,000 227 475 0
2022-07-04 17:37:36 GMT 34.447723 -80.185661 38,000 227 475 0
2022-07-04 17:37:31 GMT 34.454590 -80.176819 38,000 227 475 0
2022-07-04 17:37:25 GMT 34.462204 -80.167068 38,000 227 475 -64
2022-07-04 17:37:20 GMT 34.470024 -80.156998 38,000 227 475 -64
2022-07-04 17:37:17 GMT 34.476074 -80.149269 38,000 227 475 0
2022-07-04 17:37:14 GMT 34.478497 -80.146179 38,000 227 475 0
2022-07-04 17:37:09 GMT 34.487137 -80.135063 38,000 227 475 0
2022-07-04 17:37:03 GMT 34.495102 -80.124802 38,000 227 474 0
2022-07-04 17:36:58 GMT 34.502975 -80.114716 38,000 227 474 0
2022-07-04 17:36:53 GMT 34.512058 -80.103088 38,000 227 474 0
2022-07-04 17:36:48 GMT 34.517990 -80.095436 38,000 227 474 0
2022-07-04 17:36:43 GMT 34.525002 -80.086441 38,000 227 474 0
2022-07-04 17:36:37 GMT 34.534698 -80.073967 38,000 227 474 0
2022-07-04 17:36:34 GMT 34.545227 -80.060455 38,000 227 474 0
2022-07-04 17:36:27 GMT 34.549675 -80.054741 38,000 227 474 0
2022-07-04 17:36:22 GMT 34.557129 -80.045151 38,000 227 474 0
2022-07-04 17:36:18 GMT 34.564991 -80.035004 38,000 227 474 0
2022-07-04 17:36:12 GMT 34.573059 -80.024635 38,000 227 474 0
2022-07-04 17:36:06 GMT 34.580772 -80.014687 38,000 227 474 0
2022-07-04 17:36:03 GMT 34.586964 -80.006790 38,000 227 473 0
2022-07-04 17:36:00 GMT 34.589802 -80.003128 38,000 227 473 0
2022-07-04 17:35:55 GMT 34.598694 -79.991623 38,000 227 473 0
2022-07-04 17:35:52 GMT 34.602558 -79.986710 38,000 227 473 0
2022-07-04 17:35:46 GMT 34.611683 -79.974915 38,000 227 473 0
2022-07-04 17:35:42 GMT 34.617920 -79.966904 38,000 227 473 0
2022-07-04 17:35:39 GMT 34.624435 -79.958496 38,000 227 473 0
2022-07-04 17:35:36 GMT 34.627277 -79.954781 38,000 227 473 0
2022-07-04 17:35:32 GMT 34.633560 -79.946709 38,000 227 473 0
2022-07-04 17:35:29 GMT 34.636539 -79.942818 38,000 227 473 0
2022-07-04 17:35:25 GMT 34.642914 -79.934616 38,000 227 473 0
2022-07-04 17:35:21 GMT 34.648365 -79.927544 38,000 227 472 0
2022-07-04 17:35:17 GMT 34.655720 -79.918098 38,000 227 472 0
2022-07-04 17:35:14 GMT 34.660515 -79.911919 38,000 227 472 0
2022-07-04 17:35:11 GMT 34.662827 -79.908890 38,000 227 472 0
2022-07-04 17:35:05 GMT 34.673691 -79.894867 38,000 227 472 0
2022-07-04 17:35:02 GMT 34.676670 -79.891029 38,000 227 472 0
2022-07-04 17:34:59 GMT 34.683094 -79.882736 38,000 227 472 0
2022-07-04 17:34:53 GMT 34.692261 -79.870827 38,000 227 472 0
2022-07-04 17:34:50 GMT 34.695477 -79.866714 38,000 227 472 0
2022-07-04 17:34:44 GMT 34.703156 -79.856758 38,000 227 471 0
2022-07-04 17:34:41 GMT 34.709610 -79.848465 38,000 227 471 0
2022-07-04 17:34:38 GMT 34.713676 -79.843140 38,000 227 471 0
2022-07-04 17:34:32 GMT 34.723160 -79.830864 38,000 227 471 0
2022-07-04 17:34:29 GMT 34.726944 -79.825974 38,000 227 471 0
2022-07-04 17:34:26 GMT 34.730026 -79.822006 38,000 227 471 0
2022-07-04 17:34:23 GMT 34.735245 -79.815224 38,000 227 471 0
2022-07-04 17:34:20 GMT 34.740280 -79.808670 38,000 227 471 0
2022-07-04 17:34:17 GMT 34.744766 -79.802895 38,000 227 471 0
2022-07-04 17:34:11 GMT 34.753014 -79.792152 38,000 227 471 0
2022-07-04 17:34:07 GMT 34.761066 -79.781738 38,000 227 471 0
2022-07-04 17:34:03 GMT 34.766510 -79.774696 38,000 227 471 0
2022-07-04 17:33:58 GMT 34.774109 -79.764893 38,000 227 471 0
2022-07-04 17:33:53 GMT 34.780109 -79.757027 38,000 227 471 0
2022-07-04 17:33:49 GMT 34.787136 -79.747978 38,000 227 471 0
2022-07-04 17:33:46 GMT 34.791824 -79.741905 38,000 227 471 0
2022-07-04 17:33:40 GMT 34.800823 -79.730186 38,000 227 471 0
2022-07-04 17:33:35 GMT 34.807114 -79.722008 38,000 227 471 0
2022-07-04 17:33:31 GMT 34.812790 -79.714668 38,000 227 471 0
2022-07-04 17:33:28 GMT 34.817162 -79.708961 38,000 227 471 0
2022-07-04 17:33:25 GMT 34.823589 -79.700661 38,000 227 471 0
2022-07-04 17:33:22 GMT 34.827209 -79.695892 38,000 227 471 0
2022-07-04 17:33:19 GMT 34.831455 -79.690361 38,000 227 471 0
2022-07-04 17:33:15 GMT 34.836529 -79.683838 38,000 227 471 0
2022-07-04 17:33:11 GMT 34.849892 -79.666389 38,000 227 471 0
2022-07-04 17:33:07 GMT 34.849892 -79.666389 38,000 228 471 0
2022-07-04 17:33:02 GMT 34.860123 -79.653175 38,000 228 471 0
2022-07-04 17:32:56 GMT 34.865532 -79.646072 38,000 228 471 0
2022-07-04 17:32:53 GMT 34.869396 -79.641037 38,000 228 471 0
2022-07-04 17:32:49 GMT 34.876602 -79.631653 38,000 228 471 0
2022-07-04 17:32:45 GMT 34.889736 -79.614548 38,000 228 471 0
2022-07-04 17:32:40 GMT 34.889736 -79.614548 38,000 228 471 0
2022-07-04 17:32:36 GMT 34.894951 -79.607735 38,000 228 471 0
2022-07-04 17:32:33 GMT 34.900631 -79.600349 38,000 228 471 0
2022-07-04 17:32:28 GMT 34.910408 -79.587593 38,000 228 471 0
2022-07-04 17:32:25 GMT 34.915695 -79.580704 38,000 228 471 0
2022-07-04 17:32:22 GMT 34.915695 -79.580704 38,000 228 471 0
2022-07-04 17:32:19 GMT 34.925354 -79.568092 38,000 228 471 0
2022-07-04 17:32:16 GMT 34.931217 -79.560471 38,000 228 471 0
2022-07-04 17:32:12 GMT 34.931217 -79.560471 38,000 228 471 0
2022-07-04 17:32:07 GMT 34.936989 -79.552917 38,000 228 471 0
2022-07-04 17:32:04 GMT 34.941597 -79.546852 38,000 228 471 0
2022-07-04 17:32:00 GMT 34.947838 -79.538727 38,000 228 471 0
2022-07-04 17:31:57 GMT 34.951950 -79.533394 38,000 228 471 0
2022-07-04 17:31:54 GMT 34.957333 -79.526314 38,000 228 471 0
2022-07-04 17:31:50 GMT 34.963531 -79.518257 38,000 228 471 0
2022-07-04 17:31:47 GMT 34.966507 -79.514389 38,000 228 471 0
2022-07-04 17:31:43 GMT 34.973740 -79.504860 38,000 228 471 0
2022-07-04 17:31:40 GMT 34.977905 -79.499428 38,000 228 471 0
2022-07-04 17:31:37 GMT 34.982609 -79.493355 38,000 228 471 0
2022-07-04 17:31:34 GMT 34.987839 -79.486420 38,000 228 470 0
2022-07-04 17:31:31 GMT 34.990219 -79.483337 38,000 228 470 0
2022-07-04 17:31:27 GMT 35.000885 -79.469383 38,000 228 470 0
2022-07-04 17:31:24 GMT 35.000885 -79.469383 38,000 228 470 0
2022-07-04 17:31:21 GMT 35.005840 -79.462852 38,000 228 470 0
2022-07-04 17:31:18 GMT 35.009491 -79.458115 38,000 228 470 0
2022-07-04 17:31:15 GMT 35.015717 -79.449989 38,000 228 470 0
2022-07-04 17:31:11 GMT 35.021347 -79.442589 38,000 228 470 0
2022-07-04 17:31:07 GMT 35.034805 -79.424927 38,000 228 470 0
2022-07-04 17:31:02 GMT 35.034805 -79.424927 38,000 228 470 0
2022-07-04 17:30:59 GMT 35.039639 -79.418617 38,000 228 470 0
2022-07-04 17:30:56 GMT 35.043228 -79.413887 38,000 228 470 0
2022-07-04 17:30:53 GMT 35.052109 -79.402229 38,000 228 470 0
2022-07-04 17:30:50 GMT 35.055279 -79.398079 38,000 228 470 0
2022-07-04 17:30:47 GMT 35.055279 -79.398079 38,000 228 470 0
2022-07-04 17:30:44 GMT 35.059887 -79.392075 38,000 228 470 0
2022-07-04 17:30:41 GMT 35.066299 -79.383621 38,000 228 470 0
2022-07-04 17:30:38 GMT 35.073757 -79.373817 38,000 228 468 0
2022-07-04 17:30:35 GMT 35.073757 -79.373817 38,000 228 470 0
2022-07-04 17:30:30 GMT 35.081627 -79.363518 38,000 228 469 0
2022-07-04 17:30:27 GMT 35.085911 -79.357910 38,000 228 469 0
2022-07-04 17:30:23 GMT 35.091751 -79.350266 38,000 228 469 0
2022-07-04 17:30:20 GMT 35.096924 -79.343483 38,000 228 469 0
2022-07-04 17:30:17 GMT 35.102097 -79.336647 38,000 228 469 0
2022-07-04 17:30:12 GMT 35.108871 -79.327736 38,000 228 469 0
2022-07-04 17:30:09 GMT 35.113979 -79.321060 38,000 228 469 0
2022-07-04 17:30:05 GMT 35.119812 -79.313385 38,000 228 469 0
2022-07-04 17:30:01 GMT 35.124252 -79.307556 38,000 228 469 0
2022-07-04 17:29:58 GMT 35.130157 -79.299820 38,000 228 469 0
2022-07-04 17:29:55 GMT 35.132416 -79.296799 38,000 228 468 0
2022-07-04 17:29:51 GMT 35.140514 -79.286095 38,000 228 469 0
2022-07-04 17:29:48 GMT 35.143772 -79.281860 38,000 228 469 0
2022-07-04 17:29:45 GMT 35.148197 -79.276031 38,000 228 469 0
2022-07-04 17:29:41 GMT 35.160782 -79.259460 38,000 228 468 0
2022-07-04 17:29:37 GMT 35.160782 -79.259460 38,000 228 468 0
2022-07-04 17:29:32 GMT 35.166306 -79.252167 38,000 228 468 0
2022-07-04 17:29:29 GMT 35.171539 -79.245285 38,000 228 468 0
2022-07-04 17:29:25 GMT 35.178410 -79.236259 38,000 228 468 0
2022-07-04 17:29:22 GMT 35.181202 -79.232597 38,000 228 468 0
2022-07-04 17:29:19 GMT 35.185158 -79.227333 38,000 228 468 0
2022-07-04 17:29:16 GMT 35.191864 -79.218544 38,000 228 468 0
2022-07-04 17:29:12 GMT 35.195446 -79.213776 38,000 228 468 0
2022-07-04 17:29:09 GMT 35.202057 -79.205070 38,000 228 468 0
2022-07-04 17:29:04 GMT 35.209488 -79.195282 38,000 228 467 0
2022-07-04 17:28:59 GMT 35.215881 -79.186874 38,000 228 468 0
2022-07-04 17:28:55 GMT 35.223312 -79.177063 38,000 228 468 0
2022-07-04 17:28:50 GMT 35.228966 -79.169601 38,000 228 467 0
2022-07-04 17:28:47 GMT 35.233887 -79.163132 38,000 228 467 0
2022-07-04 17:28:43 GMT 35.238369 -79.157257 38,000 228 468 0
2022-07-04 17:28:40 GMT 35.248192 -79.144218 38,000 228 468 0
2022-07-04 17:28:37 GMT 35.248192 -79.144218 38,000 228 468 0
2022-07-04 17:28:34 GMT 35.258339 -79.130836 38,000 228 468 0
2022-07-04 17:28:30 GMT 35.258339 -79.130836 38,000 228 467 0
2022-07-04 17:28:27 GMT 35.265972 -79.120728 38,000 228 467 0
2022-07-04 17:28:21 GMT 35.270599 -79.114609 38,000 228 467 0
2022-07-04 17:28:17 GMT 35.278450 -79.104248 38,000 228 467 0
2022-07-04 17:28:11 GMT 35.285843 -79.094467 38,000 228 466 0
2022-07-04 17:28:08 GMT 35.289505 -79.089600 38,000 228 467 0
2022-07-04 17:28:05 GMT 35.293953 -79.083679 38,000 228 467 0
2022-07-04 17:28:02 GMT 35.300564 -79.074974 38,000 228 466 0
2022-07-04 17:27:58 GMT 35.306488 -79.067116 38,000 228 466 0
2022-07-04 17:27:53 GMT 35.311478 -79.060532 38,000 228 466 -64
2022-07-04 17:27:50 GMT 35.317154 -79.052979 38,000 228 466 -64
2022-07-04 17:27:47 GMT 35.320267 -79.048920 38,000 228 466 0
2022-07-04 17:27:44 GMT 35.326401 -79.040733 38,000 228 466 -64
2022-07-04 17:27:41 GMT 35.331070 -79.034554 38,000 228 466 0
2022-07-04 17:27:37 GMT 35.336609 -79.027176 38,025 228 466 0
2022-07-04 17:27:33 GMT 35.341736 -79.020424 38,025 228 466 0
2022-07-04 17:27:29 GMT 35.349117 -79.010635 38,025 228 466 -64
2022-07-04 17:27:26 GMT 35.351910 -79.006950 38,025 228 466 -64
2022-07-04 17:27:22 GMT 35.357590 -78.999413 38,025 228 465 128
2022-07-04 17:27:19 GMT 35.366619 -78.987434 38,025 228 464 192
2022-07-04 17:27:16 GMT 35.366619 -78.987434 38,000 228 464 384
2022-07-04 17:27:13 GMT 35.372623 -78.979485 37,975 228 464 704
2022-07-04 17:27:07 GMT 35.379887 -78.969788 37,875 228 464 704
2022-07-04 17:27:04 GMT 35.384171 -78.964119 37,875 228 464 640
2022-07-04 17:27:01 GMT 35.388454 -78.958389 37,850 228 464 640
2022-07-04 17:26:57 GMT 35.395248 -78.949409 37,800 228 464 576
2022-07-04 17:26:54 GMT 35.399952 -78.943138 37,775 228 464 576
2022-07-04 17:26:51 GMT 35.403671 -78.938194 37,750 228 464 640
2022-07-04 17:26:46 GMT 35.411819 -78.927383 37,675 228 464 640
2022-07-04 17:26:43 GMT 35.415966 -78.921867 37,650 228 464 704
2022-07-04 17:26:39 GMT 35.419189 -78.917542 37,600 228 464 704
2022-07-04 17:26:35 GMT 35.426743 -78.907471 37,575 228 464 640
2022-07-04 17:26:32 GMT 35.429604 -78.903748 37,525 228 464 704
2022-07-04 17:26:29 GMT 35.440247 -78.889565 37,500 228 462 704
2022-07-04 17:26:26 GMT 35.440247 -78.889565 37,450 228 463 704
2022-07-04 17:26:22 GMT 35.445602 -78.882408 37,400 228 462 704
2022-07-04 17:26:18 GMT 35.456955 -78.867355 37,325 228 462 768
2022-07-04 17:26:15 GMT 35.456955 -78.867355 37,325 228 462 704
2022-07-04 17:26:12 GMT 35.459164 -78.864365 37,300 228 462 704
2022-07-04 17:26:09 GMT 35.463402 -78.858749 37,250 228 462 704
2022-07-04 17:26:05 GMT 35.473618 -78.845161 37,200 228 462 768
2022-07-04 17:26:02 GMT 35.473618 -78.845161 37,175 228 462 704
2022-07-04 17:25:59 GMT 35.479248 -78.837608 37,125 228 462 704
2022-07-04 17:25:55 GMT 35.489426 -78.824043 37,075 228 462 768
2022-07-04 17:25:52 GMT 35.489426 -78.824043 37,050 228 462 768
2022-07-04 17:25:49 GMT 35.492496 -78.819946 37,025 228 462 768
2022-07-04 17:25:44 GMT 35.500130 -78.809723 36,950 228 462 832
2022-07-04 17:25:40 GMT 35.506786 -78.800842 36,850 228 462 832
2022-07-04 17:25:36 GMT 35.512886 -78.792778 36,800 228 462 832
2022-07-04 17:25:33 GMT 35.516830 -78.787476 36,800 228 462 832
2022-07-04 17:25:29 GMT 35.522987 -78.779274 36,725 228 462 832
2022-07-04 17:25:24 GMT 35.534775 -78.763557 36,600 228 462 896
2022-07-04 17:25:21 GMT 35.534775 -78.763557 36,600 228 462 896
2022-07-04 17:25:16 GMT 35.541412 -78.754692 36,550 228 462 896
2022-07-04 17:25:12 GMT 35.552673 -78.739639 36,450 228 462 896
2022-07-04 17:25:08 GMT 35.552673 -78.739639 36,425 228 462 896
2022-07-04 17:25:04 GMT 35.557812 -78.732758 36,350 228 462 896
2022-07-04 17:25:01 GMT 35.563797 -78.724770 36,325 228 462 896
2022-07-04 17:24:57 GMT 35.571304 -78.714752 36,250 228 461 832
2022-07-04 17:24:54 GMT 35.571304 -78.714752 36,225 228 461 832
2022-07-04 17:24:51 GMT 35.577484 -78.706451 36,150 228 460 832
2022-07-04 17:24:48 GMT 35.581738 -78.700798 36,125 228 460 832
2022-07-04 17:24:44 GMT 35.591515 -78.687706 36,050 228 460 896
2022-07-04 17:24:41 GMT 35.591515 -78.687706 36,025 228 460 896
2022-07-04 17:24:38 GMT 35.595238 -78.682678 36,000 228 460 960
2022-07-04 17:24:34 GMT 35.601517 -78.674294 35,900 228 460 1024
2022-07-04 17:24:31 GMT 35.610672 -78.661995 35,850 228 460 1088
2022-07-04 17:24:28 GMT 35.610672 -78.661995 35,825 228 460 1088
2022-07-04 17:24:25 GMT 35.613419 -78.658333 35,775 228 460 1088
2022-07-04 17:24:22 GMT 35.617996 -78.652206 35,675 228 460 1024
2022-07-04 17:24:19 GMT 35.624100 -78.643997 35,650 228 460 1024
2022-07-04 17:24:16 GMT 35.627125 -78.639961 35,600 228 460 1024
2022-07-04 17:24:13 GMT 35.632370 -78.632927 35,525 228 460 1024
2022-07-04 17:24:10 GMT 35.636810 -78.626976 35,500 228 460 1024
2022-07-04 17:24:07 GMT 35.645737 -78.615021 35,425 228 460 1088
2022-07-04 17:24:03 GMT 35.645737 -78.615021 35,375 228 460 1024
2022-07-04 17:24:00 GMT 35.651241 -78.607590 35,325 228 460 1024
2022-07-04 17:23:57 GMT 35.657776 -78.598824 35,225 228 463 1408
2022-07-04 17:23:54 GMT 35.661942 -78.593216 35,225 228 463 1408
2022-07-04 17:23:51 GMT 35.661942 -78.593216 35,200 228 460 1024
2022-07-04 17:23:47 GMT 35.668606 -78.584213 35,125 228 460 1024
2022-07-04 17:23:44 GMT 35.673634 -78.577492 35,050 228 460 1024
2022-07-04 17:23:41 GMT 35.678658 -78.570709 35,000 228 460 960
2022-07-04 17:23:37 GMT 35.682907 -78.565002 34,425 228 460 0
2022-07-04 17:23:34 GMT 35.687622 -78.558655 34,425 228 463 1408
2022-07-04 17:23:29 GMT 35.694439 -78.549500 34,775 228 460 1024
2022-07-04 17:23:26 GMT 35.699524 -78.542633 34,750 228 460 1024
2022-07-04 17:23:23 GMT 35.702087 -78.539146 34,725 228 460 1024
2022-07-04 17:23:19 GMT 35.707581 -78.531761 34,675 228 460 1152
2022-07-04 17:23:16 GMT 35.714645 -78.522209 34,550 228 460 1408
2022-07-04 17:23:13 GMT 35.717670 -78.518173 34,475 228 461 1472
2022-07-04 17:23:09 GMT 35.724003 -78.509644 34,375 228 462 1472
2022-07-04 17:23:06 GMT 35.726608 -78.506142 34,325 228 462 1408
2022-07-04 17:23:03 GMT 35.731915 -78.498955 34,225 228 463 1408
2022-07-04 17:22:59 GMT 35.737129 -78.491936 34,125 228 463 1472
2022-07-04 17:22:56 GMT 35.743042 -78.483994 34,050 228 465 1472
2022-07-04 17:22:53 GMT 35.747452 -78.478027 33,975 228 465 1600
2022-07-04 17:22:48 GMT 35.754593 -78.468475 33,825 228 466 1856
2022-07-04 17:22:45 GMT 35.758072 -78.463722 33,775 228 467 1856
2022-07-04 17:22:42 GMT 35.762081 -78.458336 33,400 228 468 1664
2022-07-04 17:22:37 GMT 35.770412 -78.447113 33,475 228 470 1600
2022-07-04 17:22:34 GMT 35.774139 -78.442101 33,475 228 470 1600
2022-07-04 17:22:30 GMT 35.780869 -78.432999 33,300 228 471 1728
2022-07-04 17:22:25 GMT 35.788010 -78.423332 33,150 228 472 1856
2022-07-04 17:22:22 GMT 35.792107 -78.417778 33,050 228 474 1920
2022-07-04 17:22:19 GMT 35.796021 -78.412514 33,000 228 475 1920
2022-07-04 17:22:16 GMT 35.799648 -78.407616 32,925 228 475 1920
2022-07-04 17:22:13 GMT 35.805141 -78.400192 32,750 228 477 1856
2022-07-04 17:22:10 GMT 35.814560 -78.387451 32,675 228 477 1856
2022-07-04 17:22:07 GMT 35.814560 -78.387451 32,575 228 479 1856
2022-07-04 17:22:04 GMT 35.818363 -78.382309 32,425 228 479 1920
2022-07-04 17:22:01 GMT 35.823765 -78.375061 32,425 228 480 1984
2022-07-04 17:21:56 GMT 35.830124 -78.366447 32,275 228 482 2048
2022-07-04 17:21:53 GMT 35.835205 -78.359528 32,175 228 483 1856
2022-07-04 17:21:49 GMT 35.839638 -78.353554 32,050 228 484 1088
2022-07-04 17:21:46 GMT 35.844944 -78.346428 32,050 228 483 896
2022-07-04 17:21:43 GMT 35.850204 -78.339294 32,000 228 483 256
2022-07-04 17:21:40 GMT 35.854797 -78.333092 32,000 228 483 64
2022-07-04 17:21:36 GMT 35.860119 -78.325859 32,000 228 483 64
2022-07-04 17:21:33 GMT 35.865463 -78.318619 32,000 228 483 64
2022-07-04 17:21:30 GMT 35.870453 -78.311920 32,000 228 483 0
2022-07-04 17:21:26 GMT 35.876312 -78.303970 32,000 228 482 0
2022-07-04 17:21:21 GMT 35.885677 -78.291260 32,000 228 482 0
2022-07-04 17:21:18 GMT 35.888050 -78.288048 32,000 228 482 0
2022-07-04 17:21:15 GMT 35.891960 -78.282730 32,000 228 482 0
2022-07-04 17:21:12 GMT 35.897083 -78.275833 32,000 228 481 0
2022-07-04 17:21:07 GMT 35.903786 -78.266716 32,000 228 480 0
2022-07-04 17:21:04 GMT 35.909866 -78.258530 32,000 228 480 0
2022-07-04 17:21:01 GMT 35.912704 -78.254700 32,000 228 479 0
2022-07-04 17:20:57 GMT 35.917706 -78.247902 32,000 228 479 0
2022-07-04 17:20:54 GMT 35.922409 -78.241539 32,000 228 479 0
2022-07-04 17:20:51 GMT 35.928635 -78.233070 32,000 228 479 0
2022-07-04 17:20:46 GMT 35.934631 -78.224998 32,000 228 479 -64
2022-07-04 17:20:43 GMT 35.938419 -78.219849 32,000 228 479 -64
2022-07-04 17:20:40 GMT 35.944153 -78.212067 32,000 228 479 -64
2022-07-04 17:20:37 GMT 35.948570 -78.206116 32,000 228 479 0
2022-07-04 17:20:34 GMT 35.952572 -78.200684 32,000 228 479 0
2022-07-04 17:20:30 GMT 35.959881 -78.190811 32,000 228 479 128
2022-07-04 17:20:25 GMT 35.967133 -78.181000 31,950 228 478 448
2022-07-04 17:20:22 GMT 35.971191 -78.175438 31,950 228 478 640
2022-07-04 17:20:19 GMT 35.975525 -78.169594 31,900 228 478 960
2022-07-04 17:20:16 GMT 35.979767 -78.163834 31,850 228 478 1472
2022-07-04 17:20:13 GMT 35.983200 -78.159203 31,800 228 478 1472
2022-07-04 17:20:09 GMT 35.991577 -78.147926 31,650 228 479 1728
2022-07-04 17:20:06 GMT 35.996201 -78.141632 31,575 228 479 1792
2022-07-04 17:20:03 GMT 35.998520 -78.138504 31,400 228 481 1792
2022-07-04 17:20:00 GMT 36.004944 -78.129799 31,375 228 482 1792
2022-07-04 17:19:56 GMT 36.011032 -78.121552 31,275 228 482 1728
2022-07-04 17:19:52 GMT 36.015060 -78.116058 31,200 228 483 1536
2022-07-04 17:19:49 GMT 36.019272 -78.110329 31,050 228 483 1536
2022-07-04 17:19:46 GMT 36.025845 -78.101456 30,975 228 484 1536
2022-07-04 17:19:43 GMT 36.029476 -78.096550 30,950 228 484 1536
2022-07-04 17:19:40 GMT 36.035015 -78.089012 30,775 228 484 1536
2022-07-04 17:19:35 GMT 36.042343 -78.079033 30,750 228 486 1472
2022-07-04 17:19:31 GMT 36.048470 -78.070717 30,650 228 486 1408
2022-07-04 17:19:28 GMT 36.051590 -78.066505 30,550 228 486 1408
2022-07-04 17:19:25 GMT 36.060432 -78.054527 30,500 228 488 1152
2022-07-04 17:19:22 GMT 36.060432 -78.054527 30,450 228 487 1472
2022-07-04 17:19:19 GMT 36.066559 -78.046188 30,325 228 487 1408
2022-07-04 17:19:15 GMT 36.073380 -78.036919 30,150 228 487 1344
2022-07-04 17:19:12 GMT 36.075806 -78.033600 30,200 228 487 1344
2022-07-04 17:19:09 GMT 36.080521 -78.027245 30,125 228 487 1216
2022-07-04 17:19:06 GMT 36.086365 -78.019295 30,075 228 488 1152
2022-07-04 17:19:02 GMT 36.094162 -78.008652 29,975 228 487 1152
2022-07-04 17:18:55 GMT 36.101959 -77.998077 29,875 228 487 1216
2022-07-04 17:18:50 GMT 36.112247 -77.984055 29,625 228 487 1280
2022-07-04 17:18:47 GMT 36.115273 -77.979904 29,675 228 487 1280
2022-07-04 17:18:44 GMT 36.119041 -77.974762 29,625 228 487 1280
2022-07-04 17:18:40 GMT 36.123558 -77.968567 29,550 228 487 1280
2022-07-04 17:18:37 GMT 36.128399 -77.961967 29,500 228 487 1280
2022-07-04 17:18:34 GMT 36.134453 -77.953728 29,400 228 487 1216
2022-07-04 17:18:30 GMT 36.138931 -77.947655 29,350 228 487 1216
2022-07-04 17:18:26 GMT 36.150375 -77.931915 29,225 228 487 1472
2022-07-04 17:18:23 GMT 36.150375 -77.931915 29,150 228 487 1536
2022-07-04 17:18:20 GMT 36.153957 -77.927078 29,100 228 487 1536
2022-07-04 17:18:15 GMT 36.162186 -77.915787 28,900 229 489 1472
2022-07-04 17:18:12 GMT 36.167587 -77.908340 28,900 228 488 1536
2022-07-04 17:18:09 GMT 36.170471 -77.904396 28,850 228 488 1536
2022-07-04 17:18:06 GMT 36.176907 -77.895576 28,700 229 489 1536
2022-07-04 17:17:59 GMT 36.185379 -77.883949 28,600 228 489 1344
2022-07-04 17:17:54 GMT 36.193295 -77.873199 28,500 228 489 1152
2022-07-04 17:17:49 GMT 36.201416 -77.862106 28,400 228 488 1024
2022-07-04 17:17:45 GMT 36.208374 -77.852615 28,325 228 488 960
2022-07-04 17:17:40 GMT 36.217175 -77.840767 28,225 228 488 1024
2022-07-04 17:17:33 GMT 36.227051 -77.827606 28,125 227 486 1088
2022-07-04 17:17:28 GMT 36.234009 -77.818504 28,050 227 486 1024
2022-07-04 17:17:23 GMT 36.243256 -77.806374 27,925 227 485 1088
2022-07-04 17:17:18 GMT 36.248062 -77.800140 27,875 227 485 1088
2022-07-04 17:17:12 GMT 36.259445 -77.785423 27,750 227 484 1152
2022-07-04 17:17:09 GMT 36.272690 -77.768272 27,650 227 483 1216
2022-07-04 17:17:03 GMT 36.279369 -77.759537 26,625 228 480 1152
2022-07-04 17:16:59 GMT 36.279369 -77.759537 27,450 227 483 1152
2022-07-04 17:16:50 GMT 36.291473 -77.743584 27,275 228 483 1152
2022-07-04 17:16:47 GMT 36.295944 -77.737595 27,275 228 482 1152
2022-07-04 17:16:42 GMT 36.305283 -77.725014 27,150 228 482 1152
2022-07-04 17:16:38 GMT 36.311783 -77.716255 27,075 228 482 1152
2022-07-04 17:16:30 GMT 36.323959 -77.699837 26,900 228 481 1216
2022-07-04 17:16:27 GMT 36.327038 -77.695663 26,750 227 480 1344
2022-07-04 17:16:20 GMT 36.338242 -77.680946 26,525 226 480 1344
2022-07-04 17:16:17 GMT 36.352478 -77.663551 26,600 225 480 1216
2022-07-04 17:16:11 GMT 36.352478 -77.663551 26,500 223 480 704
2022-07-04 17:16:06 GMT 36.360138 -77.655396 26,475 218 478 576
2022-07-04 17:15:59 GMT 36.371357 -77.645111 26,350 214 477 1152
2022-07-04 17:15:56 GMT 36.379410 -77.638397 26,300 214 477 1152
2022-07-04 17:15:52 GMT 36.384949 -77.633835 26,300 214 477 1152
2022-07-04 17:15:48 GMT 36.394547 -77.625793 26,175 215 476 1024
2022-07-04 17:15:45 GMT 36.398346 -77.622475 26,075 217 475 960
2022-07-04 17:15:42 GMT 36.404083 -77.617241 26,075 217 475 960
2022-07-04 17:15:36 GMT 36.413818 -77.607712 25,950 224 470 1216
2022-07-04 17:15:33 GMT 36.420097 -77.601166 25,950 224 470 1216
2022-07-04 17:15:26 GMT 36.431076 -77.588715 25,825 225 470 1216
2022-07-04 17:15:22 GMT 36.435970 -77.582764 25,750 225 469 1280
2022-07-04 17:15:18 GMT 36.443298 -77.573380 25,650 227 469 1344
2022-07-04 17:15:14 GMT 36.449982 -77.564217 25,300 230 467 1024
2022-07-04 17:15:08 GMT 36.457012 -77.553894 25,450 232 466 832
2022-07-04 17:15:03 GMT 36.463486 -77.543678 25,400 234 464 896
2022-07-04 17:14:57 GMT 36.470444 -77.531891 25,325 236 462 1088
2022-07-04 17:14:53 GMT 36.476669 -77.520447 25,225 238 461 1216
2022-07-04 17:14:46 GMT 36.484989 -77.503693 25,075 240 460 1216
2022-07-04 17:14:42 GMT 36.488342 -77.496628 25,000 240 459 1024
2022-07-04 17:14:36 GMT 36.495277 -77.481842 24,925 240 457 640
2022-07-04 17:14:32 GMT 36.500015 -77.471748 24,875 240 455 512
2022-07-04 17:14:27 GMT 36.504169 -77.462845 24,825 240 453 640
2022-07-04 17:14:24 GMT 36.506916 -77.457001 24,225 240 452 768
2022-07-04 17:14:21 GMT 36.510174 -77.450050 24,675 240 450 1536
2022-07-04 17:14:15 GMT 36.517456 -77.434502 24,575 240 450 1728
2022-07-04 17:14:11 GMT 36.521580 -77.425682 24,475 240 450 1408
2022-07-04 17:14:06 GMT 36.525955 -77.416267 24,375 241 450 896
2022-07-04 17:14:00 GMT 36.532429 -77.402420 24,325 240 447 448
2022-07-04 17:13:55 GMT 36.536758 -77.393127 24,275 240 444 640
2022-07-04 17:13:50 GMT 36.543648 -77.378342 24,175 240 442 1216
2022-07-04 17:13:44 GMT 36.548721 -77.367493 24,050 241 442 1664
2022-07-04 17:13:39 GMT 36.554073 -77.355965 23,900 240 441 1728
2022-07-04 17:13:35 GMT 36.557892 -77.347839 23,800 240 441 1664
2022-07-04 17:13:29 GMT 36.564789 -77.333054 23,625 240 441 1408
2022-07-04 17:13:24 GMT 36.568691 -77.324638 23,525 240 439 1344
2022-07-04 17:13:21 GMT 36.573120 -77.315140 23,425 240 439 1280
2022-07-04 17:13:18 GMT 36.575626 -77.309799 23,225 240 439 1280
2022-07-04 17:13:15 GMT 36.578793 -77.303017 23,300 240 437 1408
2022-07-04 17:13:08 GMT 36.588383 -77.282333 23,050 241 436 1664
2022-07-04 17:13:03 GMT 36.591923 -77.274734 22,975 241 436 1728
2022-07-04 17:12:58 GMT 36.596344 -77.265205 22,825 241 436 1728
2022-07-04 17:12:52 GMT 36.601776 -77.253632 22,475 240 431 1600
2022-07-04 17:12:47 GMT 36.610107 -77.235664 22,475 240 435 1728
2022-07-04 17:12:44 GMT 36.610107 -77.235664 22,450 240 435 1728
2022-07-04 17:12:41 GMT 36.612350 -77.230850 22,375 240 435 1728
2022-07-04 17:12:37 GMT 36.619850 -77.214775 22,100 240 434 1792
2022-07-04 17:12:34 GMT 36.619850 -77.214775 22,100 240 434 1792
2022-07-04 17:12:31 GMT 36.623932 -77.206017 22,050 240 434 1728
2022-07-04 17:12:25 GMT 36.628189 -77.196922 21,925 240 434 1600
2022-07-04 17:12:22 GMT 36.631771 -77.189301 21,825 240 433 1536
2022-07-04 17:12:16 GMT 36.641602 -77.168312 21,650 240 432 1600
2022-07-04 17:12:13 GMT 36.641602 -77.168312 21,575 240 432 1600
2022-07-04 17:12:06 GMT 36.648575 -77.153358 21,375 240 431 1664
2022-07-04 17:12:03 GMT 36.651600 -77.146935 21,300 240 431 1664
2022-07-04 17:11:52 GMT 36.662029 -77.124725 21,025 240 429 1536
2022-07-04 17:11:44 GMT 36.670074 -77.107544 20,800 240 428 1664
2022-07-04 17:11:40 GMT 36.673370 -77.100563 20,725 240 427 1728
2022-07-04 17:11:31 GMT 36.683487 -77.078873 20,425 240 426 1728
2022-07-04 17:11:23 GMT 36.690811 -77.063194 20,200 241 426 1728
2022-07-04 17:11:20 GMT 36.693825 -77.056763 19,725 241 425 1728
2022-07-04 17:11:12 GMT 36.700947 -77.041275 19,900 241 424 1728
2022-07-04 17:11:08 GMT 36.705643 -77.030983 19,775 241 423 1728
2022-07-04 17:11:02 GMT 36.710495 -77.020111 19,625 242 422 1792
2022-07-04 17:10:58 GMT 36.714752 -77.010551 19,475 242 422 1856
2022-07-04 17:10:52 GMT 36.720406 -76.997917 19,300 242 421 1856
2022-07-04 17:10:48 GMT 36.724640 -76.988388 19,175 242 421 1792
2022-07-04 17:10:42 GMT 36.730270 -76.975761 19,000 241 420 1664
2022-07-04 17:10:39 GMT 36.734093 -76.967178 18,875 242 419 1728
2022-07-04 17:10:31 GMT 36.740250 -76.953339 18,675 242 419 1856
2022-07-04 17:10:27 GMT 36.744053 -76.944794 18,550 241 418 1920
2022-07-04 17:10:21 GMT 36.749863 -76.931824 18,375 242 418 1856
2022-07-04 17:10:15 GMT 36.756317 -76.917343 18,150 242 417 1792
2022-07-04 17:10:08 GMT 36.762394 -76.903595 17,950 242 413 1856
2022-07-04 17:10:05 GMT 36.764816 -76.898163 17,875 242 415 1728
2022-07-04 17:10:00 GMT 36.769100 -76.888519 17,750 242 414 1792
2022-07-04 17:09:55 GMT 36.774994 -76.875282 17,550 242 413 1920
2022-07-04 17:09:50 GMT 36.778748 -76.866760 17,425 242 412 1920
2022-07-04 17:09:42 GMT 36.786415 -76.849426 17,175 242 410 1728
2022-07-04 17:09:39 GMT 36.788372 -76.845039 17,100 242 409 1664
2022-07-04 17:09:34 GMT 36.793633 -76.833061 16,950 242 408 1664
2022-07-04 17:09:29 GMT 36.797634 -76.824059 16,825 242 405 1600
2022-07-04 17:09:21 GMT 36.805115 -76.807198 16,600 242 404 1664
2022-07-04 17:09:18 GMT 36.807503 -76.801796 16,550 242 402 1664
2022-07-04 17:09:08 GMT 36.816467 -76.781448 16,250 242 399 1600
2022-07-04 17:09:03 GMT 36.821365 -76.770401 16,125 242 396 1600
2022-07-04 17:08:58 GMT 36.825760 -76.760384 15,975 242 394 1600
2022-07-04 17:08:51 GMT 36.832317 -76.745583 15,750 242 392 1856
2022-07-04 17:08:47 GMT 36.834961 -76.739555 15,675 242 391 1984
2022-07-04 17:08:42 GMT 36.839767 -76.728683 15,475 242 389 2176
2022-07-04 17:08:39 GMT 36.843536 -76.720161 15,300 242 388 2304
2022-07-04 17:08:36 GMT 36.844437 -76.718040 15,075 242 388 2304
2022-07-04 17:08:31 GMT 36.849682 -76.706192 15,025 242 388 2368
2022-07-04 17:08:27 GMT 36.852722 -76.699242 14,875 242 387 2496
2022-07-04 17:08:20 GMT 36.858353 -76.686501 14,600 242 386 2496
2022-07-04 17:08:14 GMT 36.863647 -76.674538 14,350 242 386 2432
2022-07-04 17:08:11 GMT 36.867416 -76.665939 14,175 242 385 2432
2022-07-04 17:08:07 GMT 36.870396 -76.659134 14,025 242 384 2432
2022-07-04 17:08:04 GMT 36.873001 -76.653191 13,925 242 384 2432
2022-07-04 17:07:59 GMT 36.876820 -76.644569 13,725 242 383 2560
2022-07-04 17:07:56 GMT 36.881332 -76.634430 13,500 242 382 2752
2022-07-04 17:07:49 GMT 36.885498 -76.624962 13,275 242 382 2688
2022-07-04 17:07:45 GMT 36.888931 -76.617249 13,100 242 381 2624
2022-07-04 17:07:38 GMT 36.894745 -76.604027 12,800 242 380 2432
2022-07-04 17:07:34 GMT 36.898178 -76.596268 12,475 242 379 2240
2022-07-04 17:07:29 GMT 36.902889 -76.585632 12,450 242 377 2112
2022-07-04 17:07:23 GMT 36.907265 -76.575783 12,275 242 372 2048
2022-07-04 17:07:15 GMT 36.914108 -76.560318 11,950 242 371 1920
2022-07-04 17:07:12 GMT 36.916248 -76.555420 11,925 242 369 1920
2022-07-04 17:07:03 GMT 36.924397 -76.536850 11,625 242 362 1664
2022-07-04 17:06:55 GMT 36.930908 -76.521996 11,425 242 356 1408
2022-07-04 17:06:52 GMT 36.932419 -76.518608 11,400 242 353 1408
2022-07-04 17:06:46 GMT 36.937180 -76.507736 11,250 242 346 1472
2022-07-04 17:06:42 GMT 36.940201 -76.500725 11,175 243 344 1280
2022-07-04 17:06:35 GMT 36.945602 -76.486351 11,000 248 335 960
2022-07-04 17:06:31 GMT 36.947163 -76.481201 10,950 252 327 1024
2022-07-04 17:06:24 GMT 36.950092 -76.468666 10,850 259 316 1152
2022-07-04 17:06:21 GMT 36.951050 -76.463203 10,775 262 310 1152
2022-07-04 17:06:15 GMT 36.952423 -76.451698 10,650 268 299 1280
2022-07-04 17:06:10 GMT 36.952835 -76.444504 10,400 268 299 1280
2022-07-04 17:06:03 GMT 36.953213 -76.429977 10,375 269 288 1280
2022-07-04 17:05:57 GMT 36.953400 -76.421913 10,350 269 282 2560
2022-07-04 17:05:52 GMT 36.953568 -76.412720 9,975 269 280 2944
2022-07-04 17:05:47 GMT 36.953705 -76.406876 9,925 269 280 3072
2022-07-04 17:05:40 GMT 36.953934 -76.394135 9,375 269 279 3264
2022-07-04 17:05:30 GMT 36.954208 -76.378822 8,850 269 279 3456
2022-07-04 17:05:19 GMT 36.954704 -76.355103 8,000 269 279 3392
2022-07-04 17:05:06 GMT 36.954987 -76.338615 7,400 269 279 3584
2022-07-04 17:04:58 GMT 36.955124 -76.327690 7,025 269 278 3328
2022-07-04 17:04:54 GMT 36.955261 -76.321007 6,775 269 278 3264
2022-07-04 17:04:46 GMT 36.955635 -76.307755 6,325 268 276 3456
2022-07-04 17:04:44 GMT 36.955727 -76.305542 6,250 267 275 3520
2022-07-04 17:04:35 GMT 36.956543 -76.288948 5,600 267 275 3840
2022-07-04 17:04:23 GMT 36.957916 -76.264519 4,775 267 272 2560
2022-07-04 17:04:15 GMT 36.958145 -76.260429 4,650 267 268 2560
2022-07-04 17:04:07 GMT 36.958752 -76.247025 4,250 269 260 3328
2022-07-04 17:04:00 GMT 36.959126 -76.234253 3,800 269 259 3392
2022-07-04 17:03:49 GMT 36.959061 -76.219406 3,225 273 257 3264
2022-07-04 17:03:45 GMT 36.958847 -76.214249 3,050 280 253 2304
2022-07-04 17:03:38 GMT 36.957687 -76.202980 2,725 283 250 1984
2022-07-04 17:03:29 GMT 36.953201 -76.189308 2,400 306 235 1920
2022-07-04 17:02:41 GMT 36.914444 -76.181664 1,200 34 176
We lost coverage of the aircraft here for a total of 110 minutes
2022-07-04 15:13:04 GMT 36.870850 -76.222794 250 37 129 -704
2022-07-04 15:12:52 GMT 36.864765 -76.228638 425 37 131 -448
2022-07-04 15:12:50 GMT 36.863571 -76.229752 450 37 131 -448
2022-07-04 15:12:45 GMT 36.861282 -76.231972 500 37 131 -576
2022-07-04 15:12:32 GMT 36.855194 -76.237808 700 38 132 -640
2022-07-04 15:12:28 GMT 36.853592 -76.239334 700 38 132 -640
2022-07-04 15:12:27 GMT 36.853134 -76.239799 725 38 132 -640
2022-07-04 15:12:17 GMT 36.847820 -76.244942 825 38 134 -640
2022-07-04 15:12:12 GMT 36.845676 -76.247047 875 38 138 -640
2022-07-04 15:12:07 GMT 36.843246 -76.249466 925 38 138 -640
2022-07-04 15:11:53 GMT 36.836243 -76.256332 1,075 37 136 -576
2022-07-04 15:11:47 GMT 36.833527 -76.258850 1,150 36 130 -704
2022-07-04 15:11:45 GMT 36.832130 -76.260193 1,175 36 133 -704
2022-07-04 15:11:43 GMT 36.831619 -76.260681 1,175 36 133 -704
2022-07-04 15:11:42 GMT 36.830643 -76.261536 1,200 36 133 -704
2022-07-04 15:11:41 GMT 36.830154 -76.262054 1,200 36 135 -576
2022-07-04 15:11:38 GMT 36.828686 -76.263351 1,250 36 135 -576
2022-07-04 15:11:33 GMT 36.826591 -76.265335 1,300 37 147 -960
2022-07-04 15:11:32 GMT 36.825989 -76.265884 1,300 37 147 -960
2022-07-04 15:11:27 GMT 36.823238 -76.268608 1,375 37 147 -960
2022-07-04 15:11:21 GMT 36.820175 -76.271553 1,475 37 147 -960
2022-07-04 15:11:18 GMT 36.818527 -76.273102 1,525 37 149 -768
2022-07-04 15:11:16 GMT 36.817188 -76.274338 1,550 36 155 -768
2022-07-04 15:11:03 GMT 36.808903 -76.282051 1,700 37 167 -768
2022-07-04 15:11:02 GMT 36.808250 -76.282753 1,725 37 168 -768
2022-07-04 15:10:59 GMT 36.806992 -76.283974 1,750 37 171 -896
2022-07-04 15:10:58 GMT 36.806339 -76.284561 1,775 37 171 -896
2022-07-04 15:10:56 GMT 36.805115 -76.285744 1,800 37 172 -704
2022-07-04 15:10:54 GMT 36.803879 -76.286942 1,825 37 174 -704
2022-07-04 15:10:52 GMT 36.802338 -76.288422 1,850 37 176 -896
2022-07-04 15:10:44 GMT 36.797653 -76.293015 1,950 37 183 -832
2022-07-04 15:10:35 GMT 36.791538 -76.298943 2,075 38 188 -1024
2022-07-04 15:10:25 GMT 36.784599 -76.305832 2,200 38 187 -320
2022-07-04 15:10:24 GMT 36.783901 -76.306534 2,200 38 187 -320
2022-07-04 15:10:20 GMT 36.781017 -76.309341 2,225 38 186 64
2022-07-04 15:10:18 GMT 36.779667 -76.310684 2,225 38 186 64
2022-07-04 15:10:15 GMT 36.777466 -76.312866 2,200 38 185 192
2022-07-04 15:10:12 GMT 36.775337 -76.314949 2,200 38 184 192
2022-07-04 15:10:08 GMT 36.772591 -76.317642 2,200 37 182 0
2022-07-04 15:10:04 GMT 36.770416 -76.319672 2,200 37 184 -192
2022-07-04 15:09:55 GMT 36.763653 -76.326111 2,225 38 186 0
2022-07-04 15:09:45 GMT 36.756809 -76.332893 2,225 38 189 -256
2022-07-04 15:09:42 GMT 36.755402 -76.334267 2,225 37 191 -256
2022-07-04 15:09:38 GMT 36.751877 -76.337563 2,250 36 196 320
2022-07-04 15:09:33 GMT 36.748989 -76.340195 2,225 37 198 320
2022-07-04 15:09:28 GMT 36.745331 -76.343819 2,200 40 203 192
2022-07-04 15:09:18 GMT 36.737183 -76.353493 2,200 46 212 0
2022-07-04 15:09:13 GMT 36.735161 -76.356323 2,200 49 218 -192
2022-07-04 15:09:06 GMT 36.730648 -76.363106 2,225 51 222 -384
2022-07-04 15:08:51 GMT 36.720547 -76.378586 2,400 50 231 -448
2022-07-04 15:08:46 GMT 36.717224 -76.383591 2,425 50 233 -512
2022-07-04 15:08:42 GMT 36.713749 -76.388931 2,450 50 238 -256
2022-07-04 15:08:38 GMT 36.711136 -76.392921 2,500 50 240 -576
2022-07-04 15:08:32 GMT 36.706741 -76.399612 2,550 51 243 -384
2022-07-04 15:08:27 GMT 36.703766 -76.404190 2,575 50 245 -384
2022-07-04 15:08:21 GMT 36.698944 -76.411545 2,600 50 250 -320
2022-07-04 15:08:18 GMT 36.696762 -76.414833 2,625 50 253 -512
2022-07-04 15:08:15 GMT 36.694565 -76.418205 2,650 50 253 -512
2022-07-04 15:08:12 GMT 36.691406 -76.423019 2,700 51 259 -960
2022-07-04 15:08:01 GMT 36.684002 -76.434456 2,900 51 261 -1728
2022-07-04 15:07:49 GMT 36.674927 -76.448418 3,325 50 267 -2240
2022-07-04 15:07:41 GMT 36.668034 -76.459000 3,650 50 267 -2240
2022-07-04 15:07:32 GMT 36.660507 -76.470451 3,975 50 267 -2240
2022-07-04 15:07:20 GMT 36.651974 -76.483482 4,375 50 270 -2112
2022-07-04 15:07:12 GMT 36.645130 -76.493889 4,675 50 272 -1984
2022-07-04 15:07:09 GMT 36.643921 -76.495697 4,725 50 273 -1984
2022-07-04 15:07:00 GMT 36.635773 -76.508026 5,125 50 274 -2688
2022-07-04 15:06:52 GMT 36.629723 -76.517143 5,425 50 275 -2496
2022-07-04 15:06:48 GMT 36.626862 -76.521492 5,550 50 275 -2368
2022-07-04 15:06:39 GMT 36.619492 -76.532707 5,925 50 276 -2368
2022-07-04 15:06:29 GMT 36.610588 -76.546303 6,350 50 276 -2176
2022-07-04 15:06:24 GMT 36.607452 -76.551018 6,475 50 276 -2176
2022-07-04 15:06:21 GMT 36.604614 -76.555305 6,600 50 277 -2112
2022-07-04 15:06:17 GMT 36.601746 -76.559685 6,725 50 278 -1984
2022-07-04 15:06:04 GMT 36.591225 -76.575584 7,150 50 280 -1984
2022-07-04 15:05:58 GMT 36.585079 -76.584877 7,425 50 282 -2304
2022-07-04 15:05:55 GMT 36.583355 -76.587502 7,500 50 282 -2368
2022-07-04 15:05:47 GMT 36.576416 -76.598000 7,850 50 282 -2368
2022-07-04 15:05:44 GMT 36.574768 -76.600510 7,925 50 282 -2368
2022-07-04 15:05:34 GMT 36.565990 -76.613747 8,325 50 282 -2240
2022-07-04 15:05:27 GMT 36.559753 -76.623154 8,600 50 283 -2240
2022-07-04 15:05:24 GMT 36.557335 -76.626778 8,700 50 283 -2240
2022-07-04 15:05:17 GMT 36.550690 -76.636848 9,000 50 285 -2112
2022-07-04 15:05:13 GMT 36.548676 -76.639877 9,100 50 286 -2112
2022-07-04 15:05:06 GMT 36.542202 -76.649628 9,350 50 287 -2048
2022-07-04 15:05:03 GMT 36.539932 -76.652985 9,450 50 288 -2048
2022-07-04 15:04:53 GMT 36.531261 -76.666107 9,775 50 293 -1728
2022-07-04 15:04:45 GMT 36.524460 -76.676392 9,975 50 299 -1408
2022-07-04 15:04:40 GMT 36.520523 -76.682396 10,075 50 302 -1216
2022-07-04 15:04:32 GMT 36.512642 -76.694328 10,250 50 311 -1216
2022-07-04 15:04:29 GMT 36.510498 -76.697556 10,300 50 314 -1216
2022-07-04 15:04:22 GMT 36.503380 -76.708412 10,450 50 323 -1152
2022-07-04 15:04:15 GMT 36.496948 -76.718163 10,575 50 339 -1344
2022-07-04 15:04:11 GMT 36.493378 -76.723656 10,650 50 334 -1216
2022-07-04 15:04:02 GMT 36.484406 -76.737328 10,850 50 343 -1600
2022-07-04 15:03:59 GMT 36.481312 -76.742012 10,925 50 346 -1536
2022-07-04 15:03:50 GMT 36.472229 -76.755753 11,100 50 353 -1152
2022-07-04 15:03:45 GMT 36.465271 -76.766281 11,225 50 356 -1280
2022-07-04 15:03:40 GMT 36.461243 -76.772285 11,300 50 358 -1216
2022-07-04 15:03:34 GMT 36.455383 -76.781044 11,375 50 363 -512
2022-07-04 15:03:31 GMT 36.452217 -76.785843 11,400 50 366 -448
2022-07-04 15:03:28 GMT 36.448307 -76.791687 11,425 50 372 -576
2022-07-04 15:03:23 GMT 36.442394 -76.800568 11,475 50 375 -704
2022-07-04 15:03:19 GMT 36.438950 -76.805710 11,525 50 378 -896
2022-07-04 15:03:14 GMT 36.432724 -76.815033 11,625 50 382 -1152
2022-07-04 15:03:10 GMT 36.428879 -76.820808 11,700 50 385 -1280
2022-07-04 15:03:07 GMT 36.425495 -76.825813 11,775 50 388 -2048
2022-07-04 15:03:03 GMT 36.419724 -76.834488 11,925 50 388 -1984
2022-07-04 15:02:58 GMT 36.414928 -76.841591 12,275 50 389 -2176
2022-07-04 15:02:53 GMT 36.408646 -76.850967 12,275 50 391 -2240
2022-07-04 15:02:47 GMT 36.402740 -76.859779 12,450 50 392 -2240
2022-07-04 15:02:43 GMT 36.395844 -76.870110 12,675 50 392 -2240
2022-07-04 15:02:38 GMT 36.391327 -76.876831 12,850 50 397 -2176
2022-07-04 15:02:32 GMT 36.384155 -76.887527 13,050 50 394 -2176
2022-07-04 15:02:28 GMT 36.379971 -76.893776 13,300 50 396 -2176
2022-07-04 15:02:24 GMT 36.375687 -76.900124 13,300 50 397 -2176
2022-07-04 15:02:21 GMT 36.371170 -76.906868 13,450 50 397 -2176
2022-07-04 15:02:17 GMT 36.367126 -76.912933 13,650 50 404 -2176
2022-07-04 15:02:10 GMT 36.357113 -76.927849 13,875 50 401 -2240
2022-07-04 15:02:06 GMT 36.354675 -76.931480 13,950 50 402 -2176
2022-07-04 15:02:01 GMT 36.346264 -76.943977 14,200 50 404 -2176
2022-07-04 15:01:56 GMT 36.342270 -76.949905 14,325 50 404 -2176
2022-07-04 15:01:47 GMT 36.330811 -76.967003 14,700 50 407 -2240
2022-07-04 15:01:44 GMT 36.327084 -76.972549 14,800 50 408 -2240
2022-07-04 15:01:37 GMT 36.318146 -76.985779 15,075 50 411 -2240
2022-07-04 15:01:25 GMT 36.304413 -77.006210 15,525 50 413 -2304
2022-07-04 15:01:16 GMT 36.292145 -77.024345 15,900 50 417 -2176
2022-07-04 15:01:04 GMT 36.278904 -77.043961 16,325 50 420 -2432
2022-07-04 15:01:00 GMT 36.273514 -77.052040 16,500 50 421 -2624
2022-07-04 15:00:55 GMT 36.265961 -77.063248 16,800 50 420 -3072
2022-07-04 15:00:44 GMT 36.247055 -77.091125 18,625 50 421 0
2022-07-04 15:00:34 GMT 36.239521 -77.102341 18,625 50 421 -2304
2022-07-04 15:00:24 GMT 36.227554 -77.120071 18,175 50 424 -2304
2022-07-04 15:00:21 GMT 36.223831 -77.125603 18,300 50 425 -2304
2022-07-04 15:00:11 GMT 36.211761 -77.143478 18,675 50 428 -2368
2022-07-04 14:59:59 GMT 36.195900 -77.166916 19,175 50 430 -2304
2022-07-04 14:59:52 GMT 36.183846 -77.184799 19,550 50 433 -2368
2022-07-04 14:59:39 GMT 36.171646 -77.202911 20,075 50 435 -2368
2022-07-04 14:59:30 GMT 36.157928 -77.223129 20,350 50 438 -2432
2022-07-04 14:59:18 GMT 36.144470 -77.242989 20,750 50 442 -2368
2022-07-04 14:59:15 GMT 36.138840 -77.251343 20,925 50 444 -2368
2022-07-04 14:59:08 GMT 36.130096 -77.264214 21,275 50 445 -2432
2022-07-04 14:59:04 GMT 36.126072 -77.270180 21,300 50 446 -2432
2022-07-04 14:58:57 GMT 36.116760 -77.283852 21,600 50 448 -2432
2022-07-04 14:58:53 GMT 36.110897 -77.292503 21,775 50 448 -2752
2022-07-04 14:58:49 GMT 36.103588 -77.303314 22,025 50 448 -2816
2022-07-04 14:58:44 GMT 36.095261 -77.315598 22,300 50 448 -2432
2022-07-04 14:58:37 GMT 36.089436 -77.324173 22,425 50 449 -2176
2022-07-04 14:58:33 GMT 36.083988 -77.332237 22,625 50 449 -1856
2022-07-04 14:58:29 GMT 36.077053 -77.342461 22,725 50 450 -1472
2022-07-04 14:58:26 GMT 36.068069 -77.355675 22,775 50 450 -1344
2022-07-04 14:58:22 GMT 36.068069 -77.355675 22,850 50 450 -1088
2022-07-04 14:58:16 GMT 36.061924 -77.364731 22,925 50 451 -832
2022-07-04 14:58:13 GMT 36.056522 -77.372620 22,975 49 450 -448
2022-07-04 14:58:10 GMT 36.052940 -77.377876 22,975 49 450 -320
2022-07-04 14:58:06 GMT 36.047539 -77.385765 23,000 49 450 0
2022-07-04 14:58:01 GMT 36.039623 -77.397339 23,000 49 450 0
2022-07-04 14:57:56 GMT 36.025009 -77.418785 23,000 49 449 0
2022-07-04 14:57:49 GMT 36.025009 -77.418785 23,000 49 449 0
2022-07-04 14:57:45 GMT 36.019409 -77.426888 23,000 49 449 0
2022-07-04 14:57:40 GMT 36.011765 -77.438110 23,000 49 450 0
2022-07-04 14:57:37 GMT 36.008377 -77.442970 23,000 49 450 0
2022-07-04 14:57:34 GMT 36.005585 -77.447090 23,000 49 450 0
2022-07-04 14:57:31 GMT 36.000870 -77.453957 23,000 49 450 0
2022-07-04 14:57:27 GMT 35.994610 -77.463081 23,000 49 450 0
2022-07-04 14:57:24 GMT 35.990891 -77.468430 23,000 49 450 0
2022-07-04 14:57:18 GMT 35.982513 -77.480560 23,000 49 450 0
2022-07-04 14:57:14 GMT 35.976780 -77.488907 23,000 49 450 0
2022-07-04 14:57:10 GMT 35.972729 -77.494751 23,000 49 450 0
2022-07-04 14:57:07 GMT 35.968735 -77.500534 23,000 49 450 0
2022-07-04 14:57:03 GMT 35.962582 -77.509422 23,000 49 450 0
2022-07-04 14:57:00 GMT 35.957413 -77.516846 23,000 49 450 0
2022-07-04 14:56:57 GMT 35.953812 -77.521996 23,000 49 450 0
2022-07-04 14:56:53 GMT 35.948338 -77.529930 23,000 49 449 0
2022-07-04 14:56:50 GMT 35.945080 -77.534607 23,000 49 449 0
2022-07-04 14:56:46 GMT 35.940445 -77.541328 23,000 49 449 0
2022-07-04 14:56:42 GMT 35.934418 -77.549980 23,000 49 449 0
2022-07-04 14:56:36 GMT 35.925430 -77.562965 23,025 49 449 0
2022-07-04 14:56:32 GMT 35.920166 -77.570518 23,000 49 449 0
2022-07-04 14:56:29 GMT 35.915237 -77.577675 23,000 49 449 0
2022-07-04 14:56:26 GMT 35.907761 -77.588486 23,000 49 449 0
2022-07-04 14:56:23 GMT 35.903503 -77.594772 23,000 49 449 0
2022-07-04 14:56:19 GMT 35.903503 -77.594772 23,000 49 449 0
2022-07-04 14:56:15 GMT 35.897968 -77.602921 23,025 50 449 -64
2022-07-04 14:56:11 GMT 35.891785 -77.612061 23,025 50 449 0
2022-07-04 14:56:08 GMT 35.889679 -77.615204 23,025 50 449 0
2022-07-04 14:56:04 GMT 35.883163 -77.625015 23,025 51 449 0
2022-07-04 14:55:59 GMT 35.876358 -77.635513 23,025 51 450 0
2022-07-04 14:55:51 GMT 35.866360 -77.651482 23,000 53 450 0
2022-07-04 14:55:48 GMT 35.863007 -77.657036 23,000 53 450 0
2022-07-04 14:55:45 GMT 35.859608 -77.662819 23,000 56 450 -64
2022-07-04 14:55:42 GMT 35.855556 -77.670006 23,000 56 450 -64
2022-07-04 14:55:39 GMT 35.852020 -77.676674 23,000 56 450 0
2022-07-04 14:55:36 GMT 35.848114 -77.684380 23,000 59 450 0
2022-07-04 14:55:31 GMT 35.843262 -77.694572 23,000 61 451 0
2022-07-04 14:55:28 GMT 35.839645 -77.702637 23,000 61 451 0
2022-07-04 14:55:24 GMT 35.837261 -77.708229 23,000 67 449 0
2022-07-04 14:55:20 GMT 35.832466 -77.720207 23,000 64 451 -64
2022-07-04 14:55:16 GMT 35.829674 -77.727684 23,000 65 451 -64
2022-07-04 14:55:10 GMT 35.824181 -77.743759 23,000 67 450 0
2022-07-04 14:55:07 GMT 35.821655 -77.751450 23,000 67 450 0
2022-07-04 14:54:59 GMT 35.815849 -77.768883 23,000 67 449 0
2022-07-04 14:54:56 GMT 35.813847 -77.775024 23,000 67 449 64
2022-07-04 14:54:49 GMT 35.808014 -77.792587 23,000 67 448 64
2022-07-04 14:54:46 GMT 35.805981 -77.798569 23,000 67 447 64
2022-07-04 14:54:42 GMT 35.802116 -77.810379 23,000 67 447 64
2022-07-04 14:54:39 GMT 35.800186 -77.816162 23,000 67 447 64
2022-07-04 14:54:36 GMT 35.797852 -77.823196 22,975 67 446 128
2022-07-04 14:54:32 GMT 35.795197 -77.831154 22,975 67 445 128
2022-07-04 14:54:28 GMT 35.791901 -77.841049 22,975 67 446 128
2022-07-04 14:54:25 GMT 35.789474 -77.848320 22,975 67 446 128
2022-07-04 14:54:22 GMT 35.787125 -77.855492 22,975 67 447 128
2022-07-04 14:54:17 GMT 35.782890 -77.868233 23,000 67 450 -512
2022-07-04 14:54:12 GMT 35.778793 -77.880501 23,000 67 450 -448
2022-07-04 14:54:09 GMT 35.776604 -77.887161 23,050 67 450 -576
2022-07-04 14:54:04 GMT 35.772308 -77.900108 23,100 67 452 -832
2022-07-04 14:54:01 GMT 35.770615 -77.905144 23,150 67 453 -1152
2022-07-04 14:53:57 GMT 35.767109 -77.915741 23,250 67 456 -1536
2022-07-04 14:53:54 GMT 35.764919 -77.922226 23,325 67 457 -1792
2022-07-04 14:53:50 GMT 35.762451 -77.929710 23,425 67 457 -1920
2022-07-04 14:53:46 GMT 35.758263 -77.942268 23,575 67 459 -1792
2022-07-04 14:53:42 GMT 35.755737 -77.949883 23,650 67 460 -1728
2022-07-04 14:53:38 GMT 35.751652 -77.962143 23,800 67 462 -1664
2022-07-04 14:53:35 GMT 35.750164 -77.966522 23,925 67 463 -1856
2022-07-04 14:53:32 GMT 35.746445 -77.977577 24,000 67 465 -1920
2022-07-04 14:53:29 GMT 35.745071 -77.981758 24,050 67 465 -2048
2022-07-04 14:53:26 GMT 35.741959 -77.991028 24,225 67 465 -2176
2022-07-04 14:53:23 GMT 35.738060 -78.002640 24,400 67 465 -2112
2022-07-04 14:53:20 GMT 35.738060 -78.002640 24,375 67 465 -2112
2022-07-04 14:53:17 GMT 35.734726 -78.012604 24,500 67 467 -1984
2022-07-04 14:53:13 GMT 35.731728 -78.021515 24,625 67 468 -1920
2022-07-04 14:53:09 GMT 35.728703 -78.030632 24,750 67 469 -1984
2022-07-04 14:53:05 GMT 35.724281 -78.043716 24,925 67 470 -2048
2022-07-04 14:53:02 GMT 35.723118 -78.047165 25,025 67 471 -2112
2022-07-04 14:52:59 GMT 35.719997 -78.056580 25,100 67 472 -2112
2022-07-04 14:52:55 GMT 35.716599 -78.066742 25,225 67 472 -2112
2022-07-04 14:52:51 GMT 35.713303 -78.076569 25,375 67 474 -2048
2022-07-04 14:52:47 GMT 35.709057 -78.089188 25,550 67 475 -2048
2022-07-04 14:52:42 GMT 35.705379 -78.100166 25,725 67 476 -2048
2022-07-04 14:52:38 GMT 35.702820 -78.107758 25,825 67 477 -1984
2022-07-04 14:52:35 GMT 35.700680 -78.114197 25,900 67 478 -2048
2022-07-04 14:52:32 GMT 35.693974 -78.134003 26,050 67 479 -2048
2022-07-04 14:52:29 GMT 35.693974 -78.134003 26,175 67 480 -2176
2022-07-04 14:52:23 GMT 35.688900 -78.149139 26,400 67 480 -2176
2022-07-04 14:52:19 GMT 35.686714 -78.155685 26,600 67 481 -2176
2022-07-04 14:52:16 GMT 35.684151 -78.163284 26,600 67 481 -2176
2022-07-04 14:52:12 GMT 35.677689 -78.182426 26,775 67 482 -2176
2022-07-04 14:52:09 GMT 35.677689 -78.182426 26,900 67 483 -2176
2022-07-04 14:52:06 GMT 35.675495 -78.188881 26,975 67 484 -2176
2022-07-04 14:52:03 GMT 35.672791 -78.196907 27,075 67 484 -2240
2022-07-04 14:52:00 GMT 35.670822 -78.202744 27,175 67 485 -2240
2022-07-04 14:51:56 GMT 35.666519 -78.215446 27,350 67 486 -2240
2022-07-04 14:51:51 GMT 35.661713 -78.229752 27,550 67 486 -2304
2022-07-04 14:51:46 GMT 35.657318 -78.242798 27,750 67 489 -2304
2022-07-04 14:51:43 GMT 35.654617 -78.250748 27,875 67 489 -2304
2022-07-04 14:51:39 GMT 35.652592 -78.256783 27,950 67 489 -2240
2022-07-04 14:51:35 GMT 35.648712 -78.268204 28,100 67 490 -2048
2022-07-04 14:51:31 GMT 35.644676 -78.280159 28,300 67 492 -1600
2022-07-04 14:51:25 GMT 35.639648 -78.295120 28,400 67 493 -1088
2022-07-04 14:51:20 GMT 35.634712 -78.309608 28,475 67 495 -960
2022-07-04 14:51:17 GMT 35.632233 -78.317017 28,550 67 495 -1216
2022-07-04 14:51:14 GMT 35.630615 -78.321823 28,625 67 495 -1536
2022-07-04 14:51:10 GMT 35.626240 -78.334801 28,750 67 494 -1728
2022-07-04 14:51:04 GMT 35.619415 -78.354897 28,950 67 493 -1216
2022-07-04 14:51:01 GMT 35.619415 -78.354897 28,925 67 493 -1280
2022-07-04 14:50:58 GMT 35.615627 -78.366180 29,000 67 493 -1152
2022-07-04 14:50:54 GMT 35.612595 -78.375092 29,075 67 494 -1152
2022-07-04 14:50:49 GMT 35.608200 -78.388023 29,175 67 493 -1344
2022-07-04 14:50:44 GMT 35.603523 -78.401886 29,325 67 493 -1472
2022-07-04 14:50:41 GMT 35.601471 -78.407936 29,425 67 493 -1408
2022-07-04 14:50:38 GMT 35.598679 -78.416229 29,425 67 493 -1344
2022-07-04 14:50:34 GMT 35.594376 -78.428879 29,550 67 493 -1280
2022-07-04 14:50:31 GMT 35.591702 -78.436775 29,600 67 493 -1216
2022-07-04 14:50:28 GMT 35.589931 -78.441917 29,650 67 493 -1216
2022-07-04 14:50:24 GMT 35.584763 -78.457260 29,775 67 492 -1280
2022-07-04 14:50:18 GMT 35.580780 -78.468880 29,875 67 492 -1280
2022-07-04 14:50:14 GMT 35.577782 -78.477798 29,950 67 492 -1280
2022-07-04 14:50:11 GMT 35.575012 -78.485931 30,025 67 492 -1280
2022-07-04 14:50:08 GMT 35.572006 -78.494804 30,100 67 492 -1280
2022-07-04 14:50:05 GMT 35.568935 -78.503799 30,150 67 491 -1280
2022-07-04 14:50:00 GMT 35.562241 -78.523460 30,275 67 491 -1408
2022-07-04 14:49:57 GMT 35.562241 -78.523460 30,325 67 490 -1408
2022-07-04 14:49:54 GMT 35.559998 -78.530037 30,400 67 490 -1408
2022-07-04 14:49:49 GMT 35.555420 -78.543549 30,525 67 490 -1280
2022-07-04 14:49:45 GMT 35.552170 -78.552994 30,600 67 490 -1280
2022-07-04 14:49:41 GMT 35.548637 -78.563408 30,675 67 490 -1280
2022-07-04 14:49:37 GMT 35.541889 -78.583160 30,825 67 489 -1280
2022-07-04 14:49:34 GMT 35.541889 -78.583160 30,850 67 489 -1280
2022-07-04 14:49:30 GMT 35.538986 -78.591728 30,900 67 489 -1344
2022-07-04 14:49:26 GMT 35.534958 -78.603455 31,075 67 489 -1280
2022-07-04 14:49:23 GMT 35.532761 -78.609863 31,075 67 489 -1280
2022-07-04 14:49:18 GMT 35.529007 -78.620850 31,175 67 489 -1216
2022-07-04 14:49:15 GMT 35.525940 -78.629784 31,250 67 489 -1216
2022-07-04 14:49:12 GMT 35.523651 -78.636414 31,325 67 489 -1216
2022-07-04 14:49:09 GMT 35.520195 -78.646507 31,375 67 488 -1216
2022-07-04 14:49:06 GMT 35.515594 -78.659935 31,450 67 488 -1216
2022-07-04 14:49:00 GMT 35.509815 -78.676834 31,550 67 488 -1216
2022-07-04 14:48:57 GMT 35.509815 -78.676834 31,600 67 488 -1280
2022-07-04 14:48:54 GMT 35.507534 -78.683495 31,650 67 488 -1216
2022-07-04 14:48:51 GMT 35.504242 -78.693069 31,725 67 488 -1152
2022-07-04 14:48:48 GMT 35.502869 -78.697128 31,750 67 488 -1088
2022-07-04 14:48:44 GMT 35.498363 -78.710258 31,850 67 488 -1024
2022-07-04 14:48:40 GMT 35.495178 -78.719559 31,925 67 488 -1088
2022-07-04 14:48:37 GMT 35.492962 -78.726044 31,950 67 489 -1088
2022-07-04 14:48:33 GMT 35.485931 -78.746437 32,075 67 489 -1024
2022-07-04 14:48:29 GMT 35.485931 -78.746437 32,125 67 489 -1024
2022-07-04 14:48:26 GMT 35.479431 -78.765450 32,175 67 489 -960
2022-07-04 14:48:22 GMT 35.479431 -78.765450 32,225 67 489 -960
2022-07-04 14:48:17 GMT 35.474625 -78.779526 32,300 67 489 -960
2022-07-04 14:48:14 GMT 35.472839 -78.784615 32,375 67 490 -1024
2022-07-04 14:48:11 GMT 35.470245 -78.792191 32,400 67 490 -1024
2022-07-04 14:48:07 GMT 35.466846 -78.802185 32,475 67 491 -960
2022-07-04 14:48:04 GMT 35.464565 -78.808846 32,500 67 491 -960
2022-07-04 14:48:01 GMT 35.461308 -78.818314 32,550 67 491 -1088
2022-07-04 14:47:58 GMT 35.458878 -78.825356 32,650 67 491 -1152
2022-07-04 14:47:55 GMT 35.455673 -78.834732 32,675 67 491 -1152
2022-07-04 14:47:52 GMT 35.452972 -78.842522 32,800 67 491 -1152
2022-07-04 14:47:46 GMT 35.447529 -78.858284 32,875 67 491 -1216
2022-07-04 14:47:43 GMT 35.441940 -78.874573 32,975 67 491 -1216
2022-07-04 14:47:39 GMT 35.441940 -78.874573 33,000 67 490 -1216
2022-07-04 14:47:35 GMT 35.435303 -78.893738 33,100 67 490 -1216
2022-07-04 14:47:32 GMT 35.435303 -78.893738 33,150 67 490 -1216
2022-07-04 14:47:29 GMT 35.433334 -78.899345 33,200 67 490 -1216
2022-07-04 14:47:24 GMT 35.427650 -78.915848 33,350 67 490 -1216
2022-07-04 14:47:20 GMT 35.424625 -78.924553 33,400 67 489 -1216
2022-07-04 14:47:17 GMT 35.421753 -78.932816 33,450 67 489 -1152
2022-07-04 14:47:13 GMT 35.418713 -78.941620 33,550 67 489 -1088
2022-07-04 14:47:10 GMT 35.415756 -78.950157 33,575 67 489 -1088
2022-07-04 14:47:06 GMT 35.412193 -78.960495 33,650 67 489 -1088
2022-07-04 14:47:02 GMT 35.409027 -78.969559 33,725 67 489 -1088
2022-07-04 14:46:59 GMT 35.406609 -78.976624 33,775 67 489 -1088
2022-07-04 14:46:55 GMT 35.403210 -78.986557 33,850 67 489 -1152
2022-07-04 14:46:52 GMT 35.399673 -78.996780 33,925 67 489 -1216
2022-07-04 14:46:49 GMT 35.396896 -79.004807 33,975 67 489 -1216
2022-07-04 14:46:46 GMT 35.394608 -79.011436 34,025 67 489 -1216
2022-07-04 14:46:42 GMT 35.391758 -79.019691 34,125 67 489 -1216
2022-07-04 14:46:39 GMT 35.388107 -79.030266 34,200 67 488 -1280
2022-07-04 14:46:35 GMT 35.385361 -79.038162 34,975 67 486 -64
2022-07-04 14:46:32 GMT 35.381653 -79.048859 34,350 67 488 -1280
2022-07-04 14:46:28 GMT 35.379097 -79.056335 34,425 67 487 -1280
2022-07-04 14:46:25 GMT 35.376534 -79.063698 34,975 67 486 -64
2022-07-04 14:46:21 GMT 35.372543 -79.075241 34,575 67 487 -1344
2022-07-04 14:46:16 GMT 35.368996 -79.085548 34,650 67 486 -1344
2022-07-04 14:46:13 GMT 35.363220 -79.102203 34,750 67 486 -1280
2022-07-04 14:46:09 GMT 35.363220 -79.102203 34,800 67 486 -1280
2022-07-04 14:46:06 GMT 35.360569 -79.109802 34,875 67 485 -1216
2022-07-04 14:46:00 GMT 35.354645 -79.126854 34,950 66 485 -576
2022-07-04 14:45:57 GMT 35.351486 -79.135956 34,975 66 485 -320
2022-07-04 14:45:50 GMT 35.345398 -79.153404 35,000 66 487 -64
2022-07-04 14:45:47 GMT 35.343529 -79.158829 35,000 66 487 0
2022-07-04 14:45:43 GMT 35.339897 -79.169235 35,000 66 485 0
2022-07-04 14:45:39 GMT 35.336269 -79.179581 35,000 66 486 0
2022-07-04 14:45:36 GMT 35.333286 -79.188164 35,000 66 486 0
2022-07-04 14:45:30 GMT 35.327591 -79.204498 35,000 66 485 0
2022-07-04 14:45:27 GMT 35.323418 -79.216507 35,000 66 485 0
2022-07-04 14:45:19 GMT 35.318069 -79.231735 35,000 66 485 0
2022-07-04 14:45:16 GMT 35.315926 -79.237953 35,000 66 485 0
2022-07-04 14:45:13 GMT 35.312946 -79.246544 35,000 66 485 0
2022-07-04 14:45:09 GMT 35.308804 -79.258354 35,000 66 485 0
2022-07-04 14:45:06 GMT 35.306568 -79.264664 35,000 66 485 0
2022-07-04 14:45:02 GMT 35.301956 -79.277916 35,000 66 486 0
2022-07-04 14:44:58 GMT 35.300171 -79.282951 35,000 66 485 0
2022-07-04 14:44:54 GMT 35.296513 -79.293411 35,000 66 486 0
2022-07-04 14:44:48 GMT 35.287125 -79.320312 35,000 66 486 0
2022-07-04 14:44:44 GMT 35.287125 -79.320312 35,000 66 486 0
2022-07-04 14:44:36 GMT 35.280167 -79.340225 35,000 66 485 0
2022-07-04 14:44:32 GMT 35.273300 -79.359856 35,000 66 485 0
2022-07-04 14:44:28 GMT 35.273300 -79.359856 35,000 66 485 0
2022-07-04 14:44:25 GMT 35.270954 -79.366524 35,000 66 485 0
2022-07-04 14:44:22 GMT 35.268173 -79.374451 35,000 66 485 0
2022-07-04 14:44:15 GMT 35.261627 -79.393105 35,000 66 485 0
2022-07-04 14:44:12 GMT 35.259457 -79.399246 35,000 66 485 0
2022-07-04 14:44:05 GMT 35.250565 -79.424667 35,000 66 485 0
2022-07-04 14:44:02 GMT 35.250565 -79.424667 35,000 66 485 0
2022-07-04 14:43:55 GMT 35.245285 -79.439674 35,000 66 485 0
2022-07-04 14:43:51 GMT 35.241074 -79.451752 35,000 66 485 0
2022-07-04 14:43:46 GMT 35.233383 -79.473610 35,000 66 485 0
2022-07-04 14:43:43 GMT 35.233383 -79.473610 35,000 66 485 0
2022-07-04 14:43:40 GMT 35.231415 -79.479156 35,000 66 485 0
2022-07-04 14:43:34 GMT 35.225693 -79.495499 35,000 66 485 0
2022-07-04 14:43:31 GMT 35.222542 -79.504395 35,000 66 485 0
2022-07-04 14:43:23 GMT 35.216629 -79.521278 35,000 66 483 0
2022-07-04 14:43:19 GMT 35.213333 -79.530701 35,000 66 484 0
2022-07-04 14:43:15 GMT 35.208984 -79.542976 35,000 66 484 0
2022-07-04 14:43:10 GMT 35.204338 -79.556175 35,000 66 484 0
2022-07-04 14:43:03 GMT 35.195076 -79.582497 35,000 66 484 0
2022-07-04 14:42:59 GMT 35.195076 -79.582497 35,000 66 484 0
2022-07-04 14:42:52 GMT 35.187790 -79.603233 35,000 66 484 0
2022-07-04 14:42:49 GMT 35.185856 -79.608597 35,000 66 484 0
2022-07-04 14:42:41 GMT 35.179825 -79.625771 35,000 66 483 0
2022-07-04 14:42:38 GMT 35.176872 -79.634171 35,000 66 483 0
2022-07-04 14:42:34 GMT 35.172363 -79.646790 35,000 66 483 0
2022-07-04 14:42:31 GMT 35.170914 -79.650932 35,000 66 483 0
2022-07-04 14:42:27 GMT 35.164349 -79.669479 35,000 66 483 0
2022-07-04 14:42:24 GMT 35.164349 -79.669479 35,000 66 484 0
2022-07-04 14:42:21 GMT 35.161652 -79.677109 35,000 66 483 0
2022-07-04 14:42:18 GMT 35.157898 -79.687592 35,000 66 483 0
2022-07-04 14:42:14 GMT 35.152477 -79.702721 35,000 66 483 0
2022-07-04 14:42:11 GMT 35.152477 -79.702721 35,000 66 483 0
2022-07-04 14:42:08 GMT 35.147034 -79.717941 35,000 66 483 0
2022-07-04 14:42:05 GMT 35.147034 -79.717941 35,000 66 483 0
2022-07-04 14:42:02 GMT 35.143616 -79.727562 35,000 66 483 0
2022-07-04 14:41:58 GMT 35.140888 -79.735168 35,000 66 483 0
2022-07-04 14:41:55 GMT 35.137253 -79.745270 35,000 66 483 0
2022-07-04 14:41:50 GMT 35.133205 -79.756683 35,000 66 483 0
2022-07-04 14:41:46 GMT 35.130180 -79.765144 35,000 66 483 0
2022-07-04 14:41:40 GMT 35.124847 -79.779968 35,000 66 483 0
2022-07-04 14:41:36 GMT 35.120544 -79.791962 35,000 66 483 0
2022-07-04 14:41:31 GMT 35.115891 -79.805084 35,000 66 483 0
2022-07-04 14:41:25 GMT 35.111652 -79.816757 35,000 66 483 0
2022-07-04 14:41:20 GMT 35.105927 -79.832726 35,000 66 482 0
2022-07-04 14:41:17 GMT 35.104202 -79.837593 35,000 66 482 0
2022-07-04 14:41:14 GMT 35.102016 -79.843712 35,000 66 482 0
2022-07-04 14:41:10 GMT 35.095127 -79.862885 35,000 66 482 0
2022-07-04 14:41:07 GMT 35.095127 -79.862885 35,000 66 482 0
2022-07-04 14:41:04 GMT 35.092800 -79.869347 35,000 66 482 0
2022-07-04 14:41:00 GMT 35.089169 -79.879532 35,000 66 482 0
2022-07-04 14:40:57 GMT 35.086624 -79.886635 35,000 66 482 0
2022-07-04 14:40:54 GMT 35.083534 -79.895210 35,000 66 482 0
2022-07-04 14:40:47 GMT 35.077621 -79.911636 35,025 66 481 0
2022-07-04 14:40:44 GMT 35.074173 -79.921219 35,000 66 481 0
2022-07-04 14:40:39 GMT 35.069569 -79.934006 35,000 66 481 0
2022-07-04 14:40:36 GMT 35.067398 -79.940109 35,000 66 481 0
2022-07-04 14:40:32 GMT 35.062729 -79.953003 35,000 66 481 0
2022-07-04 14:40:29 GMT 35.061378 -79.956894 35,000 66 481 0
2022-07-04 14:40:26 GMT 35.058746 -79.964211 35,000 66 481 0
2022-07-04 14:40:23 GMT 35.055405 -79.973404 35,000 66 481 0
2022-07-04 14:40:16 GMT 35.049271 -79.990501 35,000 66 481 0
2022-07-04 14:40:12 GMT 35.046112 -79.999191 35,000 66 481 0
2022-07-04 14:40:08 GMT 35.041733 -80.011482 35,000 66 481 0
2022-07-04 14:40:05 GMT 35.039978 -80.016289 35,000 66 480 0
2022-07-04 14:40:02 GMT 35.036499 -80.025986 35,000 66 480 0
2022-07-04 14:39:56 GMT 35.031536 -80.039749 35,000 66 480 0
2022-07-04 14:39:53 GMT 35.026134 -80.054626 35,000 66 480 0
2022-07-04 14:39:49 GMT 35.026134 -80.054626 35,000 66 480 0
2022-07-04 14:39:46 GMT 35.023407 -80.062141 35,000 66 480 0
2022-07-04 14:39:43 GMT 35.019897 -80.071907 35,000 66 480 0
2022-07-04 14:39:38 GMT 35.015057 -80.085297 35,000 66 479 0
2022-07-04 14:39:34 GMT 35.011520 -80.094910 35,000 66 479 0
2022-07-04 14:39:31 GMT 35.008713 -80.102722 35,000 66 479 0
2022-07-04 14:39:27 GMT 35.005795 -80.110764 35,000 66 479 0
2022-07-04 14:39:24 GMT 35.002716 -80.119255 35,000 66 479 0
2022-07-04 14:39:20 GMT 34.998734 -80.130127 35,000 66 479 0
2022-07-04 14:39:16 GMT 34.995941 -80.137810 35,000 66 479 0
2022-07-04 14:39:13 GMT 34.992737 -80.146667 35,000 66 479 0
2022-07-04 14:39:09 GMT 34.988937 -80.157036 35,000 66 479 0
2022-07-04 14:39:06 GMT 34.986103 -80.164833 35,000 66 479 0
2022-07-04 14:39:02 GMT 34.983398 -80.172340 35,000 66 479 0
2022-07-04 14:38:58 GMT 34.979874 -80.181976 35,000 66 480 0
2022-07-04 14:38:54 GMT 34.976933 -80.190010 35,000 66 479 0
2022-07-04 14:38:51 GMT 34.973347 -80.199852 35,000 66 479 0
2022-07-04 14:38:48 GMT 34.967606 -80.215553 35,000 66 480 0
2022-07-04 14:38:44 GMT 34.967606 -80.215553 35,000 66 480 0
2022-07-04 14:38:41 GMT 34.964687 -80.223541 35,000 66 480 0
2022-07-04 14:38:35 GMT 34.958633 -80.240219 35,000 66 480 0
2022-07-04 14:38:31 GMT 34.954926 -80.250305 35,000 66 479 0
2022-07-04 14:38:27 GMT 34.951000 -80.261024 35,000 66 479 0
2022-07-04 14:38:24 GMT 34.949341 -80.265610 35,000 66 479 0
2022-07-04 14:38:19 GMT 34.945229 -80.276817 35,000 66 479 0
2022-07-04 14:38:14 GMT 34.940155 -80.290604 35,000 66 479 0
2022-07-04 14:38:11 GMT 34.936752 -80.299858 35,000 66 479 0
2022-07-04 14:38:04 GMT 34.930752 -80.316177 35,000 65 479 0
2022-07-04 14:38:00 GMT 34.927307 -80.325562 35,000 66 479 0
2022-07-04 14:37:56 GMT 34.923164 -80.336838 35,000 66 479 0
2022-07-04 14:37:53 GMT 34.921440 -80.341530 35,000 66 479 0
2022-07-04 14:37:48 GMT 34.915970 -80.356415 35,000 66 479 0
2022-07-04 14:37:43 GMT 34.912445 -80.365997 35,000 66 479 0
2022-07-04 14:37:40 GMT 34.908737 -80.376091 35,000 66 479 0
2022-07-04 14:37:37 GMT 34.907364 -80.379791 35,000 66 479 0
2022-07-04 14:37:32 GMT 34.902821 -80.392227 35,000 66 479 0
2022-07-04 14:37:29 GMT 34.899326 -80.401787 35,000 66 479 0
2022-07-04 14:37:23 GMT 34.893448 -80.417908 35,000 66 478 0
2022-07-04 14:37:17 GMT 34.888184 -80.432419 35,000 66 478 0
2022-07-04 14:37:13 GMT 34.884945 -80.441437 35,000 66 478 0
2022-07-04 14:37:10 GMT 34.881729 -80.450249 35,000 66 478 0
2022-07-04 14:37:07 GMT 34.880035 -80.455070 35,000 66 478 0
2022-07-04 14:37:04 GMT 34.876831 -80.463921 35,000 66 478 0
2022-07-04 14:37:01 GMT 34.875137 -80.468636 35,000 66 478 0
2022-07-04 14:36:58 GMT 34.871658 -80.478218 35,000 66 478 0
2022-07-04 14:36:55 GMT 34.869816 -80.483269 35,000 66 478 0
2022-07-04 14:36:52 GMT 34.866119 -80.493462 35,000 66 478 0
2022-07-04 14:36:48 GMT 34.862045 -80.504730 35,000 66 477 0
2022-07-04 14:36:45 GMT 34.859253 -80.512352 35,000 66 477 0
2022-07-04 14:36:41 GMT 34.856781 -80.519249 35,000 66 477 0
2022-07-04 14:36:37 GMT 34.852753 -80.530289 35,000 66 477 0
2022-07-04 14:36:34 GMT 34.850830 -80.535728 35,000 66 477 0
2022-07-04 14:36:31 GMT 34.847763 -80.544022 35,000 66 477 0
2022-07-04 14:36:25 GMT 34.842674 -80.558167 35,000 66 477 0
2022-07-04 14:36:21 GMT 34.838486 -80.569672 35,000 66 477 0
2022-07-04 14:36:14 GMT 34.833408 -80.583633 35,000 66 476 0
2022-07-04 14:36:10 GMT 34.829315 -80.594902 35,000 66 476 0
2022-07-04 14:36:04 GMT 34.819538 -80.621857 35,000 66 476 0
2022-07-04 14:36:00 GMT 34.819538 -80.621857 35,000 66 476 0
2022-07-04 14:35:56 GMT 34.816452 -80.630287 35,000 66 476 0
2022-07-04 14:35:53 GMT 34.814072 -80.636902 35,000 66 476 0
2022-07-04 14:35:50 GMT 34.810833 -80.645828 35,000 66 475 0
2022-07-04 14:35:44 GMT 34.805618 -80.660248 35,000 66 475 0
2022-07-04 14:35:39 GMT 34.801163 -80.672554 35,000 66 475 0
2022-07-04 14:35:34 GMT 34.797592 -80.682358 35,000 66 475 0
2022-07-04 14:35:31 GMT 34.791744 -80.698586 35,000 66 474 0
2022-07-04 14:35:28 GMT 34.791744 -80.698586 35,000 66 475 0
2022-07-04 14:35:25 GMT 34.788666 -80.706970 35,000 66 475 0
2022-07-04 14:35:21 GMT 34.786160 -80.713921 35,000 66 474 0
2022-07-04 14:35:18 GMT 34.782257 -80.724792 35,000 66 474 0
2022-07-04 14:35:15 GMT 34.779457 -80.732513 35,000 66 474 0
2022-07-04 14:35:12 GMT 34.777222 -80.738693 35,000 66 474 0
2022-07-04 14:35:08 GMT 34.774708 -80.745682 35,000 66 474 0
2022-07-04 14:35:02 GMT 34.769260 -80.760780 35,000 66 473 0
2022-07-04 14:34:57 GMT 34.763767 -80.775887 35,000 66 474 0
2022-07-04 14:34:54 GMT 34.761299 -80.782700 35,000 66 473 0
2022-07-04 14:34:51 GMT 34.759232 -80.788414 35,000 66 474 0
2022-07-04 14:34:47 GMT 34.756485 -80.795982 35,000 66 474 0
2022-07-04 14:34:43 GMT 34.748779 -80.817261 35,000 66 473 0
2022-07-04 14:34:39 GMT 34.748779 -80.817261 35,000 66 473 0
2022-07-04 14:34:36 GMT 34.745148 -80.827217 35,000 66 473 0
2022-07-04 14:34:32 GMT 34.741699 -80.836563 35,000 66 473 0
2022-07-04 14:34:27 GMT 34.738174 -80.846260 35,000 66 473 0
2022-07-04 14:34:20 GMT 34.730301 -80.867836 35,000 66 472 0
2022-07-04 14:34:15 GMT 34.727039 -80.876717 35,000 66 472 0
2022-07-04 14:34:10 GMT 34.723595 -80.886154 35,000 66 472 0
2022-07-04 14:34:07 GMT 34.719818 -80.896423 35,000 66 472 0
2022-07-04 14:34:02 GMT 34.713074 -80.914932 35,000 66 472 0
2022-07-04 14:33:59 GMT 34.713074 -80.914932 35,000 66 471 0
2022-07-04 14:33:56 GMT 34.710747 -80.921227 35,000 66 471 0
2022-07-04 14:33:52 GMT 34.706543 -80.932747 35,000 66 471 0
2022-07-04 14:33:49 GMT 34.705170 -80.936615 35,000 66 471 0
2022-07-04 14:33:46 GMT 34.699200 -80.952873 35,000 66 471 0
2022-07-04 14:33:43 GMT 34.699200 -80.952873 35,000 66 471 0
2022-07-04 14:33:39 GMT 34.694687 -80.965233 35,000 66 471 0
2022-07-04 14:33:36 GMT 34.692490 -80.971146 35,000 66 471 0
2022-07-04 14:33:30 GMT 34.683277 -80.996361 35,000 66 471 0
2022-07-04 14:33:26 GMT 34.683277 -80.996361 35,000 66 471 0
2022-07-04 14:33:23 GMT 34.680534 -81.003860 35,000 66 471 0
2022-07-04 14:33:20 GMT 34.678764 -81.008659 35,000 66 470 0
2022-07-04 14:33:17 GMT 34.675224 -81.018333 35,000 66 470 0
2022-07-04 14:33:14 GMT 34.673996 -81.021591 35,000 66 470 0
2022-07-04 14:33:08 GMT 34.668755 -81.035896 35,000 66 470 0
2022-07-04 14:33:05 GMT 34.665031 -81.046028 35,000 66 470 0
2022-07-04 14:33:02 GMT 34.662285 -81.053520 35,000 66 470 0
2022-07-04 14:32:59 GMT 34.659576 -81.060883 35,000 66 470 0
2022-07-04 14:32:54 GMT 34.656143 -81.070244 35,000 66 470 0
2022-07-04 14:32:49 GMT 34.646805 -81.095581 35,000 66 470 0
2022-07-04 14:32:44 GMT 34.646805 -81.095581 35,000 66 470 0
2022-07-04 14:32:39 GMT 34.641953 -81.108810 35,000 66 470 0
2022-07-04 14:32:33 GMT 34.637054 -81.122040 35,000 65 470 0
2022-07-04 14:32:27 GMT 34.632397 -81.134720 35,000 65 470 0
2022-07-04 14:32:23 GMT 34.628487 -81.145309 35,000 65 470 0
2022-07-04 14:32:19 GMT 34.624531 -81.156120 35,000 65 470 0
2022-07-04 14:32:16 GMT 34.622623 -81.161217 35,000 65 470 0
2022-07-04 14:32:12 GMT 34.619202 -81.170464 35,000 65 470 0
2022-07-04 14:32:09 GMT 34.615768 -81.179825 35,000 65 470 0
2022-07-04 14:32:06 GMT 34.612846 -81.187653 35,000 65 470 0
2022-07-04 14:32:02 GMT 34.610287 -81.194633 35,000 65 470 0
2022-07-04 14:31:57 GMT 34.604794 -81.209564 35,000 65 470 0
2022-07-04 14:31:54 GMT 34.602047 -81.217003 35,000 65 470 0
2022-07-04 14:31:51 GMT 34.599812 -81.223007 35,000 65 470 0
2022-07-04 14:31:48 GMT 34.597000 -81.230614 35,000 65 470 0
2022-07-04 14:31:45 GMT 34.595123 -81.235657 35,000 65 470 0
2022-07-04 14:31:42 GMT 34.591805 -81.244637 35,000 65 470 0
2022-07-04 14:31:35 GMT 34.585373 -81.262115 35,000 65 470 0
2022-07-04 14:31:30 GMT 34.581299 -81.273155 35,000 65 470 64
2022-07-04 14:31:26 GMT 34.576950 -81.284927 35,000 65 470 0
2022-07-04 14:31:22 GMT 34.573322 -81.294647 35,000 65 470 0
2022-07-04 14:31:14 GMT 34.567551 -81.310272 35,000 65 470 0
2022-07-04 14:31:10 GMT 34.563545 -81.321091 35,000 65 470 0
2022-07-04 14:31:05 GMT 34.558273 -81.335373 35,000 65 470 0
2022-07-04 14:31:01 GMT 34.555305 -81.343407 35,000 65 470 0
2022-07-04 14:30:57 GMT 34.551086 -81.354828 35,000 65 470 0
2022-07-04 14:30:53 GMT 34.548294 -81.362282 35,000 65 470 0
2022-07-04 14:30:49 GMT 34.545254 -81.370583 35,025 65 470 0
2022-07-04 14:30:46 GMT 34.541248 -81.381393 35,000 65 470 0
2022-07-04 14:30:43 GMT 34.539322 -81.386551 35,000 65 470 0
2022-07-04 14:30:39 GMT 34.536175 -81.395073 35,000 65 470 0
2022-07-04 14:30:35 GMT 34.532776 -81.404175 35,000 65 470 0
2022-07-04 14:30:32 GMT 34.530216 -81.411156 35,000 65 470 0
2022-07-04 14:30:29 GMT 34.526962 -81.419899 35,000 65 470 0
2022-07-04 14:30:25 GMT 34.522999 -81.430611 35,000 65 470 0
2022-07-04 14:30:20 GMT 34.518311 -81.443161 35,000 65 470 0
2022-07-04 14:30:11 GMT 34.511314 -81.462021 35,000 65 470 0
2022-07-04 14:30:07 GMT 34.507645 -81.471977 35,000 65 470 0
2022-07-04 14:30:04 GMT 34.501633 -81.488174 35,000 65 470 0
2022-07-04 14:30:01 GMT 34.501633 -81.488174 35,000 65 470 0
2022-07-04 14:29:58 GMT 34.495331 -81.505043 35,000 65 470 0
2022-07-04 14:29:54 GMT 34.495331 -81.505043 35,000 65 470 -64
2022-07-04 14:29:51 GMT 34.487823 -81.525169 35,000 65 469 0
2022-07-04 14:29:46 GMT 34.487823 -81.525169 35,000 65 469 0
2022-07-04 14:29:42 GMT 34.484222 -81.534866 35,000 65 469 0
2022-07-04 14:29:39 GMT 34.481895 -81.541100 35,000 65 469 0
2022-07-04 14:29:35 GMT 34.479034 -81.548882 35,000 65 469 0
2022-07-04 14:29:30 GMT 34.473495 -81.563675 35,000 65 469 0
2022-07-04 14:29:27 GMT 34.471607 -81.568848 35,000 65 469 0
2022-07-04 14:29:21 GMT 34.466217 -81.583298 35,000 65 468 0
2022-07-04 14:29:18 GMT 34.462715 -81.592712 35,000 65 468 0
2022-07-04 14:29:10 GMT 34.456013 -81.610619 35,000 65 468 0
2022-07-04 14:29:07 GMT 34.453766 -81.616699 35,000 65 468 0
2022-07-04 14:28:59 GMT 34.445847 -81.637947 35,000 65 468 0
2022-07-04 14:28:56 GMT 34.444000 -81.642899 35,000 65 469 0
2022-07-04 14:28:50 GMT 34.438183 -81.658401 35,000 65 469 0
2022-07-04 14:28:46 GMT 34.433990 -81.669617 35,000 65 469 0
2022-07-04 14:28:39 GMT 34.426392 -81.689850 35,000 65 470 0
2022-07-04 14:28:36 GMT 34.426392 -81.689850 35,000 65 470 0
2022-07-04 14:28:29 GMT 34.420074 -81.706757 35,000 65 471 64
2022-07-04 14:28:26 GMT 34.417095 -81.714706 35,000 65 473 64
2022-07-04 14:28:20 GMT 34.411926 -81.728531 35,000 65 473 64
2022-07-04 14:28:17 GMT 34.409225 -81.735756 34,975 65 473 64
2022-07-04 14:28:14 GMT 34.405518 -81.745621 34,975 65 473 64
2022-07-04 14:28:11 GMT 34.403687 -81.750526 34,975 65 473 128
2022-07-04 14:28:06 GMT 34.398834 -81.763504 34,950 65 475 128
2022-07-04 14:28:00 GMT 34.393677 -81.777138 34,950 65 476 128
2022-07-04 14:27:57 GMT 34.391006 -81.784302 34,950 65 477 -64
2022-07-04 14:27:54 GMT 34.388351 -81.791367 34,975 65 478 -640
2022-07-04 14:27:51 GMT 34.384693 -81.801170 35,000 65 477 -320
2022-07-04 14:27:48 GMT 34.381947 -81.808495 35,025 65 478 -576
2022-07-04 14:27:45 GMT 34.379700 -81.814461 35,100 65 478 -832
2022-07-04 14:27:40 GMT 34.375381 -81.825996 35,125 65 478 -1152
2022-07-04 14:27:37 GMT 34.372169 -81.834526 35,225 65 477 -1472
2022-07-04 14:27:33 GMT 34.369286 -81.842308 35,775 65 475 -1792
2022-07-04 14:27:30 GMT 34.365509 -81.852348 35,450 65 473 -1984
2022-07-04 14:27:27 GMT 34.363094 -81.858727 35,575 65 472 -2304
2022-07-04 14:27:24 GMT 34.360703 -81.865074 35,650 65 466 -2624
2022-07-04 14:27:16 GMT 34.353287 -81.884804 36,025 65 462 -2880
2022-07-04 14:27:12 GMT 34.350712 -81.891747 36,250 65 461 -3008
2022-07-04 14:27:09 GMT 34.347198 -81.901001 36,350 65 459 -3392
2022-07-04 14:27:05 GMT 34.344131 -81.909126 36,825 65 456 -3200
2022-07-04 14:27:02 GMT 34.341064 -81.917313 36,825 65 456 -3200
2022-07-04 14:26:55 GMT 34.334835 -81.933861 37,100 65 454 -3392
2022-07-04 14:26:52 GMT 34.333160 -81.938271 37,225 65 454 -3392
2022-07-04 14:26:45 GMT 34.325993 -81.957375 37,700 65 452 -3008
2022-07-04 14:26:42 GMT 34.321884 -81.968262 37,875 65 450 -3008
2022-07-04 14:26:34 GMT 34.314560 -81.987717 38,300 65 449 -2560
2022-07-04 14:26:31 GMT 34.314560 -81.987717 38,625 65 450 -64
2022-07-04 14:26:26 GMT 34.311001 -81.997147 38,425 65 447 -2240
2022-07-04 14:26:22 GMT 34.305862 -82.010696 38,625 65 450 -64
2022-07-04 14:26:13 GMT 34.299042 -82.028854 38,850 65 447 -1152
2022-07-04 14:26:09 GMT 34.295918 -82.037148 38,900 65 447 -1024
2022-07-04 14:26:05 GMT 34.289822 -82.053337 38,975 65 449 -256
2022-07-04 14:26:02 GMT 34.289822 -82.053337 38,975 65 449 -192
2022-07-04 14:25:59 GMT 34.283981 -82.068710 39,000 65 450 -64
2022-07-04 14:25:56 GMT 34.283981 -82.068710 39,000 65 449 -64
2022-07-04 14:25:50 GMT 34.279037 -82.081718 39,000 65 450 0
2022-07-04 14:25:43 GMT 34.273132 -82.097244 39,000 65 450 -64
2022-07-04 14:25:40 GMT 34.270844 -82.103188 39,000 65 450 -64
2022-07-04 14:25:33 GMT 34.263565 -82.121658 39,000 63 449 -64
2022-07-04 14:25:29 GMT 34.260723 -82.128639 39,025 63 450 -64
2022-07-04 14:25:26 GMT 34.257889 -82.135529 39,000 63 450 -128
2022-07-04 14:25:21 GMT 34.252350 -82.148422 39,025 62 450 -64
2022-07-04 14:25:18 GMT 34.249741 -82.154419 39,025 62 449 64
2022-07-04 14:25:14 GMT 34.245300 -82.164391 39,000 61 448 384
2022-07-04 14:25:08 GMT 34.239449 -82.177162 38,950 60 447 832
2022-07-04 14:25:02 GMT 34.234909 -82.186813 38,875 59 447 896
2022-07-04 14:24:59 GMT 34.230652 -82.195587 38,825 59 448 960
2022-07-04 14:24:53 GMT 34.223854 -82.209320 38,725 58 448 896
2022-07-04 14:24:47 GMT 34.218410 -82.220192 38,650 58 448 896
2022-07-04 14:24:42 GMT 34.213120 -82.230820 38,525 59 448 960
2022-07-04 14:24:39 GMT 34.206863 -82.243362 38,475 58 448 1024
2022-07-04 14:24:31 GMT 34.201859 -82.253296 38,300 58 450 960
2022-07-04 14:24:28 GMT 34.197464 -82.262093 38,300 58 449 960
2022-07-04 14:24:21 GMT 34.190460 -82.275993 38,225 58 449 960
2022-07-04 14:24:16 GMT 34.185516 -82.285858 38,100 58 450 1152
2022-07-04 14:24:11 GMT 34.179630 -82.297554 38,025 58 450 1088
2022-07-04 14:24:06 GMT 34.174789 -82.307220 37,950 58 450 1088
2022-07-04 14:24:01 GMT 34.168259 -82.320274 37,650 58 453 1600
2022-07-04 14:23:57 GMT 34.163177 -82.330368 37,700 58 451 1536
2022-07-04 14:23:54 GMT 34.161613 -82.333488 37,675 58 452 1600
2022-07-04 14:23:49 GMT 34.155807 -82.345055 37,550 58 453 1472
2022-07-04 14:23:45 GMT 34.150726 -82.355194 37,450 58 453 1408
2022-07-04 14:23:40 GMT 34.145508 -82.365623 37,300 58 455 1408
2022-07-04 14:23:36 GMT 34.141739 -82.373138 37,225 58 455 1408
2022-07-04 14:23:33 GMT 34.138897 -82.378754 37,225 58 455 1408
2022-07-04 14:23:29 GMT 34.133965 -82.388535 37,075 58 456 1152
2022-07-04 14:23:25 GMT 34.122208 -82.411980 36,825 58 457 1216
2022-07-04 14:23:19 GMT 34.122208 -82.411980 36,875 58 457 1216
2022-07-04 14:23:14 GMT 34.118179 -82.419991 36,750 58 457 1344
2022-07-04 14:23:08 GMT 34.111198 -82.433853 36,625 58 458 1344
2022-07-04 14:23:05 GMT 34.106682 -82.442780 36,525 58 458 1344
2022-07-04 14:23:02 GMT 34.104355 -82.447456 36,525 58 458 1344
2022-07-04 14:22:58 GMT 34.099823 -82.456429 36,425 58 458 1344
2022-07-04 14:22:54 GMT 34.094486 -82.467041 36,325 58 458 1344
2022-07-04 14:22:49 GMT 34.089523 -82.476944 36,225 58 459 1408
2022-07-04 14:22:45 GMT 34.085037 -82.485809 36,100 58 459 1280
2022-07-04 14:22:42 GMT 34.082245 -82.491402 36,075 58 459 1280
2022-07-04 14:22:37 GMT 34.075680 -82.504410 35,950 58 459 1216
2022-07-04 14:22:34 GMT 34.072998 -82.509789 35,750 58 458 1216
2022-07-04 14:22:26 GMT 34.064785 -82.526031 35,750 58 459 1216
2022-07-04 14:22:22 GMT 34.060318 -82.535019 35,675 58 458 1216
2022-07-04 14:22:17 GMT 34.055099 -82.545441 35,550 58 458 1216
2022-07-04 14:22:14 GMT 34.048634 -82.558189 35,250 58 458 1280
2022-07-04 14:22:11 GMT 34.048634 -82.558189 35,450 58 458 1280
2022-07-04 14:22:07 GMT 34.044163 -82.567177 35,375 58 460 1408
2022-07-04 14:22:04 GMT 34.040909 -82.573631 35,250 58 459 1280
2022-07-04 14:22:00 GMT 34.036148 -82.583054 35,200 58 459 1280
2022-07-04 14:21:55 GMT 34.029964 -82.595390 35,075 58 460 1408
2022-07-04 14:21:51 GMT 34.026661 -82.601967 35,000 58 460 1408
2022-07-04 14:21:47 GMT 34.020859 -82.613434 34,875 58 460 1408
2022-07-04 14:21:44 GMT 34.018700 -82.617699 34,850 58 460 1408
2022-07-04 14:21:41 GMT 34.014977 -82.625198 34,750 58 460 1472
2022-07-04 14:21:34 GMT 34.007629 -82.639725 34,600 58 460 1472
2022-07-04 14:21:30 GMT 34.003418 -82.648071 34,500 58 461 1408
2022-07-04 14:21:24 GMT 33.995468 -82.663712 34,325 58 461 1408
2022-07-04 14:21:19 GMT 33.990692 -82.673019 34,275 58 461 1536
2022-07-04 14:21:13 GMT 33.984623 -82.684937 34,100 58 462 1536
2022-07-04 14:21:09 GMT 33.980072 -82.693810 34,000 58 462 1536
2022-07-04 14:21:04 GMT 33.974846 -82.703995 33,825 58 462 1408
2022-07-04 14:21:01 GMT 33.970551 -82.712418 33,775 58 462 1408
2022-07-04 14:20:58 GMT 33.968239 -82.716927 33,725 58 462 1472
2022-07-04 14:20:55 GMT 33.963627 -82.725906 33,625 58 462 1472
2022-07-04 14:20:52 GMT 33.961163 -82.730713 33,550 58 462 1344
2022-07-04 14:20:49 GMT 33.956646 -82.739471 33,500 58 462 1344
2022-07-04 14:20:46 GMT 33.953293 -82.746048 33,425 58 462 1472
2022-07-04 14:20:43 GMT 33.951153 -82.750221 33,375 58 462 1408
2022-07-04 14:20:40 GMT 33.946499 -82.759209 33,275 58 463 1472
2022-07-04 14:20:35 GMT 33.942120 -82.767738 33,050 58 464 1536
2022-07-04 14:20:32 GMT 33.937408 -82.776878 33,075 58 464 1600
2022-07-04 14:20:28 GMT 33.932949 -82.785530 32,950 58 464 1536
2022-07-04 14:20:25 GMT 33.930248 -82.790794 32,900 58 464 1600
2022-07-04 14:20:21 GMT 33.921173 -82.808357 32,725 58 465 1600
2022-07-04 14:20:17 GMT 33.921173 -82.808357 32,675 58 465 1664
2022-07-04 14:20:14 GMT 33.917130 -82.816177 32,575 58 466 1792
2022-07-04 14:20:11 GMT 33.913212 -82.823753 32,475 58 466 1792
2022-07-04 14:20:07 GMT 33.909164 -82.831589 32,350 58 467 1856
2022-07-04 14:20:04 GMT 33.905579 -82.838516 32,275 58 467 1920
2022-07-04 14:19:58 GMT 33.899094 -82.850983 32,075 58 471 1856
2022-07-04 14:19:53 GMT 33.889053 -82.870384 31,925 58 470 1920
2022-07-04 14:19:50 GMT 33.889053 -82.870384 31,800 58 471 1920
2022-07-04 14:19:46 GMT 33.884861 -82.878342 31,700 57 471 1856
2022-07-04 14:19:43 GMT 33.881416 -82.885033 31,550 58 472 1920
2022-07-04 14:19:40 GMT 33.879501 -82.888710 31,550 58 472 1920
2022-07-04 14:19:37 GMT 33.875336 -82.896721 31,425 58 473 1920
2022-07-04 14:19:32 GMT 33.869751 -82.907425 31,200 57 475 1856
2022-07-04 14:19:28 GMT 33.864258 -82.917908 31,125 57 475 1728
2022-07-04 14:19:25 GMT 33.860733 -82.924637 31,050 57 476 1664
2022-07-04 14:19:21 GMT 33.857491 -82.930817 30,800 57 478 1408
2022-07-04 14:19:17 GMT 33.850834 -82.943573 30,825 57 477 1600
2022-07-04 14:19:13 GMT 33.847916 -82.949074 30,775 57 478 1664
2022-07-04 14:19:10 GMT 33.842422 -82.959671 30,650 57 478 1600
2022-07-04 14:19:04 GMT 33.835842 -82.972122 30,500 57 478 1472
2022-07-04 14:18:59 GMT 33.831608 -82.980247 30,350 57 478 1408
2022-07-04 14:18:55 GMT 33.826065 -82.990784 30,300 57 478 1408
2022-07-04 14:18:53 GMT 33.823563 -82.995651 30,250 57 478 1472
2022-07-04 14:18:49 GMT 33.819305 -83.003784 30,200 57 478 1472
2022-07-04 14:18:46 GMT 33.814407 -83.013199 29,875 58 479 1536
2022-07-04 14:18:43 GMT 33.811401 -83.018990 30,000 58 479 1536
2022-07-04 14:18:40 GMT 33.808376 -83.024826 29,225 77 479 896
2022-07-04 14:18:35 GMT 33.802002 -83.037193 29,775 58 479 1600
2022-07-04 14:18:32 GMT 33.799072 -83.042854 29,700 58 479 1600
2022-07-04 14:18:28 GMT 33.795273 -83.050362 29,625 58 480 1600
2022-07-04 14:18:24 GMT 33.789871 -83.061066 29,500 59 480 1600
2022-07-04 14:18:22 GMT 33.786987 -83.066788 29,425 59 480 1600
2022-07-04 14:18:19 GMT 33.784149 -83.072502 29,350 59 480 1664
2022-07-04 14:18:14 GMT 33.778584 -83.083878 29,175 60 481 1664
2022-07-04 14:18:11 GMT 33.775452 -83.090492 28,300 66 483 1600
2022-07-04 14:18:07 GMT 33.771461 -83.099045 29,025 77 479 896
2022-07-04 14:18:04 GMT 33.767578 -83.107590 28,950 62 482 1536
2022-07-04 14:18:01 GMT 33.764244 -83.115295 28,875 63 482 1536
2022-07-04 14:17:58 GMT 33.757122 -83.132912 28,725 77 479 896
2022-07-04 14:17:54 GMT 33.757122 -83.132912 28,675 65 483 1600
2022-07-04 14:17:48 GMT 33.753071 -83.144241 28,475 69 483 1344
2022-07-04 14:17:45 GMT 33.749954 -83.153557 28,475 69 483 1344
2022-07-04 14:17:42 GMT 33.748047 -83.159698 28,425 70 483 1152
2022-07-04 14:17:40 GMT 33.745670 -83.167824 28,375 71 483 1088
2022-07-04 14:17:37 GMT 33.743958 -83.174072 28,250 73 483 1152
2022-07-04 14:17:32 GMT 33.740921 -83.185959 28,225 74 482 1152
2022-07-04 14:17:28 GMT 33.738007 -83.199013 28,125 76 481 1216
2022-07-04 14:17:22 GMT 33.735291 -83.212914 28,025 77 481 1088
2022-07-04 14:17:17 GMT 33.733063 -83.225021 27,875 77 478 1216
2022-07-04 14:17:12 GMT 33.730316 -83.240105 27,875 77 479 960
2022-07-04 14:17:07 GMT 33.726490 -83.260979 27,325 77 478 1216
2022-07-04 14:17:00 GMT 33.725140 -83.268188 27,650 77 477 1472
2022-07-04 14:16:57 GMT 33.722992 -83.279953 27,525 77 477 1344
2022-07-04 14:16:51 GMT 33.720627 -83.293015 27,425 77 477 1216
2022-07-04 14:16:47 GMT 33.717319 -83.311043 27,325 77 476 832
2022-07-04 14:16:40 GMT 33.715668 -83.319923 27,275 77 473 704
2022-07-04 14:16:35 GMT 33.713409 -83.332329 27,175 77 472 1088
2022-07-04 14:16:32 GMT 33.711273 -83.343964 27,100 77 471 1344
2022-07-04 14:16:29 GMT 33.710632 -83.347557 26,950 77 470 1344
2022-07-04 14:16:24 GMT 33.707825 -83.362999 26,950 77 470 1344
2022-07-04 14:16:20 GMT 33.706009 -83.372894 26,850 77 469 1280
2022-07-04 14:16:14 GMT 33.703583 -83.386063 26,750 77 469 1280
2022-07-04 14:16:08 GMT 33.701019 -83.400017 26,625 77 468 1280
2022-07-04 14:16:04 GMT 33.696213 -83.426361 26,375 77 466 1280
2022-07-04 14:15:59 GMT 33.696213 -83.426361 26,400 77 467 1280
2022-07-04 14:15:53 GMT 33.693924 -83.438972 26,275 77 466 1344
2022-07-04 14:15:48 GMT 33.691498 -83.452148 26,175 77 465 1408
2022-07-04 14:15:44 GMT 33.689438 -83.463470 25,850 77 465 1472
2022-07-04 14:15:40 GMT 33.687103 -83.476082 25,925 77 465 1536
2022-07-04 14:15:37 GMT 33.686417 -83.479836 25,900 77 464 1600
2022-07-04 14:15:34 GMT 33.684586 -83.489647 25,800 77 465 1536
2022-07-04 14:15:28 GMT 33.681976 -83.503777 25,650 77 464 1472
2022-07-04 14:15:21 GMT 33.677444 -83.527878 25,400 77 463 1600
2022-07-04 14:15:17 GMT 33.676773 -83.531509 25,400 77 463 1600
2022-07-04 14:15:12 GMT 33.674332 -83.544128 25,225 76 463 1536
2022-07-04 14:15:08 GMT 33.672119 -83.555489 25,100 76 463 1536
2022-07-04 14:15:03 GMT 33.667835 -83.576714 24,900 76 462 1536
2022-07-04 14:14:56 GMT 33.666824 -83.581520 24,850 75 462 1536
2022-07-04 14:14:51 GMT 33.663757 -83.595642 24,700 75 461 1536
2022-07-04 14:14:47 GMT 33.661514 -83.605507 24,625 74 461 1536
2022-07-04 14:14:40 GMT 33.657532 -83.621933 24,425 72 460 1536
2022-07-04 14:14:36 GMT 33.655060 -83.631180 24,325 71 459 1472
2022-07-04 14:14:31 GMT 33.650799 -83.645950 24,200 70 458 1408
2022-07-04 14:14:27 GMT 33.648010 -83.655174 24,075 65 456 1472
2022-07-04 14:14:21 GMT 33.643490 -83.668961 23,950 67 457 1472
2022-07-04 14:14:17 GMT 33.639717 -83.679710 23,850 66 457 1408
2022-07-04 14:14:10 GMT 33.630249 -83.704948 23,600 65 454 1600
2022-07-04 14:14:06 GMT 33.630249 -83.704948 23,575 65 454 1728
2022-07-04 14:13:59 GMT 33.624634 -83.719711 23,375 65 454 1984
2022-07-04 14:13:56 GMT 33.622120 -83.726349 23,275 65 454 1984
2022-07-04 14:13:48 GMT 33.612534 -83.751694 23,000 65 452 960
2022-07-04 14:13:44 GMT 33.610657 -83.756737 22,975 66 451 1088
2022-07-04 14:13:38 GMT 33.605968 -83.769440 22,850 67 447 1728
2022-07-04 14:13:35 GMT 33.601685 -83.781181 22,725 66 448 1600
2022-07-04 14:13:32 GMT 33.601685 -83.781181 22,625 66 449 1600
2022-07-04 14:13:28 GMT 33.598938 -83.788742 22,650 66 448 1600
2022-07-04 14:13:25 GMT 33.595734 -83.797882 22,525 67 447 1664
2022-07-04 14:13:20 GMT 33.590195 -83.813911 22,325 68 446 1728
2022-07-04 14:13:17 GMT 33.590195 -83.813911 22,325 72 441 1600
2022-07-04 14:13:14 GMT 33.587395 -83.822533 22,225 69 446 1664
2022-07-04 14:13:12 GMT 33.585526 -83.828430 22,175 69 446 1536
2022-07-04 14:13:07 GMT 33.580399 -83.845360 22,000 70 443 1408
2022-07-04 14:13:02 GMT 33.577988 -83.853783 21,900 71 442 1472
2022-07-04 14:12:59 GMT 33.577011 -83.857269 21,775 71 442 1536
2022-07-04 14:12:53 GMT 33.573715 -83.869461 21,750 72 440 1664
2022-07-04 14:12:50 GMT 33.571518 -83.877983 21,625 73 439 1728
2022-07-04 14:12:47 GMT 33.570030 -83.883820 21,475 73 436 1600
2022-07-04 14:12:44 GMT 33.567627 -83.893448 21,425 73 438 1664
2022-07-04 14:12:41 GMT 33.565521 -83.901855 21,350 73 437 1600
2022-07-04 14:12:37 GMT 33.563782 -83.908813 21,250 73 436 1600
2022-07-04 14:12:34 GMT 33.561996 -83.915985 21,175 73 435 1600
2022-07-04 14:12:29 GMT 33.558578 -83.929482 21,000 73 434 1728
2022-07-04 14:12:26 GMT 33.557693 -83.933144 20,525 73 433 1856
2022-07-04 14:12:23 GMT 33.555321 -83.942589 20,825 73 433 1984
2022-07-04 14:12:18 GMT 33.552841 -83.952309 20,675 73 433 2048
2022-07-04 14:12:13 GMT 33.548630 -83.969063 20,500 73 432 2048
2022-07-04 14:12:10 GMT 33.547394 -83.974113 20,350 73 432 1984
2022-07-04 14:12:05 GMT 33.544876 -83.984146 20,100 73 431 2048
2022-07-04 14:12:01 GMT 33.541119 -83.999123 19,975 73 430 2112
2022-07-04 14:11:56 GMT 33.540188 -84.002785 19,925 73 430 2048
2022-07-04 14:11:52 GMT 33.537441 -84.013687 19,825 73 430 1984
2022-07-04 14:11:49 GMT 33.534027 -84.027229 19,550 73 428 1792
2022-07-04 14:11:45 GMT 33.534027 -84.027229 19,575 73 429 1792
2022-07-04 14:11:41 GMT 33.531601 -84.036789 19,450 73 427 1664
2022-07-04 14:11:35 GMT 33.528351 -84.049637 19,300 73 425 1600
2022-07-04 14:11:32 GMT 33.526428 -84.057327 19,225 73 424 1664
2022-07-04 14:11:30 GMT 33.525620 -84.060547 19,175 73 424 1792
2022-07-04 14:11:26 GMT 33.520779 -84.079605 18,975 73 422 2048
2022-07-04 14:11:22 GMT 33.520779 -84.079605 18,900 73 422 2112
2022-07-04 14:11:16 GMT 33.517410 -84.092873 18,600 73 420 2048
2022-07-04 14:11:12 GMT 33.515099 -84.101913 18,550 73 420 2048
2022-07-04 14:11:10 GMT 33.513935 -84.106567 18,475 73 419 2112
2022-07-04 14:11:04 GMT 33.510727 -84.119072 18,275 73 418 1984
2022-07-04 14:11:01 GMT 33.509171 -84.125282 18,200 73 416 1856
2022-07-04 14:10:57 GMT 33.504547 -84.143356 18,000 73 415 1792
2022-07-04 14:10:53 GMT 33.504547 -84.143356 17,850 73 414 1856
2022-07-04 14:10:50 GMT 33.503174 -84.148849 17,825 73 412 2112
2022-07-04 14:10:44 GMT 33.499054 -84.164993 17,600 73 411 2304
2022-07-04 14:10:38 GMT 33.496353 -84.175652 17,350 73 405 2368
2022-07-04 14:10:35 GMT 33.494007 -84.184921 17,250 73 410 2176
2022-07-04 14:10:32 GMT 33.492565 -84.190590 17,150 73 409 2112
2022-07-04 14:10:29 GMT 33.491501 -84.194771 17,075 73 409 2048
2022-07-04 14:10:23 GMT 33.488342 -84.207130 16,900 73 407 2112
2022-07-04 14:10:19 GMT 33.485138 -84.219818 16,675 73 406 2240
2022-07-04 14:10:12 GMT 33.482372 -84.230888 16,375 73 404 2496
2022-07-04 14:10:09 GMT 33.477219 -84.251404 16,325 73 403 2688
2022-07-04 14:10:03 GMT 33.477219 -84.251404 16,050 73 404 2688
2022-07-04 14:09:59 GMT 33.474735 -84.261383 15,850 73 404 2688
2022-07-04 14:09:52 GMT 33.471359 -84.275192 15,575 73 403 2560
2022-07-04 14:09:48 GMT 33.469475 -84.282791 15,425 73 403 2432
2022-07-04 14:09:42 GMT 33.466461 -84.295296 15,200 74 401 2432
2022-07-04 14:09:37 GMT 33.463852 -84.306831 14,975 76 400 2624
2022-07-04 14:09:32 GMT 33.461750 -84.318222 14,750 78 399 2496
2022-07-04 14:09:28 GMT 33.460281 -84.327652 14,575 80 399 2304
2022-07-04 14:09:20 GMT 33.458164 -84.345795 14,050 86 394 2304
2022-07-04 14:09:16 GMT 33.457672 -84.352257 14,125 85 395 2368
2022-07-04 14:09:12 GMT 33.457092 -84.362778 13,950 87 393 2304
2022-07-04 14:09:09 GMT 33.456860 -84.387894 13,350 87 376 1600
2022-07-04 14:09:03 GMT 33.456860 -84.387894 13,775 89 392 2368
2022-07-04 14:08:59 GMT 33.456848 -84.390381 13,425 90 388 2496
2022-07-04 14:08:56 GMT 33.456905 -84.396919 13,300 90 388 2496
2022-07-04 14:08:49 GMT 33.456940 -84.413727 12,975 89 385 2432
2022-07-04 14:08:46 GMT 33.456955 -84.417267 12,925 89 384 2368
2022-07-04 14:08:39 GMT 33.456802 -84.432846 12,650 88 381 1984
2022-07-04 14:08:36 GMT 33.456673 -84.439011 12,550 88 380 1728
2022-07-04 14:08:30 GMT 33.456161 -84.454430 12,350 86 372 1600
2022-07-04 14:08:26 GMT 33.455795 -84.461296 12,250 85 370 1856
2022-07-04 14:08:18 GMT 33.454376 -84.477943 11,925 82 365 2880
2022-07-04 14:08:15 GMT 33.453644 -84.484314 11,750 81 364 3200
2022-07-04 14:08:10 GMT 33.452499 -84.493706 11,425 81 365 3328
2022-07-04 14:08:07 GMT 33.451950 -84.497719 11,400 81 365 3264
2022-07-04 14:08:04 GMT 33.451172 -84.504089 11,250 82 364 2752
2022-07-04 14:07:58 GMT 33.450481 -84.514404 11,050 91 359 1280
2022-07-04 14:07:55 GMT 33.450855 -84.526283 10,975 97 354 960
2022-07-04 14:07:48 GMT 33.452545 -84.536720 10,900 105 347 896
2022-07-04 14:07:45 GMT 33.453690 -84.541275 10,850 110 343 960
2022-07-04 14:07:38 GMT 33.458359 -84.553200 10,725 127 329 704
2022-07-04 14:07:34 GMT 33.461842 -84.559303 10,675 132 324 576
2022-07-04 14:07:26 GMT 33.473015 -84.572189 10,575 143 313 512
2022-07-04 14:07:23 GMT 33.473015 -84.572189 10,450 146 309 576
2022-07-04 14:07:17 GMT 33.480370 -84.577347 10,475 155 301 1152
2022-07-04 14:07:13 GMT 33.482491 -84.579872 10,375 161 296 1664
2022-07-04 14:07:12 GMT 33.483891 -84.580009 8,800 173 304 2912
2022-07-04 14:07:10 GMT 33.486698 -84.580299 8,800 173 304 2912
2022-07-04 14:07:09 GMT 33.489510 -84.580582 8,800 173 304 2912
2022-07-04 14:07:07 GMT 33.490921 -84.580719 8,800 173 304 2912
2022-07-04 14:07:06 GMT 33.493729 -84.581009 8,800 173 304 2912
2022-07-04 14:07:04 GMT 33.495129 -84.581146 8,800 173 304 2912
2022-07-04 14:07:03 GMT 33.496529 -84.581291 8,800 173 304 2912
2022-07-04 14:07:02 GMT 33.499340 -84.581573 8,800 173 304 2912
2022-07-04 14:07:00 GMT 33.500751 -84.581711 8,800 173 304 2912
2022-07-04 14:06:58 GMT 33.503559 -84.582001 8,800 173 304 3360
2022-07-04 14:06:57 GMT 33.504959 -84.582138 8,800 173 304 3360
2022-07-04 14:06:56 GMT 33.506371 -84.582283 8,800 173 304 3360
2022-07-04 14:06:54 GMT 33.509178 -84.582573 8,800 173 304 3360
2022-07-04 14:06:53 GMT 33.510578 -84.582710 8,800 173 304 3360
2022-07-04 14:06:51 GMT 33.513390 -84.582993 8,800 173 304 3360
2022-07-04 14:06:50 GMT 33.514801 -84.583130 8,800 173 304 3360
2022-07-04 14:06:49 GMT 33.517601 -84.583420 8,800 173 304 3360
2022-07-04 14:06:47 GMT 33.519009 -84.583557 8,800 173 304 3360
2022-07-04 14:06:46 GMT 33.521820 -84.583839 8,800 173 304 3360
2022-07-04 14:06:44 GMT 33.523220 -84.583977 8,800 173 304 3360
2022-07-04 14:06:42 GMT 33.525990 -84.583183 8,600 169 301 3360
2022-07-04 14:06:41 GMT 33.528740 -84.583771 8,600 169 301 3360
2022-07-04 14:06:39 GMT 33.530121 -84.584061 8,600 169 301 3360
2022-07-04 14:06:38 GMT 33.531368 -84.583420 8,300 167 302 3360
2022-07-04 14:06:36 GMT 33.534100 -84.584183 8,300 167 302 3360
2022-07-04 14:06:35 GMT 33.535461 -84.584557 8,300 167 302 3360
2022-07-04 14:06:34 GMT 33.537880 -84.584808 7,800 169 305 3360
2022-07-04 14:06:31 GMT 33.540642 -84.585564 7,800 169 305 3360
2022-07-04 14:06:29 GMT 33.542950 -84.586311 7,800 173 307 3360
2022-07-04 14:06:28 GMT 33.544361 -84.586594 7,800 173 307 3360
2022-07-04 14:06:27 GMT 33.545761 -84.586868 7,800 173 307 3360
2022-07-04 14:06:25 GMT 33.548569 -84.587440 7,800 173 307 3360
2022-07-04 14:06:24 GMT 33.551350 -84.588150 7,600 179 298 3360
2022-07-04 14:06:22 GMT 33.552731 -84.588280 7,600 179 298 3360
2022-07-04 14:06:20 GMT 33.555481 -84.588539 7,600 179 298 3360
2022-07-04 14:06:19 GMT 33.556862 -84.589577 7,300 188 292 3360
2022-07-04 14:06:18 GMT 33.559559 -84.589333 7,300 188 292 3360
2022-07-04 14:06:16 GMT 33.560909 -84.589211 7,300 188 292 3360
2022-07-04 14:06:14 GMT 33.563702 -84.589951 7,100 199 289 3360
2022-07-04 14:06:13 GMT 33.566299 -84.589149 7,100 199 289 3360
2022-07-04 14:06:11 GMT 33.567600 -84.588753 7,100 199 289 3360
2022-07-04 14:06:09 GMT 33.570728 -84.589073 6,600 210 282 3360
2022-07-04 14:06:07 GMT 33.573078 -84.587700 6,600 210 282 3360
2022-07-04 14:06:06 GMT 33.575459 -84.588203 6,600 221 270 3360
2022-07-04 14:06:05 GMT 33.577461 -84.586418 6,600 221 270 3360
2022-07-04 14:06:03 GMT 33.578461 -84.585518 6,600 221 270 3360
2022-07-04 14:06:01 GMT 33.581699 -84.584846 6,300 231 265 3360
2022-07-04 14:06:00 GMT 33.582531 -84.583763 6,300 231 265 3360
2022-07-04 14:05:58 GMT 33.584190 -84.581596 6,300 231 265 3360
2022-07-04 14:05:56 GMT 33.587669 -84.580963 6,100 241 271 2624
2022-07-04 14:05:55 GMT 33.588291 -84.579659 6,100 241 271 2624
2022-07-04 14:05:54 GMT 33.589520 -84.577042 6,100 241 271 2624
2022-07-04 14:05:52 GMT 33.590672 -84.576172 5,800 242 273 2624
2022-07-04 14:05:50 GMT 33.591839 -84.573486 5,800 242 273 2624
2022-07-04 14:05:49 GMT 33.592419 -84.572151 5,800 242 273 2624
2022-07-04 14:05:48 GMT 33.592999 -84.570808 5,800 242 273 2624
2022-07-04 14:05:46 GMT 33.594959 -84.567001 5,300 243 275 2624
2022-07-04 14:05:44 GMT 33.595531 -84.565643 5,300 243 275 2624
2022-07-04 14:05:43 GMT 33.596840 -84.562950 5,300 244 274 2624
2022-07-04 14:05:41 GMT 33.597401 -84.561577 5,300 244 274 2624
2022-07-04 14:05:40 GMT 33.598511 -84.558853 5,300 244 274 2624
2022-07-04 14:05:37 GMT 33.599659 -84.556152 5,000 244 274 2624
2022-07-04 14:05:35 GMT 33.600769 -84.553421 4,800 244 284 2624
2022-07-04 14:05:33 GMT 33.601768 -84.551117 4,800 244 284 2624
2022-07-04 14:05:32 GMT 33.602341 -84.549698 4,800 244 284 2624
2022-07-04 14:05:31 GMT 33.602909 -84.548279 4,800 244 284 2624
2022-07-04 14:05:30 GMT 33.604198 -84.545517 4,500 245 281 2624
2022-07-04 14:05:28 GMT 33.605289 -84.542702 4,500 245 281 2624
2022-07-04 14:05:26 GMT 33.605839 -84.541290 4,500 245 281 2624
2022-07-04 14:05:25 GMT 33.607029 -84.538208 4,000 244 269 2624
2022-07-04 14:05:23 GMT 33.607559 -84.536858 4,000 244 269 2624
2022-07-04 14:05:22 GMT 33.608608 -84.534172 4,000 244 269 2624
2022-07-04 14:05:20 GMT 33.609200 -84.532509 4,000 244 261 2624
2022-07-04 14:05:18 GMT 33.610229 -84.529900 4,000 244 261 2624
2022-07-04 14:05:17 GMT 33.610748 -84.528603 4,000 244 261 2624
2022-07-04 14:05:16 GMT 33.611801 -84.525940 3,600 244 258 2624
2022-07-04 14:05:14 GMT 33.612820 -84.523338 3,600 244 257 2624
2022-07-04 14:05:12 GMT 33.613350 -84.522118 3,600 245 260 2624
2022-07-04 14:05:11 GMT 33.614368 -84.519501 3,600 244 258 2624
2022-07-04 14:05:09 GMT 33.614880 -84.518181 3,600 244 257 2624
2022-07-04 14:05:07 GMT 33.615940 -84.515617 3,600 245 255 2624
2022-07-04 14:05:06 GMT 33.616421 -84.514290 3,300 244 253 2624
2022-07-04 14:05:04 GMT 33.617439 -84.511780 3,300 244 253 2624
2022-07-04 14:05:03 GMT 33.617920 -84.510529 3,300 244 255 2624
2022-07-04 14:05:01 GMT 33.618931 -84.507980 3,050 243 253 2624
2022-07-04 14:05:00 GMT 33.619461 -84.506706 3,050 243 250 2624
2022-07-04 14:04:59 GMT 33.619968 -84.505478 3,050 243 251 2624
2022-07-04 14:04:57 GMT 33.621010 -84.502953 3,050 242 246 2112
2022-07-04 14:04:56 GMT 33.621552 -84.501740 3,050 242 246 2112
2022-07-04 14:04:54 GMT 33.622551 -84.499313 2,900 240 246 2112
2022-07-04 14:04:53 GMT 33.623669 -84.496902 2,600 240 241 2112
2022-07-04 14:04:51 GMT 33.624161 -84.495712 2,600 239 243 2112
2022-07-04 14:04:49 GMT 33.625301 -84.493347 2,600 238 239 2112
2022-07-04 14:04:47 GMT 33.626381 -84.491058 2,600 238 238 2112
2022-07-04 14:04:46 GMT 33.626949 -84.489937 2,600 238 237 2112
2022-07-04 14:04:44 GMT 33.628078 -84.487694 2,600 239 235 2112
2022-07-04 14:04:43 GMT 33.628609 -84.486549 2,500 239 233 2112
2022-07-04 14:04:42 GMT 33.629162 -84.485443 2,500 241 231 2112
2022-07-04 14:04:40 GMT 33.630180 -84.483223 2,500 243 229 2112
2022-07-04 14:04:38 GMT 33.631142 -84.480980 2,400 246 226 2112
2022-07-04 14:04:37 GMT 33.631592 -84.479843 2,400 248 224 2112
2022-07-04 14:04:35 GMT 33.632401 -84.477562 2,400 252 218 2112
2022-07-04 14:04:34 GMT 33.632710 -84.476418 2,300 253 217 2112
2022-07-04 14:04:32 GMT 33.633331 -84.474152 2,300 258 213 2112
2022-07-04 14:04:31 GMT 33.633549 -84.472977 2,300 259 210 2112
2022-07-04 14:04:30 GMT 33.633801 -84.471832 2,300 261 206 2112
2022-07-04 14:04:29 GMT 33.634121 -84.469551 2,250 263 201 2112
2022-07-04 14:04:27 GMT 33.634350 -84.467339 2,250 265 196 2112
2022-07-04 14:04:25 GMT 33.634472 -84.466240 2,200 266 194 2112
2022-07-04 14:04:24 GMT 33.634609 -84.464073 2,200 268 189 2112
2022-07-04 14:04:22 GMT 33.634640 -84.462967 2,100 269 183 2112
2022-07-04 14:04:20 GMT 33.634659 -84.460930 2,125 268 182 2112
2022-07-04 14:04:19 GMT 33.634659 -84.459900 2,000 268 181 2112
2022-07-04 14:04:17 GMT 33.634708 -84.457870 2,000 268 178 2112
2022-07-04 14:04:16 GMT 33.634731 -84.455963 1,700 269 182 2112
2022-07-04 14:04:14 GMT 33.634769 -84.453934 1,700 270 176 2112
2022-07-04 14:04:12 GMT 33.634781 -84.453033 1,700 270 185 2112
2022-07-04 14:04:11 GMT 33.634769 -84.450943 1,675 270 173 2112
2022-07-04 14:04:09 GMT 33.634750 -84.449028 1,175 270 180 2112
2022-07-04 14:04:07 GMT 33.634762 -84.448036 1,175 270 182 2112
2022-07-04 14:04:06 GMT 33.634739 -84.445999 1,175 268 173 2112
2022-07-04 14:04:04 GMT 33.634769 -84.445084 1,175 270 177 2112
2022-07-04 14:04:02 GMT 33.634720 -84.443092 1,175 270 175 2112
2022-07-04 14:04:01 GMT 33.634720 -84.442139 1,175 270 178 2112
2022-07-04 14:03:59 GMT 33.634731 -84.440201 1,050 270 180 2112
2022-07-04 14:03:58 GMT 33.634731 -84.439163 1,050 270 172 2112
2022-07-04 14:03:57 GMT 33.634701 -84.437286 1,000 270 180 288
2022-07-04 14:03:55 GMT 33.634731 -84.436310 975 270 180 288
2022-07-04 14:03:53 GMT 33.634708 -84.434334 900 270 178 288
2022-07-04 14:03:52 GMT 33.634701 -84.433350 875 270 177 288
2022-07-04 14:03:51 GMT 33.634689 -84.431396 825 270 174 288
2022-07-04 14:03:49 GMT 33.634682 -84.430450 800 269 172 288
2022-07-04 14:03:47 GMT 33.634682 -84.428543 775 269 166 -992
2022-07-04 14:03:46 GMT 33.634682 -84.426712 800 269 159 0
2022-07-04 14:03:44 GMT 33.634708 -84.425827 800 270 156 0
2022-07-04 14:03:42 GMT 33.634689 -84.424088 800 270 149 0
2022-07-04 14:03:41 GMT 33.634708 -84.423264 800 270 145 0
2022-07-04 14:03:40 GMT 33.634682 -84.422462 800 269 143 -672
2022-07-04 14:03:38 GMT 33.634708 -84.420860 800 270 132 -672
2022-07-04 14:03:37 GMT 33.634689 -84.420151 800 270 131 -672
2022-07-04 14:03:35 GMT 33.634640 -84.418694 800 268 120 0
2022-07-04 14:03:34 GMT 33.634640 -84.418030 800 268 119 0
2022-07-04 14:03:32 GMT 33.634708 -84.416733 0 270 108 0
2022-07-04 14:03:31 GMT 33.634689 -84.416100 0 270 102 0
2022-07-04 14:03:30 GMT 33.634689 -84.415497 0 269 95 0
2022-07-04 14:03:28 GMT 33.634708 -84.414436 0 271 86 0
2022-07-04 14:03:27 GMT 33.634701 -84.413521 0 270 80 0
2022-07-04 14:03:25 GMT 33.634689 -84.412643 0 270 70 0
2022-07-04 14:03:23 GMT 33.634659 -84.412239 0 269 65 0
2022-07-04 14:03:22 GMT 33.634659 -84.411537 0 268 54 0
2022-07-04 14:03:20 GMT 33.634651 -84.411240 0 267 50 0
2022-07-04 14:03:18 GMT 33.634659 -84.410599 0 265 32 0
2022-07-04 14:03:17 GMT 33.634689 -84.410378 0 267 26 0
2022-07-04 14:03:15 GMT 33.634689 -84.409981 0 265 12 0
2022-07-04 14:03:14 GMT 33.634701 -84.409859 0 265 8 0
2022-07-04 14:03:12 GMT 33.634708 -84.409782 0 269 9 0
2022-07-04 14:03:11 GMT 33.634720 -84.409721 0 272 8 0
2022-07-04 14:03:10 GMT 33.634720 -84.409668 0 275 7 0
2022-07-04 14:03:08 GMT 33.634720 -84.409599 0 280 8 0
2022-07-04 14:03:07 GMT 33.634708 -84.409523 0 278 5 0
2022-07-04 14:03:05 GMT 33.634708 -84.409470 0 275 6 0
2022-07-04 14:03:04 GMT 33.634689 -84.409409 0 260 6 0
2022-07-04 14:03:02 GMT 33.634682 -84.409393 0 253 8 0
2022-07-04 14:03:00 GMT 33.634689 -84.409309 0 255 8 0
2022-07-04 14:02:59 GMT 33.634731 -84.409233 0 244 7 0
2022-07-04 14:02:57 GMT 33.634731 -84.409157 0 217 4 0
2022-07-04 14:02:56 GMT 33.634701 -84.409172 0 207 8 0
2022-07-04 14:02:54 GMT 33.634762 -84.409103 0 194 7 0
2022-07-04 14:02:52 GMT 33.634811 -84.409058 0 180 8 0
2022-07-04 14:02:51 GMT 33.634880 -84.409042 0 174 12 0
2022-07-04 14:02:49 GMT 33.634941 -84.409058 0 180 12 0
2022-07-04 14:02:48 GMT 33.635040 -84.409073 0 180 11 0
2022-07-04 14:02:46 GMT 33.635090 -84.409050 0 174 12 0
2022-07-04 14:02:44 GMT 33.635201 -84.409050 0 171 11 0
2022-07-04 14:02:43 GMT 33.635269 -84.409088 0 180 13 0
2022-07-04 14:02:41 GMT 33.635330 -84.409119 0 184 12 0
2022-07-04 14:02:40 GMT 33.635460 -84.409111 0 167 8 0
2022-07-04 14:02:38 GMT 33.635509 -84.409111 0 140 7 0
2022-07-04 14:02:37 GMT 33.635551 -84.409081 0 135 5 0
2022-07-04 14:02:36 GMT 33.635590 -84.409081 0 115 6 0
2022-07-04 14:02:34 GMT 33.635639 -84.409111 0 132 4 0
2022-07-04 14:02:32 GMT 33.635681 -84.409180 0 153 2 0
2022-07-04 14:02:31 GMT 33.635590 -84.409111 0 162 4 0
2022-07-04 14:02:30 GMT 33.635601 -84.409126 0 164 4 0
2022-07-04 14:02:28 GMT 33.635609 -84.409187 0 170 3 0
2022-07-04 14:02:27 GMT 33.635651 -84.409233 0 170 0 0
2022-07-04 14:02:26 GMT 33.635651 -84.409218 0 170 0 0
2022-07-04 14:02:24 GMT 33.635651 -84.409233 0 170 1 0
2022-07-04 14:02:22 GMT 33.635632 -84.409180 0 170 1 0
2022-07-04 14:02:18 GMT 33.635651 -84.409180 0 170 1 0
2022-07-04 14:02:17 GMT 33.635658 -84.409203 0 170 0 0
2022-07-04 14:02:15 GMT 33.635658 -84.409180 0 170 1 0
2022-07-04 14:02:13 GMT 33.635639 -84.409187 0 170 1 0
2022-07-04 14:02:12 GMT 33.635632 -84.409172 0 170 1 0
2022-07-04 14:02:10 GMT 33.635632 -84.409172 0 170 2 0
2022-07-04 14:02:09 GMT 33.635658 -84.409187 0 170 0 0
2022-07-04 14:02:07 GMT 33.635651 -84.409203 0 170 0 0
2022-07-04 14:02:05 GMT 33.635658 -84.409210 0 170 0 0
2022-07-04 14:02:04 GMT 33.635658 -84.409180 0 170 1 0
2022-07-04 14:02:02 GMT 33.635651 -84.409187 0 170 1 0
2022-07-04 14:02:00 GMT 33.635658 -84.409187 0 170 0 0
2022-07-04 14:01:59 GMT 33.635658 -84.409203 0 170 1 0
2022-07-04 14:01:57 GMT 33.635651 -84.409187 0 170 2 0
2022-07-04 14:01:56 GMT 33.635658 -84.409233 0 170 2 0
2022-07-04 14:01:54 GMT 33.635651 -84.409203 0 166 1 0
2022-07-04 14:01:53 GMT 33.635601 -84.409218 0 155 6 0
2022-07-04 14:01:51 GMT 33.635639 -84.409149 0 140 5 0
2022-07-04 14:01:50 GMT 33.635681 -84.409157 0 145 4 0
2022-07-04 14:01:48 GMT 33.635689 -84.409218 0 147 4 0
2022-07-04 14:01:46 GMT 33.635731 -84.409187 0 91 6 0
2022-07-04 14:01:45 GMT 33.635769 -84.409187 0 91 7 0
2022-07-04 14:01:43 GMT 33.635780 -84.409286 0 100 5 0
2022-07-04 14:01:41 GMT 33.635769 -84.409340 0 102 8 0
2022-07-04 14:01:40 GMT 33.635780 -84.409370 0 98 9 0
2022-07-04 14:01:39 GMT 33.635811 -84.409470 0 84 9 0
2022-07-04 14:01:37 GMT 33.635811 -84.409508 0 85 10 0
2022-07-04 14:01:35 GMT 33.635811 -84.409637 0 81 8 0
2022-07-04 14:01:34 GMT 33.635811 -84.409683 0 87 8 0
2022-07-04 14:01:32 GMT 33.635811 -84.409737 0 82 12 0
2022-07-04 14:01:30 GMT 33.635769 -84.409889 0 92 9 0
2022-07-04 14:01:28 GMT 33.635769 -84.409958 0 90 13 0
2022-07-04 14:01:27 GMT 33.635750 -84.410110 0 93 12 0
2022-07-04 14:01:25 GMT 33.635780 -84.410172 0 91 12 0
2022-07-04 14:01:23 GMT 33.635780 -84.410263 0 87 17 0
2022-07-04 14:01:22 GMT 33.635792 -84.410378 0 84 15 0
2022-07-04 14:01:21 GMT 33.635761 -84.410469 0 90 13 0
2022-07-04 14:01:19 GMT 33.635761 -84.410583 0 93 18 0
2022-07-04 14:01:18 GMT 33.635761 -84.410789 0 92 17 0
2022-07-04 14:01:16 GMT 33.635761 -84.410881 0 93 18 0
2022-07-04 14:01:15 GMT 33.635761 -84.410980 0 93 17 0
2022-07-04 14:01:13 GMT 33.635769 -84.411171 0 87 15 0
2022-07-04 14:01:12 GMT 33.635780 -84.411247 0 83 15 0
2022-07-04 14:01:10 GMT 33.635761 -84.411407 0 91 15 0
2022-07-04 14:01:09 GMT 33.635761 -84.411583 0 94 14 0
2022-07-04 14:01:07 GMT 33.635769 -84.411629 0 90 17 0
2022-07-04 14:01:06 GMT 33.635792 -84.411720 0 85 17 0
2022-07-04 14:01:04 GMT 33.635761 -84.411911 0 92 18 0
2022-07-04 14:01:03 GMT 33.635761 -84.412003 0 92 18 0
2022-07-04 14:01:01 GMT 33.635780 -84.412178 0 87 20 0
2022-07-04 14:01:00 GMT 33.635761 -84.412300 0 92 17 0
2022-07-04 14:00:58 GMT 33.635780 -84.412483 0 88 19 0
2022-07-04 14:00:57 GMT 33.635780 -84.412712 0 84 16 0
2022-07-04 14:00:55 GMT 33.635761 -84.412804 0 91 16 0
2022-07-04 14:00:53 GMT 33.635761 -84.412971 0 95 17 0
2022-07-04 14:00:51 GMT 33.635769 -84.413132 0 89 21 0
2022-07-04 14:00:50 GMT 33.635761 -84.413277 0 94 19 0
2022-07-04 14:00:49 GMT 33.635761 -84.413399 0 96 18 0
2022-07-04 14:00:47 GMT 33.635792 -84.413612 0 90 18 0
2022-07-04 14:00:46 GMT 33.635799 -84.413849 0 92 13 0
2022-07-04 14:00:44 GMT 33.635799 -84.413902 0 90 16 0
2022-07-04 14:00:43 GMT 33.635811 -84.413986 0 87 16 0
2022-07-04 14:00:41 GMT 33.635799 -84.414169 0 86 17 0
2022-07-04 14:00:40 GMT 33.635769 -84.414330 0 94 19 0
2022-07-04 14:00:38 GMT 33.635780 -84.414398 0 93 22 0
2022-07-04 14:00:37 GMT 33.635811 -84.414726 0 86 14 0
2022-07-04 14:00:35 GMT 33.635769 -84.414780 0 100 17 0
2022-07-04 14:00:34 GMT 33.635818 -84.414970 0 87 16 0
2022-07-04 14:00:31 GMT 33.635841 -84.415161 0 74 14 0
2022-07-04 14:00:30 GMT 33.635792 -84.415230 0 89 15 0
2022-07-04 14:00:29 GMT 33.635780 -84.415291 0 88 16 0
2022-07-04 14:00:28 GMT 33.635761 -84.415466 0 97 19 0
2022-07-04 14:00:26 GMT 33.635799 -84.415703 0 92 19 0
2022-07-04 14:00:24 GMT 33.635818 -84.415802 0 86 19 0
2022-07-04 14:00:22 GMT 33.635811 -84.415993 0 85 20 0
2022-07-04 14:00:20 GMT 33.635799 -84.416199 0 86 19 0
2022-07-04 14:00:19 GMT 33.635792 -84.416328 0 86 16 0
2022-07-04 14:00:18 GMT 33.635750 -84.416458 0 98 21 0
2022-07-04 14:00:16 GMT 33.635780 -84.416618 0 94 17 0
2022-07-04 14:00:15 GMT 33.635818 -84.416801 0 84 19 0
2022-07-04 14:00:13 GMT 33.635811 -84.416946 0 84 16 0
2022-07-04 14:00:12 GMT 33.635792 -84.417122 0 89 15 0
2022-07-04 14:00:10 GMT 33.635792 -84.417267 0 90 16 0
2022-07-04 14:00:08 GMT 33.635792 -84.417358 0 91 16 0
2022-07-04 14:00:07 GMT 33.635792 -84.417473 0 89 14 0
2022-07-04 14:00:05 GMT 33.635799 -84.417641 0 87 15 0
2022-07-04 14:00:04 GMT 33.635792 -84.417709 0 88 16 0
2022-07-04 14:00:02 GMT 33.635769 -84.417900 0 95 13 0
2022-07-04 14:00:00 GMT 33.635792 -84.418037 0 93 14 0
2022-07-04 13:59:59 GMT 33.635811 -84.418121 0 83 13 0
2022-07-04 13:59:57 GMT 33.635799 -84.418251 0 83 17 0
2022-07-04 13:59:56 GMT 33.635799 -84.418327 0 80 18 0
2022-07-04 13:59:54 GMT 33.635750 -84.418571 0 96 12 0
2022-07-04 13:59:53 GMT 33.635769 -84.418633 0 97 13 0
2022-07-04 13:59:52 GMT 33.635780 -84.418747 0 94 15 0
2022-07-04 13:59:50 GMT 33.635780 -84.418823 0 93 17 0
2022-07-04 13:59:48 GMT 33.635799 -84.419006 0 91 15 0
2022-07-04 13:59:47 GMT 33.635799 -84.419083 0 92 17 0
2022-07-04 13:59:46 GMT 33.635811 -84.419182 0 90 17 0
2022-07-04 13:59:44 GMT 33.635818 -84.419380 0 88 17 0
2022-07-04 13:59:42 GMT 33.635818 -84.419571 0 84 16 0
2022-07-04 13:59:41 GMT 33.635792 -84.419670 0 90 15 0
2022-07-04 13:59:40 GMT 33.635799 -84.419800 0 85 18 0
2022-07-04 13:59:38 GMT 33.635792 -84.419952 0 88 14 0
2022-07-04 13:59:37 GMT 33.635769 -84.420097 0 101 15 0
2022-07-04 13:59:35 GMT 33.635780 -84.420189 0 103 14 0
2022-07-04 13:59:33 GMT 33.635792 -84.420341 0 110 15 0
2022-07-04 13:59:32 GMT 33.635818 -84.420410 0 111 15 0
2022-07-04 13:59:31 GMT 33.635849 -84.420479 0 109 16 0
2022-07-04 13:59:29 GMT 33.635899 -84.420647 0 113 15 0
2022-07-04 13:59:27 GMT 33.635948 -84.420792 0 112 17 0
2022-07-04 13:59:26 GMT 33.635960 -84.420914 0 123 15 0
2022-07-04 13:59:25 GMT 33.636051 -84.421051 0 121 16 0
2022-07-04 13:59:23 GMT 33.636082 -84.421120 0 123 17 0
2022-07-04 13:59:22 GMT 33.636181 -84.421280 0 118 16 0
2022-07-04 13:59:20 GMT 33.636211 -84.421356 0 121 15 0
2022-07-04 13:59:19 GMT 33.636230 -84.421440 0 125 15 0
2022-07-04 13:59:18 GMT 33.636341 -84.421570 0 112 14 0
2022-07-04 13:59:16 GMT 33.636349 -84.421661 0 118 13 0
2022-07-04 13:59:15 GMT 33.636391 -84.421722 0 110 14 0
2022-07-04 13:59:13 GMT 33.636459 -84.421837 0 100 14 0
2022-07-04 13:59:12 GMT 33.636478 -84.421997 0 103 14 0
2022-07-04 13:59:10 GMT 33.636490 -84.422081 0 102 14 0
2022-07-04 13:59:09 GMT 33.636532 -84.422218 0 94 16 0
2022-07-04 13:59:07 GMT 33.636551 -84.422333 0 86 13 0
2022-07-04 13:59:06 GMT 33.636551 -84.422401 0 84 13 0
2022-07-04 13:59:04 GMT 33.636539 -84.422562 0 87 12 0
2022-07-04 13:59:03 GMT 33.636532 -84.422600 0 88 14 0
2022-07-04 13:59:02 GMT 33.636539 -84.422760 0 91 13 0
2022-07-04 13:59:00 GMT 33.636509 -84.422821 0 94 13 0
2022-07-04 13:58:56 GMT 33.636532 -84.423210 0 87 18 0
2022-07-04 13:58:52 GMT 33.636520 -84.423500 0 92 18 0
2022-07-04 13:58:51 GMT 33.636532 -84.423698 0 92 17 0
2022-07-04 13:58:49 GMT 33.636539 -84.423897 0 91 17 0
2022-07-04 13:58:47 GMT 33.636551 -84.424103 0 88 14 0
2022-07-04 13:58:44 GMT 33.636559 -84.424263 0 83 15 0
2022-07-04 13:58:43 GMT 33.636559 -84.424347 0 79 15 0
2022-07-04 13:58:42 GMT 33.636532 -84.424423 0 86 16 0
2022-07-04 13:58:41 GMT 33.636532 -84.424522 0 86 15 0
2022-07-04 13:58:40 GMT 33.636509 -84.424583 0 90 17 0
2022-07-04 13:58:38 GMT 33.636501 -84.424751 0 96 19 0
2022-07-04 13:58:37 GMT 33.636509 -84.424889 0 96 16 0
2022-07-04 13:58:34 GMT 33.636551 -84.425171 0 89 15 0
2022-07-04 13:58:32 GMT 33.636551 -84.425308 0 85 14 0
2022-07-04 13:58:31 GMT 33.636532 -84.425392 0 92 14 0
2022-07-04 13:58:29 GMT 33.636532 -84.425568 0 96 14 0
2022-07-04 13:58:28 GMT 33.636559 -84.425636 0 86 16 0
2022-07-04 13:58:26 GMT 33.636551 -84.425842 0 88 14 0
2022-07-04 13:58:25 GMT 33.636551 -84.425919 0 88 14 0
2022-07-04 13:58:24 GMT 33.636539 -84.426079 0 85 13 0
2022-07-04 13:58:22 GMT 33.636539 -84.426147 0 82 12 0
2022-07-04 13:58:20 GMT 33.636539 -84.426277 0 80 13 0
2022-07-04 13:58:19 GMT 33.636471 -84.426300 0 101 18 0
2022-07-04 13:58:17 GMT 33.636490 -84.426498 0 104 17 0
2022-07-04 13:58:16 GMT 33.636539 -84.426567 0 90 19 0
2022-07-04 13:58:15 GMT 33.636539 -84.426788 0 93 17 0
2022-07-04 13:58:13 GMT 33.636532 -84.426903 0 100 15 0
2022-07-04 13:58:12 GMT 33.636539 -84.426987 0 101 16 0
2022-07-04 13:58:10 GMT 33.636589 -84.427147 0 92 18 0
2022-07-04 13:58:09 GMT 33.636600 -84.427254 0 92 18 0
2022-07-04 13:58:07 GMT 33.636600 -84.427452 0 91 18 0
2022-07-04 13:58:06 GMT 33.636589 -84.427528 0 92 21 0
2022-07-04 13:58:04 GMT 33.636589 -84.427773 0 92 21 0
2022-07-04 13:58:03 GMT 33.636570 -84.427887 0 97 20 0
2022-07-04 13:58:02 GMT 33.636608 -84.428139 0 93 17 0
2022-07-04 13:58:00 GMT 33.636639 -84.428238 0 89 17 0
2022-07-04 13:57:59 GMT 33.636631 -84.428413 0 91 22 0
2022-07-04 13:57:57 GMT 33.636639 -84.428528 0 88 21 0
2022-07-04 13:57:55 GMT 33.636639 -84.428780 0 85 17 0
2022-07-04 13:57:54 GMT 33.636608 -84.428879 0 92 18 0
2022-07-04 13:57:52 GMT 33.636620 -84.429070 0 90 18 0
2022-07-04 13:57:51 GMT 33.636620 -84.429260 0 92 20 0
2022-07-04 13:57:49 GMT 33.636631 -84.429398 0 89 16 0
2022-07-04 13:57:48 GMT 33.636639 -84.429466 0 83 18 0
2022-07-04 13:57:46 GMT 33.636620 -84.429642 0 89 20 0
2022-07-04 13:57:45 GMT 33.636608 -84.429779 0 91 16 0
2022-07-04 13:57:44 GMT 33.636600 -84.429947 0 94 19 0
2022-07-04 13:57:42 GMT 33.636620 -84.430061 0 88 18 0
2022-07-04 13:57:41 GMT 33.636608 -84.430260 0 89 18 0
2022-07-04 13:57:39 GMT 33.636600 -84.430351 0 92 19 0
2022-07-04 13:57:37 GMT 33.636608 -84.430550 0 89 19 0
2022-07-04 13:57:36 GMT 33.636620 -84.430794 0 89 17 0
2022-07-04 13:57:34 GMT 33.636589 -84.430893 0 97 17 0
2022-07-04 13:57:33 GMT 33.636620 -84.431091 0 91 17 0
2022-07-04 13:57:31 GMT 33.636631 -84.431190 0 89 15 0
2022-07-04 13:57:29 GMT 33.636631 -84.431351 0 86 18 0
2022-07-04 13:57:28 GMT 33.636631 -84.431473 0 85 16 0
2022-07-04 13:57:26 GMT 33.636589 -84.431610 0 92 20 0
2022-07-04 13:57:25 GMT 33.636581 -84.431732 0 96 20 0
2022-07-04 13:57:24 GMT 33.636589 -84.431862 0 96 18 0
2022-07-04 13:57:22 GMT 33.636608 -84.432068 0 91 16 0
2022-07-04 13:57:21 GMT 33.636631 -84.432243 0 88 19 0
2022-07-04 13:57:19 GMT 33.636608 -84.432350 0 93 16 0
2022-07-04 13:57:16 GMT 33.636650 -84.432663 0 86 16 0
2022-07-04 13:57:15 GMT 33.636639 -84.432739 0 89 17 0
2022-07-04 13:57:14 GMT 33.636650 -84.432838 0 85 18 0
2022-07-04 13:57:13 GMT 33.636631 -84.432892 0 88 22 0
2022-07-04 13:57:11 GMT 33.636650 -84.433151 0 83 19 0
2022-07-04 13:57:10 GMT 33.636631 -84.433258 0 83 17 0
2022-07-04 13:57:08 GMT 33.636608 -84.433449 0 88 17 0
2022-07-04 13:57:07 GMT 33.636589 -84.433640 0 93 19 0
2022-07-04 13:57:05 GMT 33.636581 -84.433739 0 98 20 0
2022-07-04 13:57:04 GMT 33.636608 -84.433983 0 93 16 0
2022-07-04 13:57:02 GMT 33.636620 -84.434059 0 91 16 0
2022-07-04 13:57:00 GMT 33.636620 -84.434250 0 88 17 0
2022-07-04 13:56:59 GMT 33.636620 -84.434349 0 89 18 0
2022-07-04 13:56:58 GMT 33.636620 -84.434563 0 86 15 0
2022-07-04 13:56:56 GMT 33.636631 -84.434662 0 82 18 0
2022-07-04 13:56:54 GMT 33.636581 -84.434860 0 97 17 0
2022-07-04 13:56:53 GMT 33.636608 -84.434952 0 90 17 0
2022-07-04 13:56:52 GMT 33.636589 -84.435043 0 95 18 0
2022-07-04 13:56:50 GMT 33.636620 -84.435249 0 89 18 0
2022-07-04 13:56:48 GMT 33.636620 -84.435448 0 89 18 0
2022-07-04 13:56:47 GMT 33.636639 -84.435577 0 82 16 0
2022-07-04 13:56:45 GMT 33.636600 -84.435760 0 91 16 0
2022-07-04 13:56:44 GMT 33.636589 -84.435951 0 102 16 0
2022-07-04 13:56:42 GMT 33.636639 -84.436020 0 87 17 0
2022-07-04 13:56:41 GMT 33.636650 -84.436234 0 82 16 0
2022-07-04 13:56:39 GMT 33.636620 -84.436317 0 88 17 0
2022-07-04 13:56:38 GMT 33.636631 -84.436409 0 84 17 0
2022-07-04 13:56:37 GMT 33.636608 -84.436523 0 91 15 0
2022-07-04 13:56:35 GMT 33.636608 -84.436668 0 96 16 0
2022-07-04 13:56:34 GMT 33.636650 -84.436752 0 82 16 0
2022-07-04 13:56:32 GMT 33.636639 -84.436920 0 80 18 0
2022-07-04 13:56:31 GMT 33.636620 -84.437027 0 84 16 0
2022-07-04 13:56:30 GMT 33.636620 -84.437180 0 92 16 0
2022-07-04 13:56:28 GMT 33.636608 -84.437370 0 114 13 0
2022-07-04 13:56:26 GMT 33.636631 -84.437424 0 121 15 0
2022-07-04 13:56:25 GMT 33.636600 -84.437538 0 147 14 0
2022-07-04 13:56:23 GMT 33.636711 -84.437637 0 150 14 0
2022-07-04 13:56:22 GMT 33.636841 -84.437737 0 159 12 0
2022-07-04 13:56:20 GMT 33.636890 -84.437782 0 162 12 0
2022-07-04 13:56:19 GMT 33.636978 -84.437828 0 174 12 0
2022-07-04 13:56:17 GMT 33.637032 -84.437851 0 177 13 0
2022-07-04 13:56:15 GMT 33.637180 -84.437881 0 182 10 0
2022-07-04 13:56:14 GMT 33.637272 -84.437866 0 178 11 0
2022-07-04 13:56:12 GMT 33.637299 -84.437866 0 178 13 0
2022-07-04 13:56:11 GMT 33.637428 -84.437881 0 182 11 0
2022-07-04 13:56:09 GMT 33.637482 -84.437912 0 186 12 0
2022-07-04 13:56:08 GMT 33.637539 -84.437881 0 181 12 0
2022-07-04 13:56:06 GMT 33.637642 -84.437866 0 173 13 0
2022-07-04 13:56:03 GMT 33.637791 -84.437912 0 184 16 0
2022-07-04 13:56:01 GMT 33.637989 -84.437889 0 177 13 0
2022-07-04 13:56:00 GMT 33.638111 -84.437859 0 157 11 0
2022-07-04 13:55:59 GMT 33.638359 -84.437859 0 89 8 0
2022-07-04 13:54:57 GMT 33.642761 -84.437866 0 175 3 0
2022-07-04 13:54:56 GMT 33.642738 -84.437889 0 175 3 0
2022-07-04 13:54:54 GMT 33.642750 -84.437881 0 175 3 0
2022-07-04 13:54:53 GMT 33.642712 -84.437859 0 175 3 0
2022-07-04 13:54:51 GMT 33.642651 -84.437843 0 175 5 0
2022-07-04 13:54:50 GMT 33.642639 -84.437859 0 177 5 0
2022-07-04 13:54:48 GMT 33.642681 -84.437866 0 182 5 0
2022-07-04 13:54:47 GMT 33.642712 -84.437881 0 188 5 0
2022-07-04 13:54:46 GMT 33.642738 -84.437889 0 210 6 0
2022-07-04 13:54:44 GMT 33.642769 -84.437897 0 229 7 0
2022-07-04 13:54:42 GMT 33.642899 -84.437881 0 261 2 0
2022-07-04 13:54:41 GMT 33.642921 -84.437912 0 261 2 0
2022-07-04 13:54:39 GMT 33.642921 -84.437920 0 261 3 0
2022-07-04 13:54:38 GMT 33.642921 -84.437943 0 265 5 0
2022-07-04 13:54:36 GMT 33.643021 -84.437889 0 265 0 0
2022-07-04 13:54:34 GMT 33.643028 -84.437889 0 265 0 0
2022-07-04 13:54:33 GMT 33.643040 -84.437897 0 265 1 0
2022-07-04 13:54:31 GMT 33.643150 -84.437866 0 265 0 0
2022-07-04 13:54:30 GMT 33.643188 -84.437859 0 265 0 0
2022-07-04 13:54:28 GMT 33.643219 -84.437828 0 265 0 0
2022-07-04 13:54:27 GMT 33.643211 -84.437828 0 265 0 0
2022-07-04 13:54:26 GMT 33.643211 -84.437843 0 265 2 0
2022-07-04 13:54:24 GMT 33.643181 -84.437859 0 265 2 0
2022-07-04 13:54:23 GMT 33.643188 -84.437859 0 265 2 0
2022-07-04 13:54:21 GMT 33.643200 -84.437866 0 265 2 0
2022-07-04 13:54:19 GMT 33.643242 -84.437828 0 265 2 0
2022-07-04 13:54:18 GMT 33.643261 -84.437813 0 265 2 0
2022-07-04 13:54:16 GMT 33.643250 -84.437813 0 265 2 0
2022-07-04 13:54:15 GMT 33.643269 -84.437782 0 265 2 0
2022-07-04 13:54:14 GMT 33.643261 -84.437813 0 265 3 0
2022-07-04 13:54:13 GMT 33.643230 -84.437820 0 269 4 0
2022-07-04 13:54:11 GMT 33.643150 -84.437920 0 269 4 0
2022-07-04 13:54:10 GMT 33.643311 -84.437813 0 269 0 0
2022-07-04 13:54:08 GMT 33.643242 -84.437851 0 269 0 0
2022-07-04 13:54:07 GMT 33.643261 -84.437859 0 269 0 0
2022-07-04 13:54:06 GMT 33.643242 -84.437828 0 269 0 0
2022-07-04 13:54:04 GMT 33.643211 -84.437851 0 269 0 0
2022-07-04 13:54:02 GMT 33.643200 -84.437859 0 269 0 0
2022-07-04 13:54:00 GMT 33.643188 -84.437866 0 269 0 0
2022-07-04 13:53:59 GMT 33.643162 -84.437897 0 269 0 0
2022-07-04 13:53:57 GMT 33.643139 -84.437920 0 269 0 0
2022-07-04 13:53:54 GMT 33.643162 -84.437912 0 269 0 0
2022-07-04 13:53:51 GMT 33.643200 -84.437843 0 269 0 0
2022-07-04 13:53:49 GMT 33.643169 -84.437881 0 269 0 0
2022-07-04 13:53:48 GMT 33.643162 -84.437889 0 269 0 0
2022-07-04 13:53:46 GMT 33.643150 -84.437897 0 269 0 0
2022-07-04 13:53:45 GMT 33.643188 -84.437859 0 269 0 0
2022-07-04 13:53:44 GMT 33.643219 -84.437851 0 269 0 0
2022-07-04 13:53:42 GMT 33.643219 -84.437843 0 269 1 0
2022-07-04 13:53:41 GMT 33.643242 -84.437790 0 269 2 0
2022-07-04 13:53:39 GMT 33.643200 -84.437843 0 269 2 0
2022-07-04 13:53:38 GMT 33.643162 -84.437881 0 269 1 0
2022-07-04 13:53:36 GMT 33.643139 -84.437897 0 269 1 0
2022-07-04 13:53:35 GMT 33.643200 -84.437866 0 269 0 0
2022-07-04 13:53:33 GMT 33.643150 -84.437927 0 269 0 0
2022-07-04 13:53:31 GMT 33.643188 -84.437881 0 269 0 0
2022-07-04 13:53:29 GMT 33.643162 -84.437897 0 269 0 0
2022-07-04 13:53:26 GMT 33.643131 -84.437927 0 269 0 0
2022-07-04 13:53:22 GMT 33.643169 -84.437889 0 269 0 0
2022-07-04 13:53:19 GMT 33.643242 -84.437790 0 269 0 0
2022-07-04 13:53:17 GMT 33.643242 -84.437790 0 269 1 0
2022-07-04 13:53:16 GMT 33.643230 -84.437813 0 269 1 0
2022-07-04 13:53:14 GMT 33.643230 -84.437820 0 269 2 0
2022-07-04 13:53:13 GMT 33.643181 -84.437881 0 269 1 0
2022-07-04 13:53:12 GMT 33.643169 -84.437866 0 269 1 0
2022-07-04 13:53:10 GMT 33.643139 -84.437859 0 269 1 0
2022-07-04 13:53:08 GMT 33.643108 -84.437897 0 269 1 0
2022-07-04 13:53:07 GMT 33.643131 -84.437920 0 269 1 0
2022-07-04 13:53:05 GMT 33.643150 -84.437920 0 269 0 0
2022-07-04 13:53:03 GMT 33.643139 -84.437943 0 269 1 0
2022-07-04 13:53:01 GMT 33.643250 -84.437843 0 269 0 0
2022-07-04 13:52:59 GMT 33.643261 -84.437820 0 269 1 0
2022-07-04 13:52:58 GMT 33.643230 -84.437820 0 269 3 0
2022-07-04 13:52:56 GMT 33.643242 -84.437820 0 269 3 0
2022-07-04 13:52:55 GMT 33.643188 -84.437866 0 302 6 0
2022-07-04 13:52:53 GMT 33.643188 -84.437866 0 324 6 0
2022-07-04 13:52:52 GMT 33.643211 -84.437859 0 352 6 0
2022-07-04 13:52:50 GMT 33.643280 -84.437782 0 26 1 0
2022-07-04 13:52:49 GMT 33.643261 -84.437782 0 26 1 0
2022-07-04 13:52:48 GMT 33.643200 -84.437820 0 26 2 0
2022-07-04 13:52:46 GMT 33.643200 -84.437828 0 26 2 0
2022-07-04 13:52:44 GMT 33.643280 -84.437828 0 26 1 0
2022-07-04 13:52:42 GMT 33.643242 -84.437843 0 26 1 0
2022-07-04 13:52:40 GMT 33.643291 -84.437859 0 26 2 0
2022-07-04 13:52:39 GMT 33.643242 -84.437851 0 26 0 0
2022-07-04 13:52:37 GMT 33.643242 -84.437851 0 26 0 0
2022-07-04 13:52:35 GMT 33.643230 -84.437843 0 26 0 0
2022-07-04 13:52:34 GMT 33.643200 -84.437851 0 26 0 0
2022-07-04 13:52:33 GMT 33.643162 -84.437881 0 26 0 0
2022-07-04 13:52:30 GMT 33.643169 -84.437859 0 26 1 0
2022-07-04 13:52:29 GMT 33.643162 -84.437897 0 26 0 0
2022-07-04 13:52:28 GMT 33.643120 -84.437920 0 26 0 0
2022-07-04 13:52:25 GMT 33.643101 -84.437927 0 26 1 0
2022-07-04 13:52:24 GMT 33.643131 -84.437920 0 26 0 0
2022-07-04 13:52:21 GMT 33.643131 -84.437943 0 26 0 0
2022-07-04 13:52:19 GMT 33.643131 -84.437943 0 26 0 0
2022-07-04 13:52:18 GMT 33.643131 -84.437920 0 26 0 0
2022-07-04 13:52:16 GMT 33.643131 -84.437920 0 26 0 0
2022-07-04 13:52:14 GMT 33.643169 -84.437897 0 26 0 0
2022-07-04 13:52:11 GMT 33.643150 -84.437912 0 26 0 0
2022-07-04 13:52:09 GMT 33.643139 -84.437927 0 26 0 0
2022-07-04 13:52:08 GMT 33.643139 -84.437943 0 26 0 0
2022-07-04 13:52:06 GMT 33.643131 -84.437920 0 26 0 0
2022-07-04 13:52:01 GMT 33.643131 -84.437927 0 26 0 0
2022-07-04 13:52:00 GMT 33.643181 -84.437881 0 26 0 0
2022-07-04 13:51:59 GMT 33.643150 -84.437912 0 26 0 0
2022-07-04 13:51:58 GMT 33.643131 -84.437920 0 26 0 0
2022-07-04 13:51:55 GMT 33.643120 -84.437927 0 26 0 0
2022-07-04 13:51:54 GMT 33.643131 -84.437943 0 26 0 0
2022-07-04 13:51:52 GMT 33.643131 -84.437943 0 26 0 0
2022-07-04 13:51:51 GMT 33.643139 -84.437920 0 26 0 0
2022-07-04 13:51:49 GMT 33.643120 -84.437950 0 26 0 0
2022-07-04 13:51:46 GMT 33.643139 -84.437927 0 26 0 0
2022-07-04 13:51:45 GMT 33.643131 -84.437897 0 26 0 0
2022-07-04 13:51:43 GMT 33.643120 -84.437912 0 26 0 0
2022-07-04 13:51:41 GMT 33.643131 -84.437927 0 26 0 0
2022-07-04 13:51:39 GMT 33.643131 -84.437943 0 26 0 0
2022-07-04 13:51:36 GMT 33.643139 -84.437912 0 26 0 0
2022-07-04 13:51:33 GMT 33.643120 -84.437912 0 26 0 0
2022-07-04 13:51:31 GMT 33.643120 -84.437912 0 26 0 0
2022-07-04 13:51:30 GMT 33.643131 -84.437897 0 26 1 0
2022-07-04 13:51:29 GMT 33.643131 -84.437912 0 26 0 0
2022-07-04 13:51:26 GMT 33.643131 -84.437927 0 26 0 0
2022-07-04 13:51:24 GMT 33.643150 -84.437912 0 26 0 0
2022-07-04 13:51:21 GMT 33.643169 -84.437889 0 26 0 0
2022-07-04 13:51:19 GMT 33.643131 -84.437943 0 26 0 0
2022-07-04 13:51:18 GMT 33.643120 -84.437943 0 26 0 0
2022-07-04 13:51:16 GMT 33.643120 -84.437950 0 26 1 0
2022-07-04 13:51:13 GMT 33.643139 -84.437927 0 26 0 0
2022-07-04 13:51:11 GMT 33.643131 -84.437927 0 26 0 0
2022-07-04 13:51:08 GMT 33.643139 -84.437920 0 26 0 0
2022-07-04 13:51:07 GMT 33.643131 -84.437927 0 26 0 0
2022-07-04 13:51:06 GMT 33.643169 -84.437889 0 26 0 0
2022-07-04 13:51:04 GMT 33.643219 -84.437851 0 26 1 0
2022-07-04 13:51:03 GMT 33.643200 -84.437881 0 26 2 0
2022-07-04 13:51:01 GMT 33.643181 -84.437889 0 26 2 0
2022-07-04 13:51:00 GMT 33.643150 -84.437927 0 26 0 0
2022-07-04 13:50:57 GMT 33.643150 -84.437943 0 26 0 0
2022-07-04 13:50:56 GMT 33.643139 -84.437950 0 26 0 0
2022-07-04 13:50:55 GMT 33.643169 -84.437927 0 26 0 0
2022-07-04 13:50:53 GMT 33.643162 -84.437897 0 26 0 0
2022-07-04 13:50:51 GMT 33.643162 -84.437912 0 26 0 0
2022-07-04 13:50:50 GMT 33.643188 -84.437851 0 26 1 0
2022-07-04 13:50:48 GMT 33.643150 -84.437897 0 26 1 0
2022-07-04 13:50:46 GMT 33.643139 -84.437912 0 26 0 0
2022-07-04 13:50:44 GMT 33.643169 -84.437889 0 26 0 0
2022-07-04 13:50:43 GMT 33.643181 -84.437889 0 26 0 0
2022-07-04 13:50:41 GMT 33.643188 -84.437889 0 26 0 0
2022-07-04 13:50:39 GMT 33.643150 -84.437912 0 26 0 0
2022-07-04 13:50:36 GMT 33.643131 -84.437943 0 26 0 0
2022-07-04 13:50:34 GMT 33.643120 -84.437950 0 26 2 0
2022-07-04 13:50:33 GMT 33.643131 -84.437943 0 26 1 0
2022-07-04 13:50:31 GMT 33.643131 -84.437920 0 26 1 0
2022-07-04 13:50:30 GMT 33.643101 -84.437950 0 26 2 0
2022-07-04 13:50:29 GMT 33.643108 -84.437950 0 26 2 0
2022-07-04 13:50:28 GMT 33.643139 -84.437927 0 26 0 0
2022-07-04 13:50:26 GMT 33.643139 -84.437927 0 26 0 0
2022-07-04 13:50:25 GMT 33.643169 -84.437897 0 26 0 0
2022-07-04 13:50:23 GMT 33.643162 -84.437897 0 26 0 0
2022-07-04 13:50:21 GMT 33.643181 -84.437866 0 26 1 0
2022-07-04 13:50:19 GMT 33.643200 -84.437889 0 26 3 0
2022-07-04 13:50:18 GMT 33.643181 -84.437912 0 26 3 0
2022-07-04 13:50:17 GMT 33.643162 -84.437920 0 26 3 0
2022-07-04 13:50:12 GMT 33.643181 -84.437881 0 26 0 0
2022-07-04 13:50:10 GMT 33.643169 -84.437866 0 26 0 0
2022-07-04 13:50:09 GMT 33.643139 -84.437897 0 26 0 0
2022-07-04 13:50:06 GMT 33.643120 -84.437920 0 26 0 0
2022-07-04 13:50:04 GMT 33.643162 -84.437920 0 26 1 0
2022-07-04 13:50:02 GMT 33.643150 -84.437920 0 26 1 0
2022-07-04 13:50:01 GMT 33.643131 -84.437927 0 26 0 0
2022-07-04 13:49:59 GMT 33.643131 -84.437927 0 26 0 0
2022-07-04 13:49:52 GMT 33.643131 -84.437943 0 26 0 0
2022-07-04 13:49:49 GMT 33.643120 -84.437927 0 26 0 0
2022-07-04 13:49:46 GMT 33.643131 -84.437943 0 26 0 0
2022-07-04 13:49:43 GMT 33.643139 -84.437943 0 26 1 0
2022-07-04 13:49:41 GMT 33.643131 -84.437950 0 26 2 0
2022-07-04 13:49:40 GMT 33.643131 -84.437920 0 26 1 0
2022-07-04 13:49:38 GMT 33.643131 -84.437920 0 26 0 0
2022-07-04 13:49:37 GMT 33.643131 -84.437912 0 26 0 0
2022-07-04 13:49:35 GMT 33.643131 -84.437927 0 26 0 0
2022-07-04 13:49:34 GMT 33.643150 -84.437943 0 26 2 0
2022-07-04 13:49:32 GMT 33.643139 -84.437920 0 26 0 0
2022-07-04 13:49:31 GMT 33.643131 -84.437920 0 26 0 0
2022-07-04 13:49:30 GMT 33.643120 -84.437920 0 26 1 0
2022-07-04 13:49:28 GMT 33.643162 -84.437897 0 22 4 0
2022-07-04 13:49:27 GMT 33.643150 -84.437927 0 18 4 0
2022-07-04 13:49:25 GMT 33.643139 -84.437920 0 5 8 0
2022-07-04 13:49:24 GMT 33.643131 -84.437943 0 339 7 0
2022-07-04 13:49:23 GMT 33.643082 -84.438011 0 268 3 0
2022-07-04 13:49:21 GMT 33.643040 -84.438080 0 268 2 0
2022-07-04 13:49:20 GMT 33.643009 -84.438133 0 280 6 0
2022-07-04 13:49:18 GMT 33.643009 -84.438141 0 304 8 0
2022-07-04 13:49:17 GMT 33.643021 -84.438133 0 341 10 0
2022-07-04 13:49:15 GMT 33.643108 -84.438019 0 37 7 0

Making use of Plane Finder data

You are free to use the raw flight data, aircraft information and images provided in this report for your own purposes provided the data is correctly attributed to Plane Finder. We ask that you please credit Plane Finder and link to planefinder.net in close proximity to the content.

Optionally one of the following logos (no smaller then 150x24px) can be used and must link to planefinder.net

Embedding the Plane Finder map

You are welcome to embed the Plane Finder playback map on your website to offer visitors a more interactive experience. We suggest using the following HTML code:

<iframe src="//planefinder.net/data/report/DL856-N900PC-7700-squawk-2022-07-04/map" width="800" height="600" seamless="seamless"></iframe>

Where our data comes from

Plane Finder has a global network of data feeds and antenna radars that receive data broadcast directly from aircraft. The primary technologies used are ADS-B and MLAT. We also show feeds from the FAA and a FLARM glider feed.

Click here to find out more about the Plane Finder network.

How we collect our data